Darstellungsparameter: Aktuell verwendete Einstellungen:
Skalierung der Graphiken ... ?
xyx+y,   Skalierungsfaktor:      Skalierung: Modus: x, Faktor: 1
Darstellungszeitraum ... ?
Vom - - bis: - -   Zeitraum: 22.09.2010 - 21.09.2020
Min/Max/Avg-Anzeige ... ?
Zeige MMA aktuell
Zeige MMA Monat
Zeige MMA alles
Zeige --A aktuell
Zeige --A Monat
Zeige --A alles
Keine MMA-Anzeige
MMA:
Average (ber die Originaldaten)
MMA-Basis: 22.09.2010 - 21.09.2020
Quicknavigation für Darstellung... ?
Tage:      1T, 2T, 3T, 5T -1T -2T -3T -5T +1T +2T +3T +5T
Wochen: 1W, 2W, 3W -1W -2W -3W +1W +2W +3W
Monate: 1M, 3M, 6M -1M -3M -6M +1M +3M +6M
Jahre:    1J, 3J, 5J, 10J -1J -3J -5J -10J +1J +3J +5J +10J
Nutze für die Darstellung ... ?
Originaldaten oder ...
Mittelwerte Minima Maxima auf...
Stundenbasis Tagesbasis Wochenbasis
Monatsbasis Jahresbasis      Datenbasis: Mittelwerte auf Stundenbasis
Darstellen als:
Statistik (Auto) Statistik J:M      Darstellung:
Zur Graphik,    zurück zur Übersicht aller Sensoren.
 
Tabellarische Datenbersicht: ?
 
Sensor: Nr:Datum:Temp:Abs-Feuchte:Windchill:Wind:
Aussen-T/F 1 22-09-2010 00:00:00 12.2 C 8.55 g/m*3 12.2 C 0 km/h
2 22-09-2010 01:00:00 11.5 C 8.41 g/m*3 11.5 C 0 km/h
3 22-09-2010 02:00:00 10.78 C 8.15 g/m*3 10.78 C 0 km/h
4 22-09-2010 03:00:00 10.22 C 8 g/m*3 10.22 C 0 km/h
5 22-09-2010 04:00:00 9.72 C 7.94 g/m*3 9.72 C 0 km/h
6 22-09-2010 05:00:00 9.84 C 8.15 g/m*3 9.84 C 0 km/h
7 22-09-2010 06:00:00 9.78 C 8.15 g/m*3 9.78 C 0 km/h
8 22-09-2010 07:00:00 9.56 C 8.04 g/m*3 9.56 C 0 km/h
9 22-09-2010 08:00:00 9.36 C 7.96 g/m*3 9.36 C 0 km/h
10 22-09-2010 09:00:00 10.18 C 8.15 g/m*3 10.18 C 0 km/h
11 22-09-2010 10:00:00 12.42 C 8.64 g/m*3 12.42 C 0 km/h
12 22-09-2010 11:00:00 13.78 C 9.19 g/m*3 13.78 C 0 km/h
13 22-09-2010 12:00:00 16.54 C 9.97 g/m*3 16.54 C 0 km/h
14 22-09-2010 13:00:00 19.76 C 10.09 g/m*3 19.76 C 0 km/h
15 22-09-2010 14:00:00 22.86 C 10.07 g/m*3 22.86 C 0 km/h
16 22-09-2010 15:00:00 25.06 C 9.29 g/m*3 25.06 C 0 km/h
17 22-09-2010 16:00:00 27.32 C 8.59 g/m*3 27.32 C 0 km/h
18 22-09-2010 17:00:00 27.06 C 8.16 g/m*3 27.06 C 0 km/h
19 22-09-2010 18:00:00 24.88 C 9.1 g/m*3 24.88 C 0 km/h
20 22-09-2010 19:00:00 20.88 C 9.2 g/m*3 20.88 C 0 km/h
21 22-09-2010 20:00:00 18.54 C 9.1 g/m*3 18.54 C 0 km/h
22 22-09-2010 21:00:00 17.46 C 9.31 g/m*3 17.46 C 0 km/h
23 22-09-2010 22:00:00 16.18 C 9.26 g/m*3 16.18 C 0 km/h
24 22-09-2010 23:00:00 14.92 C 8.78 g/m*3 14.92 C 0 km/h
25 23-09-2010 00:00:00 14.02 C 8.65 g/m*3 14.02 C 0 km/h
Sensor: Nr:Datum:Temp:Abs-Feuchte:Windchill:Wind:
Aussen-T/F 26 23-09-2010 01:00:00 13.22 C 8.71 g/m*3 13.22 C 0 km/h
27 23-09-2010 02:00:00 12.44 C 8.7 g/m*3 12.44 C 0 km/h
28 23-09-2010 03:00:00 11.8 C 8.57 g/m*3 11.8 C 0 km/h
29 23-09-2010 04:00:00 11.16 C 8.39 g/m*3 11.16 C 0 km/h
30 23-09-2010 05:00:00 10.64 C 8.22 g/m*3 10.64 C 0 km/h
31 23-09-2010 06:00:00 10.46 C 8.2 g/m*3 10.46 C 0 km/h
32 23-09-2010 07:00:00 10.52 C 8.25 g/m*3 10.52 C 0 km/h
33 23-09-2010 08:00:00 10.88 C 8.42 g/m*3 10.88 C 0 km/h
34 23-09-2010 09:00:00 11.64 C 8.65 g/m*3 11.64 C 0 km/h
35 23-09-2010 10:00:00 12.98 C 9.24 g/m*3 12.98 C 0 km/h
36 23-09-2010 11:00:00 15.64 C 10.08 g/m*3 15.64 C 0 km/h
37 23-09-2010 12:00:00 18.66 C 10.61 g/m*3 18.66 C 0 km/h
38 23-09-2010 13:00:00 22.3 C 10.7 g/m*3 22.3 C 0 km/h
39 23-09-2010 14:00:00 24.06 C 10.22 g/m*3 24.06 C 0 km/h
40 23-09-2010 15:00:00 25.04 C 9.37 g/m*3 25.04 C 0 km/h
41 23-09-2010 16:00:00 25.14 C 9.88 g/m*3 25.14 C 0 km/h
42 23-09-2010 17:00:00 23.48 C 10.73 g/m*3 23.48 C 0 km/h
43 23-09-2010 18:00:00 22.12 C 10.63 g/m*3 22.12 C 0 km/h
44 23-09-2010 19:00:00 19.9 C 11.06 g/m*3 19.9 C 0 km/h
45 23-09-2010 20:00:00 18.5 C 11.3 g/m*3 18.5 C 0 km/h
46 23-09-2010 21:00:00 18.5 C 11.49 g/m*3 18.5 C 0 km/h
47 23-09-2010 22:00:00 17.94 C 11.82 g/m*3 17.94 C 0 km/h
48 23-09-2010 23:00:00 16.44 C 12.26 g/m*3 16.44 C 0 km/h
49 24-09-2010 00:00:00 15.7 C 12.18 g/m*3 15.7 C 0 km/h
50 24-09-2010 01:00:00 15.54 C 12.3 g/m*3 15.54 C 0 km/h
Sensor: Nr:Datum:Temp:Abs-Feuchte:Windchill:Wind:
Aussen-T/F 51 24-09-2010 02:00:00 15.38 C 12.15 g/m*3 15.38 C 0 km/h
52 24-09-2010 03:00:00 14.94 C 11.91 g/m*3 14.94 C 0 km/h
53 24-09-2010 04:00:00 14.78 C 11.89 g/m*3 14.78 C 0 km/h
54 24-09-2010 05:00:00 14.54 C 11.72 g/m*3 14.54 C 0 km/h
55 24-09-2010 06:00:00 14.7 C 11.83 g/m*3 14.7 C 0 km/h
56 24-09-2010 07:00:00 14.4 C 11.62 g/m*3 14.4 C 0 km/h
57 24-09-2010 08:00:00 14.58 C 11.82 g/m*3 14.58 C 0 km/h
58 24-09-2010 09:00:00 14.88 C 12.07 g/m*3 14.88 C 0 km/h
59 24-09-2010 10:00:00 14.98 C 12.06 g/m*3 14.98 C 0 km/h
60 24-09-2010 11:00:00 15.22 C 12.22 g/m*3 15.22 C 0 km/h
61 24-09-2010 12:00:00 15.14 C 12.18 g/m*3 15.14 C 0 km/h
62 24-09-2010 13:00:00 14.56 C 11.73 g/m*3 14.56 C 0 km/h
63 24-09-2010 14:00:00 13.54 C 11.02 g/m*3 13.54 C 0 km/h
64 24-09-2010 15:00:00 13.08 C 10.8 g/m*3 13.08 C 0 km/h
65 24-09-2010 16:00:00 13.8 C 11.32 g/m*3 13.8 C 0 km/h
66 24-09-2010 17:00:00 13.48 C 11.03 g/m*3 13.48 C 0 km/h
67 24-09-2010 18:00:00 13.26 C 10.83 g/m*3 13.26 C 0 km/h
68 24-09-2010 19:00:00 12.84 C 10.64 g/m*3 12.84 C 0 km/h
69 24-09-2010 20:00:00 12.7 C 10.58 g/m*3 12.7 C 0 km/h
70 24-09-2010 21:00:00 12.82 C 10.65 g/m*3 12.82 C 0 km/h
71 24-09-2010 22:00:00 12.7 C 10.58 g/m*3 12.7 C 0 km/h
72 24-09-2010 23:00:00 12.4 C 10.38 g/m*3 12.4 C 0 km/h
73 25-09-2010 00:00:00 12.48 C 10.43 g/m*3 12.48 C 0 km/h
74 25-09-2010 01:00:00 12.52 C 10.46 g/m*3 12.52 C 0 km/h
75 25-09-2010 02:00:00 12.6 C 10.51 g/m*3 12.6 C 0 km/h
Sensor: Nr:Datum:Temp:Abs-Feuchte:Windchill:Wind:
Aussen-T/F 76 25-09-2010 03:00:00 12.62 C 10.52 g/m*3 12.62 C 0 km/h
77 25-09-2010 04:00:00 12.54 C 10.47 g/m*3 12.54 C 0 km/h
78 25-09-2010 05:00:00 12.38 C 10.35 g/m*3 12.38 C 0 km/h
79 25-09-2010 06:00:00 12.06 C 10.06 g/m*3 12.06 C 0 km/h
80 25-09-2010 07:00:00 11.88 C 9.94 g/m*3 11.88 C 0 km/h
81 25-09-2010 08:00:00 11.26 C 9.5 g/m*3 11.26 C 0 km/h
82 25-09-2010 09:00:00 10.48 C 8.81 g/m*3 10.48 C 0 km/h
83 25-09-2010 10:00:00 11.04 C 8.25 g/m*3 11.04 C 0 km/h
84 25-09-2010 11:00:00 12.3 C 7.45 g/m*3 12.3 C 0 km/h
85 25-09-2010 12:00:00 12.44 C 6.9 g/m*3 12.44 C 0 km/h
86 25-09-2010 13:00:00 13.26 C 6.04 g/m*3 13.26 C 0 km/h
87 25-09-2010 14:00:00 14.24 C 5.36 g/m*3 14.24 C 0 km/h
88 25-09-2010 15:00:00 15.04 C 4.68 g/m*3 15.04 C 0 km/h
89 25-09-2010 16:00:00 14.72 C 4.97 g/m*3 14.72 C 0 km/h
90 25-09-2010 17:00:00 15.6 C 5.08 g/m*3 15.6 C 0 km/h
91 25-09-2010 18:00:00 14.22 C 5.06 g/m*3 14.22 C 0 km/h
92 25-09-2010 19:00:00 12.98 C 5.75 g/m*3 12.98 C 0 km/h
93 25-09-2010 20:00:00 11.7 C 5.88 g/m*3 11.7 C 0 km/h
94 25-09-2010 21:00:00 10.12 C 6.31 g/m*3 10.12 C 0 km/h
95 25-09-2010 22:00:00 10.28 C 6.68 g/m*3 10.28 C 0 km/h
96 25-09-2010 23:00:00 9.28 C 7.4 g/m*3 9.28 C 0 km/h
97 26-09-2010 00:00:00 9.44 C 7.76 g/m*3 9.44 C 0 km/h
98 26-09-2010 01:00:00 9.48 C 7.24 g/m*3 9.48 C 0 km/h
99 26-09-2010 02:00:00 9.42 C 7.05 g/m*3 9.42 C 0 km/h
100 26-09-2010 03:00:00 9.2 C 7.07 g/m*3 9.2 C 0 km/h
Sensor: Nr:Datum:Temp:Abs-Feuchte:Windchill:Wind:
Aussen-T/F 101 26-09-2010 04:00:00 8.88 C 7.28 g/m*3 8.88 C 0 km/h
102 26-09-2010 05:00:00 9.02 C 7.33 g/m*3 9.02 C 0 km/h
103 26-09-2010 06:00:00 8.9 C 7.38 g/m*3 8.9 C 0 km/h
104 26-09-2010 07:00:00 8.8 C 7.45 g/m*3 8.8 C 0 km/h
105 26-09-2010 08:00:00 9.62 C 7.3 g/m*3 9.62 C 0 km/h
106 26-09-2010 09:00:00 10.26 C 7.18 g/m*3 10.26 C 0 km/h
107 26-09-2010 10:00:00 11.84 C 6.75 g/m*3 11.84 C 0 km/h
108 26-09-2010 11:00:00 13.22 C 6.44 g/m*3 13.22 C 0 km/h
109 26-09-2010 12:00:00 14.48 C 6.39 g/m*3 14.48 C 0 km/h
110 26-09-2010 13:00:00 13 C 7.58 g/m*3 13 C 0 km/h
111 26-09-2010 14:00:00 13.3 C 8.3 g/m*3 13.3 C 0 km/h
112 26-09-2010 15:00:00 14.18 C 8.12 g/m*3 14.18 C 0 km/h
113 26-09-2010 16:00:00 14.92 C 7.04 g/m*3 14.92 C 0 km/h
114 26-09-2010 17:00:00 15.18 C 6.61 g/m*3 15.18 C 0 km/h
115 26-09-2010 18:00:00 12.96 C 6.95 g/m*3 12.96 C 0 km/h
116 26-09-2010 19:00:00 12.24 C 7.1 g/m*3 12.24 C 0 km/h
117 26-09-2010 20:00:00 11.78 C 7.21 g/m*3 11.78 C 0 km/h
118 26-09-2010 21:00:00 11.16 C 7.12 g/m*3 11.16 C 0 km/h
119 26-09-2010 22:00:00 9.7 C 7.06 g/m*3 9.7 C 0 km/h
120 26-09-2010 23:00:00 8.84 C 7.17 g/m*3 8.84 C 0 km/h
121 27-09-2010 00:00:00 8.12 C 7.07 g/m*3 8.12 C 0 km/h
122 27-09-2010 01:00:00 7.46 C 7.04 g/m*3 7.46 C 0 km/h
123 27-09-2010 02:00:00 6.84 C 6.86 g/m*3 6.84 C 0 km/h
124 27-09-2010 03:00:00 6.46 C 6.75 g/m*3 6.46 C 0 km/h
125 27-09-2010 04:00:00 6.24 C 6.8 g/m*3 6.24 C 0 km/h
Sensor: Nr:Datum:Temp:Abs-Feuchte:Windchill:Wind:
Aussen-T/F 126 27-09-2010 05:00:00 6.24 C 6.83 g/m*3 6.24 C 0 km/h
127 27-09-2010 06:00:00 6.32 C 6.89 g/m*3 6.32 C 0 km/h
128 27-09-2010 07:00:00 6.74 C 7.13 g/m*3 6.74 C 0 km/h
129 27-09-2010 08:00:00 7.7 C 7.61 g/m*3 7.7 C 0 km/h
130 27-09-2010 09:00:00 9.24 C 8.2 g/m*3 9.24 C 0 km/h
131 27-09-2010 10:00:00 10.76 C 7.57 g/m*3 10.76 C 0 km/h
132 27-09-2010 11:00:00 11.98 C 6.79 g/m*3 11.98 C 0 km/h
133 27-09-2010 12:00:00 12.78 C 6.82 g/m*3 12.78 C 0 km/h
134 27-09-2010 13:00:00 13.48 C 6.73 g/m*3 13.48 C 0 km/h
135 27-09-2010 14:00:00 13.26 C 6.66 g/m*3 13.26 C 0 km/h
136 27-09-2010 15:00:00 13.4 C 6.65 g/m*3 13.4 C 0 km/h
137 27-09-2010 16:00:00 13.38 C 7.2 g/m*3 13.38 C 0 km/h
138 27-09-2010 17:00:00 12.9 C 7.69 g/m*3 12.9 C 0 km/h
139 27-09-2010 18:00:00 11.94 C 7.73 g/m*3 11.94 C 0 km/h
140 27-09-2010 19:00:00 10.58 C 8.13 g/m*3 10.58 C 0 km/h
141 27-09-2010 20:00:00 10.3 C 8.39 g/m*3 10.3 C 0 km/h
142 27-09-2010 21:00:00 10.34 C 8.55 g/m*3 10.34 C 0 km/h
143 27-09-2010 22:00:00 10.3 C 8.6 g/m*3 10.3 C 0 km/h
144 27-09-2010 23:00:00 10.16 C 8.64 g/m*3 10.16 C 0 km/h
145 28-09-2010 00:00:00 10 C 8.68 g/m*3 10 C 0 km/h
146 28-09-2010 01:00:00 9.98 C 8.75 g/m*3 9.98 C 0 km/h
147 28-09-2010 02:00:00 9.9 C 8.78 g/m*3 9.9 C 0 km/h
148 28-09-2010 03:00:00 9.9 C 8.87 g/m*3 9.9 C 0 km/h
149 28-09-2010 04:00:00 9.92 C 8.86 g/m*3 9.92 C 0 km/h
150 28-09-2010 05:00:00 10 C 8.93 g/m*3 10 C 0 km/h
Sensor: Nr:Datum:Temp:Abs-Feuchte:Windchill:Wind:
Aussen-T/F 151 28-09-2010 06:00:00 10.08 C 8.97 g/m*3 10.08 C 0 km/h
152 28-09-2010 07:00:00 10 C 8.93 g/m*3 10 C 0 km/h
153 28-09-2010 08:00:00 10.04 C 8.95 g/m*3 10.04 C 0 km/h
154 28-09-2010 09:00:00 10.24 C 9.06 g/m*3 10.24 C 0 km/h
155 28-09-2010 10:00:00 10.58 C 9.26 g/m*3 10.58 C 0 km/h
156 28-09-2010 11:00:00 11.18 C 9.62 g/m*3 11.18 C 0 km/h
157 28-09-2010 12:00:00 11.48 C 9.72 g/m*3 11.48 C 0 km/h
158 28-09-2010 13:00:00 11.74 C 9.71 g/m*3 11.74 C 0 km/h
159 28-09-2010 14:00:00 11.76 C 9.66 g/m*3 11.76 C 0 km/h
160 28-09-2010 15:00:00 11.74 C 9.73 g/m*3 11.74 C 0 km/h
161 28-09-2010 16:00:00 11.84 C 9.85 g/m*3 11.84 C 0 km/h
162 28-09-2010 17:00:00 11.98 C 10.01 g/m*3 11.98 C 0 km/h
163 28-09-2010 18:00:00 11.86 C 9.99 g/m*3 11.86 C 0 km/h
164 28-09-2010 19:00:00 11.72 C 9.95 g/m*3 11.72 C 0 km/h
165 28-09-2010 20:00:00 11.6 C 9.87 g/m*3 11.6 C 0 km/h
166 28-09-2010 21:00:00 11.58 C 9.86 g/m*3 11.58 C 0 km/h
167 28-09-2010 22:00:00 11.62 C 9.89 g/m*3 11.62 C 0 km/h
168 28-09-2010 23:00:00 11.6 C 9.87 g/m*3 11.6 C 0 km/h
169 29-09-2010 00:00:00 11.64 C 9.9 g/m*3 11.64 C 0 km/h
170 29-09-2010 01:00:00 11.62 C 9.89 g/m*3 11.62 C 0 km/h
171 29-09-2010 02:00:00 11.56 C 9.85 g/m*3 11.56 C 0 km/h
172 29-09-2010 03:00:00 11.48 C 9.8 g/m*3 11.48 C 0 km/h
173 29-09-2010 04:00:00 11.48 C 9.8 g/m*3 11.48 C 0 km/h
174 29-09-2010 05:00:00 11.4 C 9.75 g/m*3 11.4 C 0 km/h
175 29-09-2010 06:00:00 11.52 C 9.82 g/m*3 11.52 C 0 km/h
Sensor: Nr:Datum:Temp:Abs-Feuchte:Windchill:Wind:
Aussen-T/F 176 29-09-2010 07:00:00 11.04 C 9.53 g/m*3 11.04 C 0 km/h
177 29-09-2010 08:00:00 11.18 C 9.62 g/m*3 11.18 C 0 km/h
178 29-09-2010 09:00:00 11.44 C 9.57 g/m*3 11.44 C 0 km/h
179 29-09-2010 10:00:00 12.92 C 8.98 g/m*3 12.92 C 0 km/h
180 29-09-2010 11:00:00 13.96 C 8.42 g/m*3 13.96 C 0 km/h
181 29-09-2010 12:00:00 14.4 C 8.03 g/m*3 14.4 C 0 km/h
182 29-09-2010 13:00:00 15.74 C 7.89 g/m*3 15.74 C 0 km/h
183 29-09-2010 14:00:00 16.82 C 7.64 g/m*3 16.82 C 0 km/h
184 29-09-2010 15:00:00 19.16 C 6.88 g/m*3 19.16 C 0 km/h
185 29-09-2010 16:00:00 18.14 C 7.62 g/m*3 18.14 C 0 km/h
186 29-09-2010 17:00:00 18.3 C 7.54 g/m*3 18.3 C 0 km/h
187 29-09-2010 18:00:00 14.62 C 7.84 g/m*3 14.62 C 0 km/h
188 29-09-2010 19:00:00 13.08 C 7.68 g/m*3 13.08 C 0 km/h
189 29-09-2010 20:00:00 13.12 C 7.7 g/m*3 13.12 C 0 km/h
190 29-09-2010 21:00:00 12.5 C 7.94 g/m*3 12.5 C 0 km/h
191 29-09-2010 22:00:00 12.38 C 8.36 g/m*3 12.38 C 0 km/h
192 29-09-2010 23:00:00 11.96 C 8.33 g/m*3 11.96 C 0 km/h
193 30-09-2010 00:00:00 12.16 C 8.44 g/m*3 12.16 C 0 km/h
194 30-09-2010 01:00:00 11.86 C 7.75 g/m*3 11.86 C 0 km/h
195 30-09-2010 02:00:00 11.46 C 7.62 g/m*3 11.46 C 0 km/h
196 30-09-2010 03:00:00 11.16 C 7.87 g/m*3 11.16 C 0 km/h
197 30-09-2010 04:00:00 11.02 C 7.88 g/m*3 11.02 C 0 km/h
198 30-09-2010 05:00:00 10.76 C 7.79 g/m*3 10.76 C 0 km/h
199 30-09-2010 06:00:00 10.7 C 7.33 g/m*3 10.7 C 0 km/h
200 30-09-2010 07:00:00 10.66 C 7.66 g/m*3 10.66 C 0 km/h
Sensor: Nr:Datum:Temp:Abs-Feuchte:Windchill:Wind:
Aussen-T/F 201 30-09-2010 08:00:00 10.9 C 7.76 g/m*3 10.9 C 0 km/h
202 30-09-2010 09:00:00 11.4 C 7.86 g/m*3 11.4 C 0 km/h
203 30-09-2010 10:00:00 11.64 C 8.27 g/m*3 11.64 C 0 km/h
204 30-09-2010 11:00:00 11.86 C 8.47 g/m*3 11.86 C 0 km/h
205 30-09-2010 12:00:00 11.98 C 8.94 g/m*3 11.98 C 0 km/h
206 30-09-2010 13:00:00 12.58 C 9.55 g/m*3 12.58 C 0 km/h
207 30-09-2010 14:00:00 12.94 C 9.9 g/m*3 12.94 C 0 km/h
208 30-09-2010 15:00:00 13.26 C 10.12 g/m*3 13.26 C 0 km/h
209 30-09-2010 16:00:00 13.4 C 10.16 g/m*3 13.4 C 0 km/h
210 30-09-2010 17:00:00 12.96 C 9.98 g/m*3 12.96 C 0 km/h
211 30-09-2010 18:00:00 12.48 C 9.82 g/m*3 12.48 C 0 km/h
212 30-09-2010 19:00:00 12.14 C 9.78 g/m*3 12.14 C 0 km/h
213 30-09-2010 20:00:00 12.16 C 9.92 g/m*3 12.16 C 0 km/h
214 30-09-2010 21:00:00 12.08 C 9.96 g/m*3 12.08 C 0 km/h
215 30-09-2010 22:00:00 11.96 C 9.93 g/m*3 11.96 C 0 km/h
216 30-09-2010 23:00:00 12 C 10 g/m*3 12 C 0 km/h
217 01-10-2010 00:00:00 12.02 C 10.05 g/m*3 12.02 C 0 km/h
218 01-10-2010 01:00:00 11.58 C 9.86 g/m*3 11.58 C 0 km/h
219 01-10-2010 02:00:00 11.44 C 9.78 g/m*3 11.44 C 0 km/h
220 01-10-2010 03:00:00 11.56 C 9.85 g/m*3 11.56 C 0 km/h
221 01-10-2010 04:00:00 11.7 C 9.94 g/m*3 11.7 C 0 km/h
222 01-10-2010 05:00:00 11.62 C 9.89 g/m*3 11.62 C 0 km/h
223 01-10-2010 06:00:00 11.4 C 9.75 g/m*3 11.4 C 0 km/h
224 01-10-2010 07:00:00 11 C 9.51 g/m*3 11 C 0 km/h
225 01-10-2010 08:00:00 10.3 C 9.1 g/m*3 10.3 C 0 km/h
Sensor: Nr:Datum:Temp:Abs-Feuchte:Windchill:Wind:
Aussen-T/F 226 01-10-2010 09:00:00 11.24 C 9.65 g/m*3 11.24 C 0 km/h
227 01-10-2010 10:00:00 11.72 C 9.63 g/m*3 11.72 C 0 km/h
228 01-10-2010 11:00:00 12.46 C 8.84 g/m*3 12.46 C 0 km/h
229 01-10-2010 12:00:00 12.68 C 8.49 g/m*3 12.68 C 0 km/h
230 01-10-2010 13:00:00 13.18 C 8.12 g/m*3 13.18 C 0 km/h
231 01-10-2010 14:00:00 13.32 C 7.94 g/m*3 13.32 C 0 km/h
232 01-10-2010 15:00:00 15.3 C 7.78 g/m*3 15.3 C 0 km/h
233 01-10-2010 16:00:00 16.74 C 7.61 g/m*3 16.74 C 0 km/h
234 01-10-2010 17:00:00 16.14 C 8.35 g/m*3 16.14 C 0 km/h
235 01-10-2010 18:00:00 14.34 C 8.79 g/m*3 14.34 C 0 km/h
236 01-10-2010 19:00:00 12.18 C 8.56 g/m*3 12.18 C 0 km/h
237 01-10-2010 20:00:00 11.26 C 8.51 g/m*3 11.26 C 0 km/h
238 01-10-2010 21:00:00 10.86 C 8.53 g/m*3 10.86 C 0 km/h
239 01-10-2010 22:00:00 10.98 C 8.76 g/m*3 10.98 C 0 km/h
240 01-10-2010 23:00:00 11.06 C 8.74 g/m*3 11.06 C 0 km/h
241 02-10-2010 00:00:00 11.12 C 8.71 g/m*3 11.12 C 0 km/h
242 02-10-2010 01:00:00 10.92 C 8.74 g/m*3 10.92 C 0 km/h
243 02-10-2010 02:00:00 10.96 C 8.97 g/m*3 10.96 C 0 km/h
244 02-10-2010 03:00:00 11.1 C 9.15 g/m*3 11.1 C 0 km/h
245 02-10-2010 04:00:00 11.08 C 9.26 g/m*3 11.08 C 0 km/h
246 02-10-2010 05:00:00 10.98 C 9.3 g/m*3 10.98 C 0 km/h
247 02-10-2010 06:00:00 11 C 9.39 g/m*3 11 C 0 km/h
248 02-10-2010 07:00:00 11.14 C 9.55 g/m*3 11.14 C 0 km/h
249 02-10-2010 08:00:00 11.46 C 9.79 g/m*3 11.46 C 0 km/h
250 02-10-2010 09:00:00 12 C 10.12 g/m*3 12 C 0 km/h
Sensor: Nr:Datum:Temp:Abs-Feuchte:Windchill:Wind:
Aussen-T/F 251 02-10-2010 10:00:00 13.14 C 10.75 g/m*3 13.14 C 0 km/h
252 02-10-2010 11:00:00 14.32 C 11.27 g/m*3 14.32 C 0 km/h
253 02-10-2010 12:00:00 15.04 C 11.52 g/m*3 15.04 C 0 km/h
254 02-10-2010 13:00:00 15.74 C 11.53 g/m*3 15.74 C 0 km/h
255 02-10-2010 14:00:00 15.64 C 11.41 g/m*3 15.64 C 0 km/h
256 02-10-2010 15:00:00 16 C 11.47 g/m*3 16 C 0 km/h
257 02-10-2010 16:00:00 16.24 C 11.09 g/m*3 16.24 C 0 km/h
258 02-10-2010 17:00:00 16.28 C 10.92 g/m*3 16.28 C 0 km/h
259 02-10-2010 18:00:00 15.42 C 10.92 g/m*3 15.42 C 0 km/h
260 02-10-2010 19:00:00 14.94 C 10.94 g/m*3 14.94 C 0 km/h
261 02-10-2010 20:00:00 14.8 C 11.1 g/m*3 14.8 C 0 km/h
262 02-10-2010 21:00:00 14.5 C 11.02 g/m*3 14.5 C 0 km/h
263 02-10-2010 22:00:00 14.48 C 11.16 g/m*3 14.48 C 0 km/h
264 02-10-2010 23:00:00 14.56 C 11.13 g/m*3 14.56 C 0 km/h
265 03-10-2010 00:00:00 14.44 C 11.08 g/m*3 14.44 C 0 km/h
266 03-10-2010 01:00:00 14.7 C 10.7 g/m*3 14.7 C 0 km/h
267 03-10-2010 02:00:00 14.58 C 10.32 g/m*3 14.58 C 0 km/h
268 03-10-2010 03:00:00 13.92 C 10.59 g/m*3 13.92 C 0 km/h
269 03-10-2010 04:00:00 14.08 C 10.62 g/m*3 14.08 C 0 km/h
270 03-10-2010 05:00:00 14.26 C 10.34 g/m*3 14.26 C 0 km/h
271 03-10-2010 06:00:00 13.46 C 10.24 g/m*3 13.46 C 0 km/h
272 03-10-2010 07:00:00 13.42 C 10.43 g/m*3 13.42 C 0 km/h
273 03-10-2010 08:00:00 13.98 C 10.41 g/m*3 13.98 C 0 km/h
274 03-10-2010 09:00:00 15.12 C 10.08 g/m*3 15.12 C 0 km/h
275 03-10-2010 10:00:00 16.78 C 9.91 g/m*3 16.78 C 0 km/h
Sensor: Nr:Datum:Temp:Abs-Feuchte:Windchill:Wind:
Aussen-T/F 276 03-10-2010 11:00:00 18.14 C 10.13 g/m*3 18.14 C 0 km/h
277 03-10-2010 12:00:00 19.68 C 9.74 g/m*3 19.68 C 0 km/h
278 03-10-2010 13:00:00 21.36 C 9.43 g/m*3 21.36 C 0 km/h
279 03-10-2010 14:00:00 23.34 C 9.09 g/m*3 23.34 C 0 km/h
280 03-10-2010 15:00:00 24.72 C 8.61 g/m*3 24.72 C 0 km/h
281 03-10-2010 16:00:00 25.12 C 8.67 g/m*3 25.12 C 0 km/h
282 03-10-2010 17:00:00 25.22 C 9.37 g/m*3 25.22 C 0 km/h
283 03-10-2010 18:00:00 21.54 C 10.55 g/m*3 21.54 C 0 km/h
284 03-10-2010 19:00:00 18.78 C 10.84 g/m*3 18.78 C 0 km/h
285 03-10-2010 20:00:00 18.34 C 10.88 g/m*3 18.34 C 0 km/h
286 03-10-2010 21:00:00 17.96 C 11.03 g/m*3 17.96 C 0 km/h
287 03-10-2010 22:00:00 17.56 C 10.86 g/m*3 17.56 C 0 km/h
288 03-10-2010 23:00:00 17.56 C 10.32 g/m*3 17.56 C 0 km/h
289 04-10-2010 00:00:00 17.28 C 9.86 g/m*3 17.28 C 0 km/h
290 04-10-2010 01:00:00 17.18 C 9.59 g/m*3 17.18 C 0 km/h
291 04-10-2010 02:00:00 16.82 C 9.65 g/m*3 16.82 C 0 km/h
292 04-10-2010 03:00:00 15.76 C 9.96 g/m*3 15.76 C 0 km/h
293 04-10-2010 04:00:00 15.1 C 9.99 g/m*3 15.1 C 0 km/h
294 04-10-2010 05:00:00 14.3 C 9.95 g/m*3 14.3 C 0 km/h
295 04-10-2010 06:00:00 13.92 C 9.94 g/m*3 13.92 C 0 km/h
296 04-10-2010 07:00:00 13.62 C 9.83 g/m*3 13.62 C 0 km/h
297 04-10-2010 08:00:00 14.26 C 9.8 g/m*3 14.26 C 0 km/h
298 04-10-2010 09:00:00 15 C 9.23 g/m*3 15 C 0 km/h
299 04-10-2010 10:00:00 15.66 C 8.97 g/m*3 15.66 C 0 km/h
300 04-10-2010 11:00:00 17.62 C 8.92 g/m*3 17.62 C 0 km/h
Sensor: Nr:Datum:Temp:Abs-Feuchte:Windchill:Wind:
Aussen-T/F 301 04-10-2010 12:00:00 17.84 C 8.76 g/m*3 17.84 C 0 km/h
302 04-10-2010 13:00:00 18.72 C 8.62 g/m*3 18.72 C 0 km/h
303 04-10-2010 14:00:00 19.76 C 8.72 g/m*3 19.76 C 0 km/h
304 04-10-2010 15:00:00 22.5 C 8.63 g/m*3 22.5 C 0 km/h
305 04-10-2010 16:00:00 23.64 C 8.23 g/m*3 23.64 C 0 km/h
306 04-10-2010 17:00:00 21.14 C 9.16 g/m*3 21.14 C 0 km/h
307 04-10-2010 18:00:00 18.68 C 9.66 g/m*3 18.68 C 0 km/h
308 04-10-2010 19:00:00 16.52 C 10.09 g/m*3 16.52 C 0 km/h
309 04-10-2010 20:00:00 16.22 C 10.02 g/m*3 16.22 C 0 km/h
310 04-10-2010 21:00:00 15.42 C 9.94 g/m*3 15.42 C 0 km/h
311 04-10-2010 22:00:00 14.56 C 9.91 g/m*3 14.56 C 0 km/h
312 04-10-2010 23:00:00 14.2 C 9.92 g/m*3 14.2 C 0 km/h
313 05-10-2010 00:00:00 14.2 C 10.01 g/m*3 14.2 C 0 km/h
314 05-10-2010 01:00:00 13.94 C 9.9 g/m*3 13.94 C 0 km/h
315 05-10-2010 02:00:00 13.52 C 9.84 g/m*3 13.52 C 0 km/h
316 05-10-2010 03:00:00 13.6 C 10 g/m*3 13.6 C 0 km/h
317 05-10-2010 04:00:00 13.6 C 10.1 g/m*3 13.6 C 0 km/h
318 05-10-2010 05:00:00 13.6 C 10.14 g/m*3 13.6 C 0 km/h
319 05-10-2010 06:00:00 13.42 C 10.38 g/m*3 13.42 C 0 km/h
320 05-10-2010 07:00:00 13.4 C 10.56 g/m*3 13.4 C 0 km/h
321 05-10-2010 08:00:00 13.14 C 10.41 g/m*3 13.14 C 0 km/h
322 05-10-2010 09:00:00 13.3 C 10.68 g/m*3 13.3 C 0 km/h
323 05-10-2010 10:00:00 14.8 C 11.81 g/m*3 14.8 C 0 km/h
324 05-10-2010 11:00:00 17.48 C 13.01 g/m*3 17.48 C 0 km/h
325 05-10-2010 12:00:00 18.1 C 11.43 g/m*3 18.1 C 0 km/h
Sensor: Nr:Datum:Temp:Abs-Feuchte:Windchill:Wind:
Aussen-T/F 326 05-10-2010 13:00:00 19.18 C 11.23 g/m*3 19.18 C 0 km/h
327 05-10-2010 14:00:00 19.26 C 10.95 g/m*3 19.26 C 0 km/h
328 05-10-2010 15:00:00 18.8 C 12.63 g/m*3 18.8 C 0 km/h
329 05-10-2010 16:00:00 18.5 C 12.47 g/m*3 18.5 C 0 km/h
330 05-10-2010 17:00:00 17.1 C 11.67 g/m*3 17.1 C 0 km/h
331 05-10-2010 18:00:00 17.02 C 11.44 g/m*3 17.02 C 0 km/h
332 05-10-2010 19:00:00 16.66 C 11.31 g/m*3 16.66 C 0 km/h
333 05-10-2010 20:00:00 16.36 C 10.94 g/m*3 16.36 C 0 km/h
334 05-10-2010 21:00:00 15.68 C 10.26 g/m*3 15.68 C 0 km/h
335 05-10-2010 22:00:00 15.3 C 9.98 g/m*3 15.3 C 0 km/h
336 05-10-2010 23:00:00 15.6 C 9.97 g/m*3 15.6 C 0 km/h
337 06-10-2010 00:00:00 15.6 C 9.97 g/m*3 15.6 C 0 km/h
338 06-10-2010 01:00:00 15.5 C 9.99 g/m*3 15.5 C 0 km/h
339 06-10-2010 02:00:00 15.44 C 10.17 g/m*3 15.44 C 0 km/h
340 06-10-2010 03:00:00 15.28 C 10.1 g/m*3 15.28 C 0 km/h
341 06-10-2010 04:00:00 15.1 C 10.09 g/m*3 15.1 C 0 km/h
342 06-10-2010 05:00:00 14.92 C 10.26 g/m*3 14.92 C 0 km/h
343 06-10-2010 06:00:00 14.82 C 10.1 g/m*3 14.82 C 0 km/h
344 06-10-2010 07:00:00 14.66 C 9.95 g/m*3 14.66 C 0 km/h
345 06-10-2010 08:00:00 14.52 C 10.19 g/m*3 14.52 C 0 km/h
346 06-10-2010 09:00:00 15.54 C 10.12 g/m*3 15.54 C 0 km/h
347 06-10-2010 10:00:00 16.24 C 9.93 g/m*3 16.24 C 0 km/h
348 06-10-2010 11:00:00 17.76 C 9.27 g/m*3 17.76 C 0 km/h
349 06-10-2010 12:00:00 19.04 C 8.69 g/m*3 19.04 C 0 km/h
350 06-10-2010 13:00:00 20.2 C 8.5 g/m*3 20.2 C 0 km/h
Sensor: Nr:Datum:Temp:Abs-Feuchte:Windchill:Wind:
Aussen-T/F 351 06-10-2010 14:00:00 21.62 C 8.24 g/m*3 21.62 C 0 km/h
352 06-10-2010 15:00:00 23.06 C 8.25 g/m*3 23.06 C 0 km/h
353 06-10-2010 16:00:00 22.84 C 8.96 g/m*3 22.84 C 0 km/h
354 06-10-2010 17:00:00 21.08 C 10.16 g/m*3 21.08 C 0 km/h
355 06-10-2010 18:00:00 18.94 C 10.23 g/m*3 18.94 C 0 km/h
356 06-10-2010 19:00:00 17.3 C 10.19 g/m*3 17.3 C 0 km/h
357 06-10-2010 20:00:00 16.9 C 10.13 g/m*3 16.9 C 0 km/h
358 06-10-2010 21:00:00 16.36 C 10.42 g/m*3 16.36 C 0 km/h
359 06-10-2010 22:00:00 15.74 C 10.52 g/m*3 15.74 C 0 km/h
360 06-10-2010 23:00:00 14.9 C 10.32 g/m*3 14.9 C 0 km/h
361 07-10-2010 00:00:00 14.22 C 10.17 g/m*3 14.22 C 0 km/h
362 07-10-2010 01:00:00 14.24 C 10.5 g/m*3 14.24 C 0 km/h
363 07-10-2010 02:00:00 14.24 C 10.43 g/m*3 14.24 C 0 km/h
364 07-10-2010 03:00:00 14.08 C 10.35 g/m*3 14.08 C 0 km/h
365 07-10-2010 04:00:00 13.82 C 10.31 g/m*3 13.82 C 0 km/h
366 07-10-2010 05:00:00 13.3 C 10.17 g/m*3 13.3 C 0 km/h
367 07-10-2010 06:00:00 13.84 C 10.51 g/m*3 13.84 C 0 km/h
368 07-10-2010 07:00:00 14.12 C 10.6 g/m*3 14.12 C 0 km/h
369 07-10-2010 08:00:00 14.66 C 10.9 g/m*3 14.66 C 0 km/h
370 07-10-2010 09:00:00 15.06 C 10.6 g/m*3 15.06 C 0 km/h
371 07-10-2010 10:00:00 16.18 C 10.33 g/m*3 16.18 C 0 km/h
372 07-10-2010 11:00:00 17.26 C 10.32 g/m*3 17.26 C 0 km/h
373 07-10-2010 12:00:00 18.4 C 9.97 g/m*3 18.4 C 0 km/h
374 07-10-2010 13:00:00 19.26 C 9.83 g/m*3 19.26 C 0 km/h
375 07-10-2010 14:00:00 19.88 C 9.78 g/m*3 19.88 C 0 km/h
Sensor: Nr:Datum:Temp:Abs-Feuchte:Windchill:Wind:
Aussen-T/F 376 07-10-2010 15:00:00 20.5 C 9.5 g/m*3 20.5 C 0 km/h
377 07-10-2010 16:00:00 19.94 C 9.47 g/m*3 19.94 C 0 km/h
378 07-10-2010 17:00:00 19.16 C 9.57 g/m*3 19.16 C 0 km/h
379 07-10-2010 18:00:00 17.88 C 10.22 g/m*3 17.88 C 0 km/h
380 07-10-2010 19:00:00 16.9 C 10.38 g/m*3 16.9 C 0 km/h
381 07-10-2010 20:00:00 16.3 C 10.35 g/m*3 16.3 C 0 km/h
382 07-10-2010 21:00:00 16.22 C 10.13 g/m*3 16.22 C 0 km/h
383 07-10-2010 22:00:00 16 C 9.86 g/m*3 16 C 0 km/h
384 07-10-2010 23:00:00 16.02 C 9.74 g/m*3 16.02 C 0 km/h
385 08-10-2010 00:00:00 15.82 C 9.89 g/m*3 15.82 C 0 km/h
386 08-10-2010 01:00:00 15.62 C 9.67 g/m*3 15.62 C 0 km/h
387 08-10-2010 02:00:00 15.44 C 9.35 g/m*3 15.44 C 0 km/h
388 08-10-2010 03:00:00 14.92 C 8.75 g/m*3 14.92 C 0 km/h
389 08-10-2010 04:00:00 14.52 C 8.57 g/m*3 14.52 C 0 km/h
390 08-10-2010 05:00:00 14.24 C 8.81 g/m*3 14.24 C 0 km/h
391 08-10-2010 06:00:00 13.98 C 8.96 g/m*3 13.98 C 0 km/h
392 08-10-2010 07:00:00 14.02 C 9.13 g/m*3 14.02 C 0 km/h
393 08-10-2010 08:00:00 14.2 C 9.23 g/m*3 14.2 C 0 km/h
394 08-10-2010 09:00:00 14.6 C 9.41 g/m*3 14.6 C 0 km/h
395 08-10-2010 10:00:00 15.28 C 9.47 g/m*3 15.28 C 0 km/h
396 08-10-2010 11:00:00 15.86 C 9.29 g/m*3 15.86 C 0 km/h
397 08-10-2010 12:00:00 16.54 C 9.09 g/m*3 16.54 C 0 km/h
398 08-10-2010 13:00:00 16.94 C 8.77 g/m*3 16.94 C 0 km/h
399 08-10-2010 14:00:00 18.76 C 8.77 g/m*3 18.76 C 0 km/h
400 08-10-2010 15:00:00 20.32 C 8.52 g/m*3 20.32 C 0 km/h
Sensor: Nr:Datum:Temp:Abs-Feuchte:Windchill:Wind:
Aussen-T/F 401 08-10-2010 16:00:00 22.2 C 8.95 g/m*3 22.2 C 0 km/h
402 08-10-2010 17:00:00 21.78 C 9.24 g/m*3 21.78 C 0 km/h
403 08-10-2010 18:00:00 19.06 C 9.68 g/m*3 19.06 C 0 km/h
404 08-10-2010 19:00:00 15.88 C 9.98 g/m*3 15.88 C 0 km/h
405 08-10-2010 20:00:00 14.78 C 9.79 g/m*3 14.78 C 0 km/h
406 08-10-2010 21:00:00 14.08 C 9.65 g/m*3 14.08 C 0 km/h
407 08-10-2010 22:00:00 13.28 C 9.51 g/m*3 13.28 C 0 km/h
408 08-10-2010 23:00:00 12.58 C 9.3 g/m*3 12.58 C 0 km/h
409 09-10-2010 00:00:00 11.9 C 9.11 g/m*3 11.9 C 0 km/h
410 09-10-2010 01:00:00 11.34 C 8.96 g/m*3 11.34 C 0 km/h
411 09-10-2010 02:00:00 10.74 C 8.68 g/m*3 10.74 C 0 km/h
412 09-10-2010 03:00:00 10.24 C 8.43 g/m*3 10.24 C 0 km/h
413 09-10-2010 04:00:00 9.78 C 8.32 g/m*3 9.78 C 0 km/h
414 09-10-2010 05:00:00 9.52 C 8.29 g/m*3 9.52 C 0 km/h
415 09-10-2010 06:00:00 9.42 C 8.31 g/m*3 9.42 C 0 km/h
416 09-10-2010 07:00:00 9.24 C 8.24 g/m*3 9.24 C 0 km/h
417 09-10-2010 08:00:00 9.2 C 8.22 g/m*3 9.2 C 0 km/h
418 09-10-2010 09:00:00 9.28 C 8.24 g/m*3 9.28 C 0 km/h
419 09-10-2010 10:00:00 10.44 C 8.87 g/m*3 10.44 C 0 km/h
420 09-10-2010 11:00:00 12.52 C 9.53 g/m*3 12.52 C 0 km/h
421 09-10-2010 12:00:00 14.68 C 8.2 g/m*3 14.68 C 0 km/h
422 09-10-2010 13:00:00 17.1 C 7.89 g/m*3 17.1 C 0 km/h
423 09-10-2010 14:00:00 19.96 C 7.03 g/m*3 19.96 C 0 km/h
424 09-10-2010 15:00:00 21.86 C 6.28 g/m*3 21.86 C 0 km/h
425 09-10-2010 16:00:00 22.16 C 6.23 g/m*3 22.16 C 0 km/h
Sensor: Nr:Datum:Temp:Abs-Feuchte:Windchill:Wind:
Aussen-T/F 426 09-10-2010 17:00:00 20.8 C 6.19 g/m*3 20.8 C 0 km/h
427 09-10-2010 18:00:00 17.02 C 6.26 g/m*3 17.02 C 0 km/h
428 09-10-2010 19:00:00 13.8 C 6.12 g/m*3 13.8 C 0 km/h
429 09-10-2010 20:00:00 12.84 C 6.58 g/m*3 12.84 C 0 km/h
430 09-10-2010 21:00:00 11.48 C 6.99 g/m*3 11.48 C 0 km/h
431 09-10-2010 22:00:00 10.6 C 7.03 g/m*3 10.6 C 0 km/h
432 09-10-2010 23:00:00 9.62 C 6.92 g/m*3 9.62 C 0 km/h
433 10-10-2010 00:00:00 8.94 C 6.99 g/m*3 8.94 C 0 km/h
434 10-10-2010 01:00:00 8.38 C 6.93 g/m*3 8.38 C 0 km/h
435 10-10-2010 02:00:00 7.76 C 6.82 g/m*3 7.76 C 0 km/h
436 10-10-2010 03:00:00 7.14 C 6.66 g/m*3 7.14 C 0 km/h
437 10-10-2010 04:00:00 6.76 C 6.61 g/m*3 6.76 C 0 km/h
438 10-10-2010 05:00:00 6.28 C 6.45 g/m*3 6.28 C 0 km/h
439 10-10-2010 06:00:00 5.86 C 6.36 g/m*3 5.86 C 0 km/h
440 10-10-2010 07:00:00 5.5 C 6.31 g/m*3 5.5 C 0 km/h
441 10-10-2010 08:00:00 6.36 C 6.69 g/m*3 6.36 C 0 km/h
442 10-10-2010 09:00:00 7.26 C 6.79 g/m*3 7.26 C 0 km/h
443 10-10-2010 10:00:00 8.92 C 6.6 g/m*3 8.92 C 0 km/h
444 10-10-2010 11:00:00 10.92 C 6.57 g/m*3 10.92 C 0 km/h
445 10-10-2010 12:00:00 12.8 C 6.47 g/m*3 12.8 C 0 km/h
446 10-10-2010 13:00:00 15.86 C 5.67 g/m*3 15.86 C 0 km/h
447 10-10-2010 14:00:00 18.62 C 5.45 g/m*3 18.62 C 0 km/h
448 10-10-2010 15:00:00 20.4 C 5.91 g/m*3 20.4 C 0 km/h
449 10-10-2010 16:00:00 21.28 C 5.7 g/m*3 21.28 C 0 km/h
450 10-10-2010 17:00:00 20.64 C 5.6 g/m*3 20.64 C 0 km/h
Sensor: Nr:Datum:Temp:Abs-Feuchte:Windchill:Wind:
Aussen-T/F 451 10-10-2010 18:00:00 17.2 C 5.45 g/m*3 17.2 C 0 km/h
452 10-10-2010 19:00:00 14.18 C 5.49 g/m*3 14.18 C 0 km/h
453 10-10-2010 20:00:00 13.02 C 4.91 g/m*3 13.02 C 0 km/h
454 10-10-2010 21:00:00 12.44 C 4.01 g/m*3 12.44 C 0 km/h
455 10-10-2010 22:00:00 11.46 C 4.12 g/m*3 11.46 C 0 km/h
456 10-10-2010 23:00:00 10.72 C 4.52 g/m*3 10.72 C 0 km/h
457 11-10-2010 00:00:00 9.98 C 4.88 g/m*3 9.98 C 0 km/h
458 11-10-2010 01:00:00 9.44 C 4.91 g/m*3 9.44 C 0 km/h
459 11-10-2010 02:00:00 9.08 C 4.87 g/m*3 9.08 C 0 km/h
460 11-10-2010 03:00:00 8.24 C 4.99 g/m*3 8.24 C 0 km/h
461 11-10-2010 04:00:00 7.58 C 5.1 g/m*3 7.58 C 0 km/h
462 11-10-2010 05:00:00 6.64 C 5.24 g/m*3 6.64 C 0 km/h
463 11-10-2010 06:00:00 5.72 C 5.32 g/m*3 5.72 C 0 km/h
464 11-10-2010 07:00:00 5.22 C 5.36 g/m*3 5.22 C 0 km/h
465 11-10-2010 08:00:00 4.96 C 5.39 g/m*3 4.96 C 0 km/h
466 11-10-2010 09:00:00 5.6 C 5.7 g/m*3 5.6 C 0 km/h
467 11-10-2010 10:00:00 7.12 C 6.11 g/m*3 7.12 C 0 km/h
468 11-10-2010 11:00:00 9.46 C 6.36 g/m*3 9.46 C 0 km/h
469 11-10-2010 12:00:00 11.62 C 6.45 g/m*3 11.62 C 0 km/h
470 11-10-2010 13:00:00 14.92 C 5.9 g/m*3 14.92 C 0 km/h
471 11-10-2010 14:00:00 17.48 C 5.45 g/m*3 17.48 C 0 km/h
472 11-10-2010 15:00:00 19.78 C 5.05 g/m*3 19.78 C 0 km/h
473 11-10-2010 16:00:00 20.96 C 4.61 g/m*3 20.96 C 0 km/h
474 11-10-2010 17:00:00 19.56 C 3.6 g/m*3 19.56 C 0 km/h
475 11-10-2010 18:00:00 16.12 C 3.98 g/m*3 16.12 C 0 km/h
Sensor: Nr:Datum:Temp:Abs-Feuchte:Windchill:Wind:
Aussen-T/F 476 11-10-2010 19:00:00 13.18 C 4.33 g/m*3 13.18 C 0 km/h
477 11-10-2010 20:00:00 11.32 C 4.82 g/m*3 11.32 C 0 km/h
478 11-10-2010 21:00:00 10.025 C 4.96 g/m*3 10.03 C 0 km/h
479 11-10-2010 22:00:00 9.2 C 4.84 g/m*3 9.2 C 0 km/h
480 11-10-2010 23:00:00 8.24 C 4.87 g/m*3 8.24 C 0 km/h
481 12-10-2010 00:00:00 7.16 C 5.01 g/m*3 7.16 C 0 km/h
482 12-10-2010 01:00:00 6.4 C 5.13 g/m*3 6.4 C 0 km/h
483 12-10-2010 02:00:00 5.74 C 5.24 g/m*3 5.74 C 0 km/h
484 12-10-2010 03:00:00 5.04 C 5.31 g/m*3 5.04 C 0 km/h
485 12-10-2010 04:00:00 4.42 C 5.34 g/m*3 4.42 C 0 km/h
486 12-10-2010 05:00:00 3.8 C 5.31 g/m*3 3.8 C 0 km/h
487 12-10-2010 06:00:00 3.46 C 5.26 g/m*3 3.46 C 0 km/h
488 12-10-2010 07:00:00 2.94 C 5.15 g/m*3 2.94 C 0 km/h
489 12-10-2010 08:00:00 3.56 C 5.52 g/m*3 3.56 C 0 km/h
490 12-10-2010 09:00:00 4.9 C 5.93 g/m*3 4.9 C 0 km/h
491 12-10-2010 10:00:00 5.82 C 6.07 g/m*3 5.82 C 0 km/h
492 12-10-2010 11:00:00 7.16 C 6.36 g/m*3 7.16 C 0 km/h
493 12-10-2010 12:00:00 9.56 C 6.18 g/m*3 9.56 C 0 km/h
494 12-10-2010 13:00:00 12.58 C 5.72 g/m*3 12.58 C 0 km/h
495 12-10-2010 14:00:00 15.26 C 5.65 g/m*3 15.26 C 0 km/h
496 12-10-2010 15:00:00 16.94 C 5.42 g/m*3 16.94 C 0 km/h
497 12-10-2010 16:00:00 17.66 C 5.42 g/m*3 17.66 C 0 km/h
498 12-10-2010 17:00:00 17.22 C 4.57 g/m*3 17.22 C 0 km/h
499 12-10-2010 18:00:00 14.5 C 5.65 g/m*3 14.5 C 0 km/h
500 12-10-2010 19:00:00 11.42 C 6.45 g/m*3 11.42 C 0 km/h
Sensor: Nr:Datum:Temp:Abs-Feuchte:Windchill:Wind:
Aussen-T/F 501 12-10-2010 20:00:00 9.84 C 6.47 g/m*3 9.84 C 0 km/h
502 12-10-2010 21:00:00 8.36 C 6.26 g/m*3 8.36 C 0 km/h
503 12-10-2010 22:00:00 7.74 C 6.15 g/m*3 7.74 C 0 km/h
504 12-10-2010 23:00:00 7.78 C 6 g/m*3 7.78 C 0 km/h
505 13-10-2010 00:00:00 7.6 C 5.86 g/m*3 7.6 C 0 km/h
506 13-10-2010 01:00:00 7.02 C 5.82 g/m*3 7.02 C 0 km/h
507 13-10-2010 02:00:00 6.8 C 5.83 g/m*3 6.8 C 0 km/h
508 13-10-2010 03:00:00 6.44 C 5.69 g/m*3 6.44 C 0 km/h
509 13-10-2010 04:00:00 6.2 C 5.59 g/m*3 6.2 C 0 km/h
510 13-10-2010 05:00:00 6.1 C 5.6 g/m*3 6.1 C 0 km/h
511 13-10-2010 06:00:00 5.84 C 5.6 g/m*3 5.84 C 0 km/h
512 13-10-2010 07:00:00 5.42 C 5.53 g/m*3 5.42 C 0 km/h
513 13-10-2010 08:00:00 5.62 C 5.49 g/m*3 5.62 C 0 km/h
514 13-10-2010 09:00:00 5.86 C 5.45 g/m*3 5.86 C 0 km/h
515 13-10-2010 10:00:00 6.66 C 5.3 g/m*3 6.66 C 0 km/h
516 13-10-2010 11:00:00 7.04 C 5.08 g/m*3 7.04 C 0 km/h
517 13-10-2010 12:00:00 8.14 C 5.06 g/m*3 8.14 C 0 km/h
518 13-10-2010 13:00:00 8.8 C 4.89 g/m*3 8.8 C 0 km/h
519 13-10-2010 14:00:00 9.8 C 4.95 g/m*3 9.8 C 0 km/h
520 13-10-2010 15:00:00 11.78 C 4.94 g/m*3 11.78 C 0 km/h
521 13-10-2010 16:00:00 12.06 C 5.01 g/m*3 12.06 C 0 km/h
522 13-10-2010 17:00:00 12.34 C 5.23 g/m*3 12.34 C 0 km/h
523 13-10-2010 18:00:00 9.94 C 5.5 g/m*3 9.94 C 0 km/h
524 13-10-2010 19:00:00 7.48 C 5.76 g/m*3 7.48 C 0 km/h
525 13-10-2010 20:00:00 6.96 C 5.81 g/m*3 6.96 C 0 km/h
Sensor: Nr:Datum:Temp:Abs-Feuchte:Windchill:Wind:
Aussen-T/F 526 13-10-2010 21:00:00 5.82 C 5.72 g/m*3 5.82 C 0 km/h
527 13-10-2010 22:00:00 5.16 C 5.73 g/m*3 5.16 C 0 km/h
528 13-10-2010 23:00:00 4.52 C 5.61 g/m*3 4.52 C 0 km/h
529 14-10-2010 00:00:00 3.88 C 5.51 g/m*3 3.88 C 0 km/h
530 14-10-2010 01:00:00 3.38 C 5.47 g/m*3 3.38 C 0 km/h
531 14-10-2010 02:00:00 3.62 C 5.65 g/m*3 3.62 C 0 km/h
532 14-10-2010 03:00:00 3.52 C 5.57 g/m*3 3.52 C 0 km/h
533 14-10-2010 04:00:00 3.54 C 5.55 g/m*3 3.54 C 0 km/h
534 14-10-2010 05:00:00 3.62 C 5.63 g/m*3 3.62 C 0 km/h
535 14-10-2010 06:00:00 3.92 C 5.7 g/m*3 3.92 C 0 km/h
536 14-10-2010 07:00:00 4.12 C 5.76 g/m*3 4.12 C 0 km/h
537 14-10-2010 08:00:00 4.44 C 5.84 g/m*3 4.44 C 0 km/h
538 14-10-2010 09:00:00 4.56 C 5.86 g/m*3 4.56 C 0 km/h
539 14-10-2010 10:00:00 5.16 C 5.88 g/m*3 5.16 C 0 km/h
540 14-10-2010 11:00:00 6.2 C 5.75 g/m*3 6.2 C 0 km/h
541 14-10-2010 12:00:00 7.86 C 5.59 g/m*3 7.86 C 0 km/h
542 14-10-2010 13:00:00 9.36 C 5.58 g/m*3 9.36 C 0 km/h
543 14-10-2010 14:00:00 11.86 C 5.85 g/m*3 11.86 C 0 km/h
544 14-10-2010 15:00:00 13.94 C 5.72 g/m*3 13.94 C 0 km/h
545 14-10-2010 16:00:00 14.4 C 5.83 g/m*3 14.4 C 0 km/h
546 14-10-2010 17:00:00 13.24 C 5.5 g/m*3 13.24 C 0 km/h
547 14-10-2010 18:00:00 11.04 C 5.96 g/m*3 11.04 C 0 km/h
548 14-10-2010 19:00:00 10.26 C 6.25 g/m*3 10.26 C 0 km/h
549 14-10-2010 20:00:00 10.2 C 6.24 g/m*3 10.2 C 0 km/h
550 14-10-2010 21:00:00 9.8 C 6.33 g/m*3 9.8 C 0 km/h
Sensor: Nr:Datum:Temp:Abs-Feuchte:Windchill:Wind:
Aussen-T/F 551 14-10-2010 22:00:00 9.74 C 6.51 g/m*3 9.74 C 0 km/h
552 14-10-2010 23:00:00 9.68 C 6.68 g/m*3 9.68 C 0 km/h
553 15-10-2010 00:00:00 9.5 C 6.75 g/m*3 9.5 C 0 km/h
554 15-10-2010 01:00:00 9.42 C 6.88 g/m*3 9.42 C 0 km/h
555 15-10-2010 02:00:00 9.24 C 7.13 g/m*3 9.24 C 0 km/h
556 15-10-2010 03:00:00 9.28 C 7.25 g/m*3 9.28 C 0 km/h
557 15-10-2010 04:00:00 9.28 C 7.36 g/m*3 9.28 C 0 km/h
558 15-10-2010 05:00:00 9.2 C 7.41 g/m*3 9.2 C 0 km/h
559 15-10-2010 06:00:00 9.3 C 7.66 g/m*3 9.3 C 0 km/h
560 15-10-2010 07:00:00 9.28 C 7.74 g/m*3 9.28 C 0 km/h
561 15-10-2010 08:00:00 9.24 C 7.86 g/m*3 9.24 C 0 km/h
562 15-10-2010 09:00:00 9.82 C 8.19 g/m*3 9.82 C 0 km/h
563 15-10-2010 10:00:00 10.72 C 8.06 g/m*3 10.72 C 0 km/h
564 15-10-2010 11:00:00 11.52 C 7.76 g/m*3 11.52 C 0 km/h
565 15-10-2010 12:00:00 12.42 C 7.33 g/m*3 12.42 C 0 km/h
566 15-10-2010 13:00:00 13.38 C 6.9 g/m*3 13.38 C 0 km/h
567 15-10-2010 14:00:00 12.78 C 6.76 g/m*3 12.78 C 0 km/h
568 15-10-2010 15:00:00 12.86 C 6.68 g/m*3 12.86 C 0 km/h
569 15-10-2010 16:00:00 12.24 C 6.79 g/m*3 12.24 C 0 km/h
570 15-10-2010 17:00:00 11.56 C 7.07 g/m*3 11.56 C 0 km/h
571 15-10-2010 18:00:00 10.88 C 7.03 g/m*3 10.88 C 0 km/h
572 15-10-2010 19:00:00 10.52 C 7.01 g/m*3 10.52 C 0 km/h
573 15-10-2010 20:00:00 10.36 C 7.02 g/m*3 10.36 C 0 km/h
574 15-10-2010 21:00:00 10.1 C 7.19 g/m*3 10.1 C 0 km/h
575 15-10-2010 22:00:00 9.3 C 7.67 g/m*3 9.3 C 0 km/h
Sensor: Nr:Datum:Temp:Abs-Feuchte:Windchill:Wind:
Aussen-T/F 576 15-10-2010 23:00:00 9.2 C 8.04 g/m*3 9.2 C 0 km/h
577 16-10-2010 00:00:00 9.02 C 8.16 g/m*3 9.02 C 0 km/h
578 16-10-2010 01:00:00 8.82 C 8.19 g/m*3 8.82 C 0 km/h
579 16-10-2010 02:00:00 8.78 C 8.22 g/m*3 8.78 C 0 km/h
580 16-10-2010 03:00:00 8.68 C 8.21 g/m*3 8.68 C 0 km/h
581 16-10-2010 04:00:00 8.54 C 8.13 g/m*3 8.54 C 0 km/h
582 16-10-2010 05:00:00 8.36 C 8.04 g/m*3 8.36 C 0 km/h
583 16-10-2010 06:00:00 8.3 C 8.01 g/m*3 8.3 C 0 km/h
584 16-10-2010 07:00:00 8.12 C 7.88 g/m*3 8.12 C 0 km/h
585 16-10-2010 08:00:00 8.1 C 7.77 g/m*3 8.1 C 0 km/h
586 16-10-2010 09:00:00 8.24 C 7.81 g/m*3 8.24 C 0 km/h
587 16-10-2010 10:00:00 8.64 C 8.03 g/m*3 8.64 C 0 km/h
588 16-10-2010 11:00:00 8.96 C 8.11 g/m*3 8.96 C 0 km/h
589 16-10-2010 12:00:00 9.38 C 8.11 g/m*3 9.38 C 0 km/h
590 16-10-2010 13:00:00 9.72 C 8.16 g/m*3 9.72 C 0 km/h
591 16-10-2010 14:00:00 9.96 C 7.89 g/m*3 9.96 C 0 km/h
592 16-10-2010 15:00:00 10.08 C 7.82 g/m*3 10.08 C 0 km/h
593 16-10-2010 16:00:00 9.9 C 7.84 g/m*3 9.9 C 0 km/h
594 16-10-2010 17:00:00 9.36 C 7.9 g/m*3 9.36 C 0 km/h
595 16-10-2010 18:00:00 8.38 C 6.98 g/m*3 8.38 C 0 km/h
596 16-10-2010 19:00:00 6.96 C 6.55 g/m*3 6.96 C 0 km/h
597 16-10-2010 20:00:00 6.56 C 6.31 g/m*3 6.56 C 0 km/h
598 16-10-2010 21:00:00 6.28 C 6.21 g/m*3 6.28 C 0 km/h
599 16-10-2010 22:00:00 5.9 C 6.37 g/m*3 5.9 C 0 km/h
600 16-10-2010 23:00:00 5.96 C 6.56 g/m*3 5.96 C 0 km/h
Sensor: Nr:Datum:Temp:Abs-Feuchte:Windchill:Wind:
Aussen-T/F 601 17-10-2010 00:00:00 6.14 C 6.7 g/m*3 6.14 C 0 km/h
602 17-10-2010 01:00:00 6.24 C 6.71 g/m*3 6.24 C 0 km/h
603 17-10-2010 02:00:00 6.22 C 6.61 g/m*3 6.22 C 0 km/h
604 17-10-2010 03:00:00 6.24 C 6.49 g/m*3 6.24 C 0 km/h
605 17-10-2010 04:00:00 6.22 C 6.33 g/m*3 6.22 C 0 km/h
606 17-10-2010 05:00:00 6.3 C 6.43 g/m*3 6.3 C 0 km/h
607 17-10-2010 06:00:00 6.34 C 6.46 g/m*3 6.34 C 0 km/h
608 17-10-2010 07:00:00 6.34 C 6.29 g/m*3 6.34 C 0 km/h
609 17-10-2010 08:00:00 6.58 C 6.17 g/m*3 6.58 C 0 km/h
610 17-10-2010 09:00:00 6.88 C 6.15 g/m*3 6.88 C 0 km/h
611 17-10-2010 10:00:00 7.32 C 6.14 g/m*3 7.32 C 0 km/h
612 17-10-2010 11:00:00 7.7 C 5.98 g/m*3 7.7 C 0 km/h
613 17-10-2010 12:00:00 7.88 C 5.97 g/m*3 7.88 C 0 km/h
614 17-10-2010 13:00:00 8.1 C 5.96 g/m*3 8.1 C 0 km/h
615 17-10-2010 14:00:00 8.36 C 6.14 g/m*3 8.36 C 0 km/h
616 17-10-2010 15:00:00 8.52 C 6.12 g/m*3 8.52 C 0 km/h
617 17-10-2010 16:00:00 8.46 C 6.28 g/m*3 8.46 C 0 km/h
618 17-10-2010 17:00:00 8.3 C 6.32 g/m*3 8.3 C 0 km/h
619 17-10-2010 18:00:00 7.9 C 6.32 g/m*3 7.9 C 0 km/h
620 17-10-2010 19:00:00 7.68 C 6.38 g/m*3 7.68 C 0 km/h
621 17-10-2010 20:00:00 7.68 C 6.43 g/m*3 7.68 C 0 km/h
622 17-10-2010 21:00:00 7.62 C 6.44 g/m*3 7.62 C 0 km/h
623 17-10-2010 22:00:00 7.38 C 6.43 g/m*3 7.38 C 0 km/h
624 17-10-2010 23:00:00 7.04 C 6.31 g/m*3 7.04 C 0 km/h
625 18-10-2010 00:00:00 6.48 C 6.19 g/m*3 6.48 C 0 km/h
Sensor: Nr:Datum:Temp:Abs-Feuchte:Windchill:Wind:
Aussen-T/F 626 18-10-2010 01:00:00 5.18 C 5.97 g/m*3 5.18 C 0 km/h
627 18-10-2010 02:00:00 5.8 C 6.35 g/m*3 5.8 C 0 km/h
628 18-10-2010 03:00:00 6 C 6.3 g/m*3 6 C 0 km/h
629 18-10-2010 04:00:00 6.02 C 6.25 g/m*3 6.02 C 0 km/h
630 18-10-2010 05:00:00 5.84 C 6.1 g/m*3 5.84 C 0 km/h
631 18-10-2010 06:00:00 5.8 C 6.16 g/m*3 5.8 C 0 km/h
632 18-10-2010 07:00:00 5.76 C 6.14 g/m*3 5.76 C 0 km/h
633 18-10-2010 08:00:00 5.78 C 6.2 g/m*3 5.78 C 0 km/h
634 18-10-2010 09:00:00 6.66 C 6.44 g/m*3 6.66 C 0 km/h
635 18-10-2010 10:00:00 7.56 C 5.99 g/m*3 7.56 C 0 km/h
636 18-10-2010 11:00:00 7.76 C 5.06 g/m*3 7.76 C 0 km/h
637 18-10-2010 12:00:00 8.26 C 4.98 g/m*3 8.26 C 0 km/h
638 18-10-2010 13:00:00 8.82 C 4.85 g/m*3 8.82 C 0 km/h
639 18-10-2010 14:00:00 8.88 C 4.86 g/m*3 8.88 C 0 km/h
640 18-10-2010 15:00:00 8.74 C 4.86 g/m*3 8.74 C 0 km/h
641 18-10-2010 16:00:00 8.74 C 4.91 g/m*3 8.74 C 0 km/h
642 18-10-2010 17:00:00 8.52 C 4.86 g/m*3 8.52 C 0 km/h
643 18-10-2010 18:00:00 7.76 C 4.97 g/m*3 7.76 C 0 km/h
644 18-10-2010 19:00:00 6.32 C 4.89 g/m*3 6.32 C 0 km/h
645 18-10-2010 20:00:00 5.6 C 5.05 g/m*3 5.6 C 0 km/h
646 18-10-2010 21:00:00 5.18 C 5.03 g/m*3 5.18 C 0 km/h
647 18-10-2010 22:00:00 4.92 C 5.06 g/m*3 4.92 C 0 km/h
648 18-10-2010 23:00:00 4.86 C 5.17 g/m*3 4.86 C 0 km/h
649 19-10-2010 00:00:00 5.14 C 5.24 g/m*3 5.14 C 0 km/h
650 19-10-2010 01:00:00 5.42 C 5.27 g/m*3 5.42 C 0 km/h
Sensor: Nr:Datum:Temp:Abs-Feuchte:Windchill:Wind:
Aussen-T/F 651 19-10-2010 02:00:00 5.5 C 5.32 g/m*3 5.5 C 0 km/h
652 19-10-2010 03:00:00 4.96 C 5.75 g/m*3 4.96 C 0 km/h
653 19-10-2010 04:00:00 5.04 C 6.04 g/m*3 5.04 C 0 km/h
654 19-10-2010 05:00:00 5.42 C 6.06 g/m*3 5.42 C 0 km/h
655 19-10-2010 06:00:00 5.6 C 6.31 g/m*3 5.6 C 0 km/h
656 19-10-2010 07:00:00 5.98 C 6.38 g/m*3 5.98 C 0 km/h
657 19-10-2010 08:00:00 5.98 C 6.42 g/m*3 5.98 C 0 km/h
658 19-10-2010 09:00:00 6.54 C 6.62 g/m*3 6.54 C 0 km/h
659 19-10-2010 10:00:00 7.34 C 6.65 g/m*3 7.34 C 0 km/h
660 19-10-2010 11:00:00 7.5 C 6.93 g/m*3 7.5 C 0 km/h
661 19-10-2010 12:00:00 7.98 C 7.08 g/m*3 7.98 C 0 km/h
662 19-10-2010 13:00:00 9.08 C 7.48 g/m*3 9.08 C 0 km/h
663 19-10-2010 14:00:00 9.8 C 7.42 g/m*3 9.8 C 0 km/h
664 19-10-2010 15:00:00 10.34 C 7.37 g/m*3 10.34 C 0 km/h
665 19-10-2010 16:00:00 12.46 C 7 g/m*3 12.46 C 0 km/h
666 19-10-2010 17:00:00 10.3 C 7.22 g/m*3 10.3 C 0 km/h
667 19-10-2010 18:00:00 9.04 C 6.96 g/m*3 9.04 C 0 km/h
668 19-10-2010 19:00:00 7.98 C 6.85 g/m*3 7.98 C 0 km/h
669 19-10-2010 20:00:00 7.36 C 6.46 g/m*3 7.36 C 0 km/h
670 19-10-2010 21:00:00 6.94 C 6.22 g/m*3 6.94 C 0 km/h
671 19-10-2010 22:00:00 6.52 C 6.16 g/m*3 6.52 C 0 km/h
672 19-10-2010 23:00:00 6.54 C 6.2 g/m*3 6.54 C 0 km/h
673 20-10-2010 00:00:00 6.34 C 6.16 g/m*3 6.34 C 0 km/h
674 20-10-2010 01:00:00 6.38 C 6.16 g/m*3 6.38 C 0 km/h
675 20-10-2010 02:00:00 5.94 C 6.39 g/m*3 5.94 C 0 km/h
Sensor: Nr:Datum:Temp:Abs-Feuchte:Windchill:Wind:
Aussen-T/F 676 20-10-2010 03:00:00 5.76 C 6.53 g/m*3 5.76 C 0 km/h
677 20-10-2010 04:00:00 5.84 C 6.51 g/m*3 5.84 C 0 km/h
678 20-10-2010 05:00:00 5.62 C 6.56 g/m*3 5.62 C 0 km/h
679 20-10-2010 06:00:00 5.52 C 6.61 g/m*3 5.52 C 0 km/h
680 20-10-2010 07:00:00 5.5 C 6.64 g/m*3 5.5 C 0 km/h
681 20-10-2010 08:00:00 5.6 C 6.66 g/m*3 5.6 C 0 km/h
682 20-10-2010 09:00:00 6 C 6.84 g/m*3 6 C 0 km/h
683 20-10-2010 10:00:00 6.92 C 6.95 g/m*3 6.92 C 0 km/h
684 20-10-2010 11:00:00 6.84 C 6.44 g/m*3 6.84 C 0 km/h
685 20-10-2010 12:00:00 6.92 C 6.38 g/m*3 6.92 C 0 km/h
686 20-10-2010 13:00:00 7.92 C 6.2 g/m*3 7.92 C 0 km/h
687 20-10-2010 14:00:00 9.48 C 5.67 g/m*3 9.48 C 0 km/h
688 20-10-2010 15:00:00 7.68 C 5.56 g/m*3 7.68 C 0 km/h
689 20-10-2010 16:00:00 7.36 C 5.06 g/m*3 7.36 C 0 km/h
690 20-10-2010 17:00:00 7.02 C 4.92 g/m*3 7.02 C 0 km/h
691 20-10-2010 18:00:00 6.32 C 5.04 g/m*3 6.32 C 0 km/h
692 20-10-2010 19:00:00 4.64 C 5.24 g/m*3 4.64 C 0 km/h
693 20-10-2010 20:00:00 4.54 C 5.25 g/m*3 4.54 C 0 km/h
694 20-10-2010 21:00:00 4.46 C 5.11 g/m*3 4.46 C 0 km/h
695 20-10-2010 22:00:00 4.48 C 5.07 g/m*3 4.48 C 0 km/h
696 20-10-2010 23:00:00 4.32 C 5.05 g/m*3 4.32 C 0 km/h
697 21-10-2010 00:00:00 4.6 C 5.11 g/m*3 4.6 C 0 km/h
698 21-10-2010 01:00:00 4.44 C 5.04 g/m*3 4.44 C 0 km/h
699 21-10-2010 02:00:00 3.74 C 4.97 g/m*3 3.74 C 0 km/h
700 21-10-2010 03:00:00 3.32 C 4.98 g/m*3 3.32 C 0 km/h
Sensor: Nr:Datum:Temp:Abs-Feuchte:Windchill:Wind:
Aussen-T/F 701 21-10-2010 04:00:00 2.64 C 4.9 g/m*3 2.64 C 0 km/h
702 21-10-2010 05:00:00 1.92 C 4.82 g/m*3 1.92 C 0 km/h
703 21-10-2010 06:00:00 1.7 C 4.9 g/m*3 1.7 C 0 km/h
704 21-10-2010 07:00:00 1.66 C 5 g/m*3 1.66 C 0 km/h
705 21-10-2010 08:00:00 2.1 C 5.14 g/m*3 2.1 C 0 km/h
706 21-10-2010 09:00:00 3 C 5.24 g/m*3 3 C 0 km/h
707 21-10-2010 10:00:00 4.16 C 5.06 g/m*3 4.16 C 0 km/h
708 21-10-2010 11:00:00 5.64 C 4.99 g/m*3 5.64 C 0 km/h
709 21-10-2010 12:00:00 6.98 C 4.63 g/m*3 6.98 C 0 km/h
710 21-10-2010 13:00:00 8.7 C 4.13 g/m*3 8.7 C 0 km/h
711 21-10-2010 14:00:00 10.38 C 3.87 g/m*3 10.38 C 0 km/h
712 21-10-2010 15:00:00 10.66 C 3.63 g/m*3 10.66 C 0 km/h
713 21-10-2010 16:00:00 10.4 C 3.64 g/m*3 10.4 C 0 km/h
714 21-10-2010 17:00:00 10.96 C 3.55 g/m*3 10.96 C 0 km/h
715 21-10-2010 18:00:00 7.38 C 3.99 g/m*3 7.38 C 0 km/h
716 21-10-2010 19:00:00 5.64 C 4.05 g/m*3 5.64 C 0 km/h
717 21-10-2010 20:00:00 4.86 C 3.96 g/m*3 4.86 C 0 km/h
718 21-10-2010 21:00:00 4.62 C 3.74 g/m*3 4.62 C 0 km/h
719 21-10-2010 22:00:00 3.84 C 3.84 g/m*3 3.84 C 0 km/h
720 21-10-2010 23:00:00 3.14 C 3.89 g/m*3 3.14 C 0 km/h
721 22-10-2010 00:00:00 2.38 C 4.06 g/m*3 2.38 C 0 km/h
722 22-10-2010 01:00:00 1.74 C 4.11 g/m*3 1.74 C 0 km/h
723 22-10-2010 02:00:00 2.12 C 4.09 g/m*3 2.12 C 0 km/h
724 22-10-2010 03:00:00 2.16 C 4.08 g/m*3 2.16 C 0 km/h
725 22-10-2010 04:00:00 1.48 C 4.09 g/m*3 1.48 C 0 km/h
Sensor: Nr:Datum:Temp:Abs-Feuchte:Windchill:Wind:
Aussen-T/F 726 22-10-2010 05:00:00 1.38 C 4.11 g/m*3 1.38 C 0 km/h
727 22-10-2010 06:00:00 1.66 C 4.06 g/m*3 1.66 C 0 km/h
728 22-10-2010 07:00:00 0.94 C 3.98 g/m*3 0.94 C 0 km/h
729 22-10-2010 08:00:00 1.28 C 4.04 g/m*3 1.28 C 0 km/h
730 22-10-2010 09:00:00 2.06 C 4.3 g/m*3 2.06 C 0 km/h
731 22-10-2010 10:00:00 4.3 C 4.23 g/m*3 4.3 C 0 km/h
732 22-10-2010 11:00:00 5.36 C 3.94 g/m*3 5.36 C 0 km/h
733 22-10-2010 12:00:00 6.56 C 3.9 g/m*3 6.56 C 0 km/h
734 22-10-2010 13:00:00 7.18 C 3.89 g/m*3 7.18 C 0 km/h
735 22-10-2010 14:00:00 7.36 C 3.87 g/m*3 7.36 C 0 km/h
736 22-10-2010 15:00:00 7.22 C 3.82 g/m*3 7.22 C 0 km/h
737 22-10-2010 16:00:00 7.42 C 4.33 g/m*3 7.42 C 0 km/h
738 22-10-2010 17:00:00 7.22 C 4.28 g/m*3 7.22 C 0 km/h
739 22-10-2010 18:00:00 6.18 C 4.1 g/m*3 6.18 C 0 km/h
740 22-10-2010 19:00:00 6.2 C 3.69 g/m*3 6.2 C 0 km/h
741 22-10-2010 20:00:00 6.02 C 3.82 g/m*3 6.02 C 0 km/h
742 22-10-2010 21:00:00 5.72 C 3.9 g/m*3 5.72 C 0 km/h
743 22-10-2010 22:00:00 4.14 C 4.09 g/m*3 4.14 C 0 km/h
744 22-10-2010 23:00:00 2.76 C 4.31 g/m*3 2.76 C 0 km/h
745 23-10-2010 00:00:00 1.7 C 4.3 g/m*3 1.7 C 0 km/h
746 23-10-2010 01:00:00 1.08 C 4.29 g/m*3 1.08 C 0 km/h
747 23-10-2010 02:00:00 0.54 C 4.24 g/m*3 0.54 C 0 km/h
748 23-10-2010 03:00:00 0.1 C 4.19 g/m*3 0.1 C 0 km/h
749 23-10-2010 04:00:00 -0.34 C 4.14 g/m*3 -0.34 C 0 km/h
750 23-10-2010 05:00:00 -0.82 C 4.03 g/m*3 -0.82 C 0 km/h
Sensor: Nr:Datum:Temp:Abs-Feuchte:Windchill:Wind:
Aussen-T/F 751 23-10-2010 06:00:00 -1.04 C 4 g/m*3 -1.04 C 0 km/h
752 23-10-2010 07:00:00 -0.86 C 4.09 g/m*3 -0.86 C 0 km/h
753 23-10-2010 08:00:00 -0.78 C 4.18 g/m*3 -0.78 C 0 km/h
754 23-10-2010 09:00:00 -0.82 C 4.14 g/m*3 -0.82 C 0 km/h
755 23-10-2010 10:00:00 1.06 C 4.78 g/m*3 1.06 C 0 km/h
756 23-10-2010 11:00:00 4.08 C 5.33 g/m*3 4.08 C 0 km/h
757 23-10-2010 12:00:00 6.64 C 5.16 g/m*3 6.64 C 0 km/h
758 23-10-2010 13:00:00 8.56 C 4.97 g/m*3 8.56 C 0 km/h
759 23-10-2010 14:00:00 9.08 C 4.25 g/m*3 9.08 C 0 km/h
760 23-10-2010 15:00:00 8.42 C 4.64 g/m*3 8.42 C 0 km/h
761 23-10-2010 16:00:00 7.92 C 4.93 g/m*3 7.92 C 0 km/h
762 23-10-2010 17:00:00 7.88 C 5.35 g/m*3 7.88 C 0 km/h
763 23-10-2010 18:00:00 8.04 C 5.49 g/m*3 8.04 C 0 km/h
764 23-10-2010 19:00:00 8.56 C 5.16 g/m*3 8.56 C 0 km/h
765 23-10-2010 20:00:00 9.14 C 5.27 g/m*3 9.14 C 0 km/h
766 23-10-2010 21:00:00 9.26 C 5.77 g/m*3 9.26 C 0 km/h
767 23-10-2010 22:00:00 9.375 C 5.85 g/m*3 9.38 C 0 km/h
768 23-10-2010 23:00:00 9.32 C 5.67 g/m*3 9.32 C 0 km/h
769 24-10-2010 00:00:00 9.02 C 5.74 g/m*3 9.02 C 0 km/h
770 24-10-2010 01:00:00 8.98 C 5.85 g/m*3 8.98 C 0 km/h
771 24-10-2010 02:00:00 8.46 C 6.28 g/m*3 8.46 C 0 km/h
772 24-10-2010 03:00:00 8.46 C 6.3 g/m*3 8.46 C 0 km/h
773 24-10-2010 04:00:00 8.66 C 6.02 g/m*3 8.66 C 0 km/h
774 24-10-2010 05:00:00 8.5 C 5.98 g/m*3 8.5 C 0 km/h
775 24-10-2010 06:00:00 7.98 C 6.24 g/m*3 7.98 C 0 km/h
Sensor: Nr:Datum:Temp:Abs-Feuchte:Windchill:Wind:
Aussen-T/F 776 24-10-2010 07:00:00 7.06 C 6.72 g/m*3 7.06 C 0 km/h
777 24-10-2010 08:00:00 6.96 C 6.91 g/m*3 6.96 C 0 km/h
778 24-10-2010 09:00:00 7.14 C 7.02 g/m*3 7.14 C 0 km/h
779 24-10-2010 10:00:00 7 C 6.65 g/m*3 7 C 0 km/h
780 24-10-2010 11:00:00 8.3 C 5.85 g/m*3 8.3 C 0 km/h
781 24-10-2010 12:00:00 9.36 C 4.75 g/m*3 9.36 C 0 km/h
782 24-10-2010 13:00:00 10.46 C 4.6 g/m*3 10.46 C 0 km/h
783 24-10-2010 14:00:00 11.62 C 4.29 g/m*3 11.62 C 0 km/h
784 24-10-2010 15:00:00 12.3 C 4.23 g/m*3 12.3 C 0 km/h
785 24-10-2010 16:00:00 13.04 C 3.75 g/m*3 13.04 C 0 km/h
786 24-10-2010 17:00:00 12.02 C 4.01 g/m*3 12.02 C 0 km/h
787 24-10-2010 18:00:00 9.56 C 4.75 g/m*3 9.56 C 0 km/h
788 24-10-2010 19:00:00 7.42 C 5.14 g/m*3 7.42 C 0 km/h
789 24-10-2010 20:00:00 6.48 C 5.18 g/m*3 6.48 C 0 km/h
790 24-10-2010 21:00:00 6.12 C 5.38 g/m*3 6.12 C 0 km/h
791 24-10-2010 22:00:00 5.62 C 5.56 g/m*3 5.62 C 0 km/h
792 24-10-2010 23:00:00 4.84 C 5.49 g/m*3 4.84 C 0 km/h
793 25-10-2010 00:00:00 4.8 C 5.7 g/m*3 4.8 C 0 km/h
794 25-10-2010 01:00:00 4.5 C 5.65 g/m*3 4.5 C 0 km/h
795 25-10-2010 02:00:00 4.42 C 5.69 g/m*3 4.42 C 0 km/h
796 25-10-2010 03:00:00 4.62 C 5.76 g/m*3 4.62 C 0 km/h
797 25-10-2010 04:00:00 5.1 C 5.73 g/m*3 5.1 C 0 km/h
798 25-10-2010 05:00:00 5.1 C 5.62 g/m*3 5.1 C 0 km/h
799 25-10-2010 06:00:00 5.04 C 5.55 g/m*3 5.04 C 0 km/h
800 25-10-2010 07:00:00 4.86 C 5.51 g/m*3 4.86 C 0 km/h
Sensor: Nr:Datum:Temp:Abs-Feuchte:Windchill:Wind:
Aussen-T/F 801 25-10-2010 08:00:00 4.9 C 5.52 g/m*3 4.9 C 0 km/h
802 25-10-2010 09:00:00 5.06 C 5.47 g/m*3 5.06 C 0 km/h
803 25-10-2010 10:00:00 5.8 C 5.5 g/m*3 5.8 C 0 km/h
804 25-10-2010 11:00:00 6.54 C 5.44 g/m*3 6.54 C 0 km/h
805 25-10-2010 12:00:00 7.84 C 5.3 g/m*3 7.84 C 0 km/h
806 25-10-2010 13:00:00 8.74 C 5.12 g/m*3 8.74 C 0 km/h
807 25-10-2010 14:00:00 10.1 C 4.63 g/m*3 10.1 C 0 km/h
808 25-10-2010 15:00:00 10.4 C 3.91 g/m*3 10.4 C 0 km/h
809 25-10-2010 16:00:00 10.72 C 3.91 g/m*3 10.72 C 0 km/h
810 25-10-2010 17:00:00 10.68 C 4.06 g/m*3 10.68 C 0 km/h
811 25-10-2010 18:00:00 8.36 C 4.25 g/m*3 8.36 C 0 km/h
812 25-10-2010 19:00:00 6.22 C 4.68 g/m*3 6.22 C 0 km/h
813 25-10-2010 20:00:00 4.66 C 4.77 g/m*3 4.66 C 0 km/h
814 25-10-2010 21:00:00 3.92 C 4.92 g/m*3 3.92 C 0 km/h
815 25-10-2010 22:00:00 3 C 4.83 g/m*3 3 C 0 km/h
816 25-10-2010 23:00:00 2.28 C 4.79 g/m*3 2.28 C 0 km/h
817 26-10-2010 00:00:00 1.88 C 4.78 g/m*3 1.88 C 0 km/h
818 26-10-2010 01:00:00 1.48 C 4.76 g/m*3 1.48 C 0 km/h
819 26-10-2010 02:00:00 0.82 C 4.64 g/m*3 0.82 C 0 km/h
820 26-10-2010 03:00:00 0.3 C 4.5 g/m*3 0.3 C 0 km/h
821 26-10-2010 04:00:00 0.12 C 4.51 g/m*3 0.12 C 0 km/h
822 26-10-2010 05:00:00 0.08 C 4.56 g/m*3 0.08 C 0 km/h
823 26-10-2010 06:00:00 0.14 C 4.6 g/m*3 0.14 C 0 km/h
824 26-10-2010 07:00:00 -0.32 C 4.45 g/m*3 -0.32 C 0 km/h
825 26-10-2010 08:00:00 -0.42 C 4.42 g/m*3 -0.42 C 0 km/h
Sensor: Nr:Datum:Temp:Abs-Feuchte:Windchill:Wind:
Aussen-T/F 826 26-10-2010 09:00:00 -0.36 C 4.44 g/m*3 -0.36 C 0 km/h
827 26-10-2010 10:00:00 0.1 C 4.58 g/m*3 0.1 C 0 km/h
828 26-10-2010 11:00:00 1.22 C 4.82 g/m*3 1.22 C 0 km/h
829 26-10-2010 12:00:00 3.16 C 5.19 g/m*3 3.16 C 0 km/h
830 26-10-2010 13:00:00 5.54 C 5.61 g/m*3 5.54 C 0 km/h
831 26-10-2010 14:00:00 8.88 C 5.51 g/m*3 8.88 C 0 km/h
832 26-10-2010 15:00:00 9.72 C 5.28 g/m*3 9.72 C 0 km/h
833 26-10-2010 16:00:00 9.24 C 5.41 g/m*3 9.24 C 0 km/h
834 26-10-2010 17:00:00 8.04 C 5.69 g/m*3 8.04 C 0 km/h
835 26-10-2010 18:00:00 7.08 C 5.64 g/m*3 7.08 C 0 km/h
836 26-10-2010 19:00:00 6.58 C 5.68 g/m*3 6.58 C 0 km/h
837 26-10-2010 20:00:00 6.34 C 5.66 g/m*3 6.34 C 0 km/h
838 26-10-2010 21:00:00 6.06 C 5.58 g/m*3 6.06 C 0 km/h
839 26-10-2010 22:00:00 5.7 C 5.71 g/m*3 5.7 C 0 km/h
840 26-10-2010 23:00:00 5.6 C 5.73 g/m*3 5.6 C 0 km/h
841 27-10-2010 00:00:00 5.16 C 5.6 g/m*3 5.16 C 0 km/h
842 27-10-2010 01:00:00 5.36 C 5.14 g/m*3 5.36 C 0 km/h
843 27-10-2010 02:00:00 5.54 C 5.11 g/m*3 5.54 C 0 km/h
844 27-10-2010 03:00:00 5.48 C 5.26 g/m*3 5.48 C 0 km/h
845 27-10-2010 04:00:00 5.42 C 5.24 g/m*3 5.42 C 0 km/h
846 27-10-2010 05:00:00 5.64 C 5.16 g/m*3 5.64 C 0 km/h
847 27-10-2010 06:00:00 5.68 C 5.22 g/m*3 5.68 C 0 km/h
848 27-10-2010 07:00:00 5.76 C 5.16 g/m*3 5.76 C 0 km/h
849 27-10-2010 08:00:00 5.68 C 5.09 g/m*3 5.68 C 0 km/h
850 27-10-2010 09:00:00 5.84 C 5.65 g/m*3 5.84 C 0 km/h
Sensor: Nr:Datum:Temp:Abs-Feuchte:Windchill:Wind:
Aussen-T/F 851 27-10-2010 10:00:00 7 C 5.8 g/m*3 7 C 0 km/h
852 27-10-2010 11:00:00 8.22 C 5.45 g/m*3 8.22 C 0 km/h
853 27-10-2010 12:00:00 9.62 C 4.46 g/m*3 9.62 C 0 km/h
854 27-10-2010 13:00:00 10.92 C 3.84 g/m*3 10.92 C 0 km/h
855 27-10-2010 14:00:00 11.06 C 3.64 g/m*3 11.06 C 0 km/h
856 27-10-2010 15:00:00 11.56 C 3.55 g/m*3 11.56 C 0 km/h
857 27-10-2010 16:00:00 11.98 C 3.43 g/m*3 11.98 C 0 km/h
858 27-10-2010 17:00:00 11.6 C 3.55 g/m*3 11.6 C 0 km/h
859 27-10-2010 18:00:00 10.44 C 4.27 g/m*3 10.44 C 0 km/h
860 27-10-2010 19:00:00 10.04 C 4.41 g/m*3 10.04 C 0 km/h
861 27-10-2010 20:00:00 9.8 C 4.42 g/m*3 9.8 C 0 km/h
862 27-10-2010 21:00:00 9.56 C 4.71 g/m*3 9.56 C 0 km/h
863 27-10-2010 22:00:00 9.2 C 4.89 g/m*3 9.2 C 0 km/h
864 27-10-2010 23:00:00 9.02 C 4.86 g/m*3 9.02 C 0 km/h
865 28-10-2010 00:00:00 8.66 C 4.87 g/m*3 8.66 C 0 km/h
866 28-10-2010 01:00:00 8.46 C 4.91 g/m*3 8.46 C 0 km/h
867 28-10-2010 02:00:00 8.06 C 5.05 g/m*3 8.06 C 0 km/h
868 28-10-2010 03:00:00 7.62 C 4.86 g/m*3 7.62 C 0 km/h
869 28-10-2010 04:00:00 7.66 C 5.06 g/m*3 7.66 C 0 km/h
870 28-10-2010 05:00:00 7.52 C 5.05 g/m*3 7.52 C 0 km/h
871 28-10-2010 06:00:00 7.98 C 4.41 g/m*3 7.98 C 0 km/h
872 28-10-2010 07:00:00 8.48 C 4.31 g/m*3 8.48 C 0 km/h
873 28-10-2010 08:00:00 8.7 C 4.67 g/m*3 8.7 C 0 km/h
874 28-10-2010 09:00:00 8.86 C 4.91 g/m*3 8.86 C 0 km/h
875 28-10-2010 10:00:00 7.9 C 6.09 g/m*3 7.9 C 0 km/h
Sensor: Nr:Datum:Temp:Abs-Feuchte:Windchill:Wind:
Aussen-T/F 876 28-10-2010 11:00:00 9.7 C 5.97 g/m*3 9.7 C 0 km/h
877 28-10-2010 12:00:00 10.72 C 5.78 g/m*3 10.72 C 0 km/h
878 28-10-2010 13:00:00 11.34 C 5.69 g/m*3 11.34 C 0 km/h
879 28-10-2010 14:00:00 12.3 C 5.67 g/m*3 12.3 C 0 km/h
880 28-10-2010 15:00:00 12.72 C 5.66 g/m*3 12.72 C 0 km/h
881 28-10-2010 16:00:00 11.62 C 6.12 g/m*3 11.62 C 0 km/h
882 28-10-2010 17:00:00 11.08 C 6.14 g/m*3 11.08 C 0 km/h
883 28-10-2010 18:00:00 9.86 C 6.13 g/m*3 9.86 C 0 km/h
884 28-10-2010 19:00:00 9.18 C 6.22 g/m*3 9.18 C 0 km/h
885 28-10-2010 20:00:00 9 C 6.24 g/m*3 9 C 0 km/h
886 28-10-2010 21:00:00 8.38 C 6.3 g/m*3 8.38 C 0 km/h
887 28-10-2010 22:00:00 7.56 C 6.36 g/m*3 7.56 C 0 km/h
888 28-10-2010 23:00:00 6.78 C 6.32 g/m*3 6.78 C 0 km/h
889 29-10-2010 00:00:00 6.26 C 6.26 g/m*3 6.26 C 0 km/h
890 29-10-2010 01:00:00 6.28 C 6.4 g/m*3 6.28 C 0 km/h
891 29-10-2010 02:00:00 6.46 C 6.57 g/m*3 6.46 C 0 km/h
892 29-10-2010 03:00:00 7.23333 C 6.82 g/m*3 7.23 C 0 km/h
893 02-11-2010 08:00:00 8.77778 C 6.98 g/m*3 8.78 C 0 km/h
894 02-11-2010 09:00:00 9.9 C 6.85 g/m*3 9.9 C 0 km/h
895 02-11-2010 10:00:00 11.04 C 6.74 g/m*3 11.04 C 0 km/h
896 02-11-2010 11:00:00 11.88 C 6.43 g/m*3 11.88 C 0 km/h
897 02-11-2010 12:00:00 12.52 C 6.49 g/m*3 12.52 C 0 km/h
898 02-11-2010 13:00:00 12.72 C 6.33 g/m*3 12.72 C 0 km/h
899 02-11-2010 14:00:00 12.8 C 6.36 g/m*3 12.8 C 0 km/h
900 02-11-2010 15:00:00 12.92 C 6.39 g/m*3 12.92 C 0 km/h
Sensor: Nr:Datum:Temp:Abs-Feuchte:Windchill:Wind:
Aussen-T/F 901 02-11-2010 16:00:00 12.34 C 6.44 g/m*3 12.34 C 0 km/h
902 02-11-2010 17:00:00 11.34 C 6.61 g/m*3 11.34 C 0 km/h
903 02-11-2010 18:00:00 11.22 C 6.66 g/m*3 11.22 C 0 km/h
904 02-11-2010 19:00:00 11.46 C 6.66 g/m*3 11.46 C 0 km/h
905 02-11-2010 20:00:00 11 C 7.01 g/m*3 11 C 0 km/h
906 02-11-2010 21:00:00 10.94 C 7.18 g/m*3 10.94 C 0 km/h
907 02-11-2010 22:00:00 11.08 C 7.42 g/m*3 11.08 C 0 km/h
908 02-11-2010 23:00:00 11.14 C 7.57 g/m*3 11.14 C 0 km/h
909 03-11-2010 00:00:00 11.32 C 7.66 g/m*3 11.32 C 0 km/h
910 03-11-2010 01:00:00 10.88 C 7.49 g/m*3 10.88 C 0 km/h
911 03-11-2010 02:00:00 11.68 C 7.56 g/m*3 11.68 C 0 km/h
912 03-11-2010 03:00:00 12.06 C 7.34 g/m*3 12.06 C 0 km/h
913 03-11-2010 04:00:00 12.44 C 7.47 g/m*3 12.44 C 0 km/h
914 03-11-2010 05:00:00 12.72 C 7.49 g/m*3 12.72 C 0 km/h
915 03-11-2010 06:00:00 12.66 C 7.62 g/m*3 12.66 C 0 km/h
916 03-11-2010 07:00:00 12.76 C 7.66 g/m*3 12.76 C 0 km/h
917 03-11-2010 08:00:00 13.28 C 7.57 g/m*3 13.28 C 0 km/h
918 03-11-2010 09:00:00 13.78 C 7.64 g/m*3 13.78 C 0 km/h
919 03-11-2010 10:00:00 14.2 C 7.55 g/m*3 14.2 C 0 km/h
920 03-11-2010 11:00:00 14.42 C 7.65 g/m*3 14.42 C 0 km/h
921 03-11-2010 12:00:00 13.94 C 7.74 g/m*3 13.94 C 0 km/h
922 03-11-2010 13:00:00 13.54 C 7.83 g/m*3 13.54 C 0 km/h
923 03-11-2010 14:00:00 13.66 C 7.94 g/m*3 13.66 C 0 km/h
924 03-11-2010 15:00:00 13.78 C 8.07 g/m*3 13.78 C 0 km/h
925 03-11-2010 16:00:00 13.46 C 8.1 g/m*3 13.46 C 0 km/h
Sensor: Nr:Datum:Temp:Abs-Feuchte:Windchill:Wind:
Aussen-T/F 926 03-11-2010 17:00:00 13.06 C 8.2 g/m*3 13.06 C 0 km/h
927 03-11-2010 18:00:00 12.66 C 8.31 g/m*3 12.66 C 0 km/h
928 03-11-2010 19:00:00 12.96 C 8.26 g/m*3 12.96 C 0 km/h
929 03-11-2010 20:00:00 13.38 C 8.2 g/m*3 13.38 C 0 km/h
930 03-11-2010 21:00:00 13.54 C 8.16 g/m*3 13.54 C 0 km/h
931 03-11-2010 22:00:00 14.1 C 8.16 g/m*3 14.1 C 0 km/h
932 03-11-2010 23:00:00 14.2 C 8.4 g/m*3 14.2 C 0 km/h
933 04-11-2010 00:00:00 14.3 C 8.77 g/m*3 14.3 C 0 km/h
934 04-11-2010 01:00:00 14.74 C 9.06 g/m*3 14.74 C 0 km/h
935 04-11-2010 02:00:00 14.96 C 9.06 g/m*3 14.96 C 0 km/h
936 04-11-2010 03:00:00 15.16 C 9.12 g/m*3 15.16 C 0 km/h
937 04-11-2010 04:00:00 15.22 C 9.3 g/m*3 15.22 C 0 km/h
938 04-11-2010 05:00:00 15.54 C 9.41 g/m*3 15.54 C 0 km/h
939 04-11-2010 06:00:00 15.7 C 9.61 g/m*3 15.7 C 0 km/h
940 04-11-2010 07:00:00 15.92 C 9.52 g/m*3 15.92 C 0 km/h
941 04-11-2010 08:00:00 16.2 C 9.43 g/m*3 16.2 C 0 km/h
942 04-11-2010 09:00:00 16.64 C 9.06 g/m*3 16.64 C 0 km/h
943 04-11-2010 10:00:00 17.24 C 8.84 g/m*3 17.24 C 0 km/h
944 04-11-2010 11:00:00 17.82 C 8.45 g/m*3 17.82 C 0 km/h
945 04-11-2010 12:00:00 18.44 C 8.17 g/m*3 18.44 C 0 km/h
946 04-11-2010 13:00:00 18.54 C 8.18 g/m*3 18.54 C 0 km/h
947 04-11-2010 14:00:00 18.44 C 8.01 g/m*3 18.44 C 0 km/h
948 04-11-2010 15:00:00 18.24 C 8.13 g/m*3 18.24 C 0 km/h
949 04-11-2010 16:00:00 17.52 C 8.42 g/m*3 17.52 C 0 km/h
950 04-11-2010 17:00:00 16.92 C 8.44 g/m*3 16.92 C 0 km/h
Sensor: Nr:Datum:Temp:Abs-Feuchte:Windchill:Wind:
Aussen-T/F 951 04-11-2010 18:00:00 16.78 C 8.43 g/m*3 16.78 C 0 km/h
952 04-11-2010 19:00:00 16.92 C 8.47 g/m*3 16.92 C 0 km/h
953 04-11-2010 20:00:00 16.12 C 8.12 g/m*3 16.12 C 0 km/h
954 04-11-2010 21:00:00 15.74 C 8.05 g/m*3 15.74 C 0 km/h
955 04-11-2010 22:00:00 15.38 C 7.87 g/m*3 15.38 C 0 km/h
956 04-11-2010 23:00:00 15.4 C 7.88 g/m*3 15.4 C 0 km/h
957 05-11-2010 00:00:00 15.34 C 7.88 g/m*3 15.34 C 0 km/h
958 05-11-2010 01:00:00 15.14 C 7.53 g/m*3 15.14 C 0 km/h
959 05-11-2010 02:00:00 14.74 C 7.45 g/m*3 14.74 C 0 km/h
960 05-11-2010 03:00:00 14.46 C 7.37 g/m*3 14.46 C 0 km/h
961 05-11-2010 04:00:00 14.2 C 7.38 g/m*3 14.2 C 0 km/h
962 05-11-2010 05:00:00 14.14 C 7.18 g/m*3 14.14 C 0 km/h
963 05-11-2010 06:00:00 13.82 C 7.13 g/m*3 13.82 C 0 km/h
964 05-11-2010 07:00:00 13.46 C 6.95 g/m*3 13.46 C 0 km/h
965 05-11-2010 08:00:00 13.88 C 6.61 g/m*3 13.88 C 0 km/h
966 05-11-2010 09:00:00 14.52 C 6.72 g/m*3 14.52 C 0 km/h
967 05-11-2010 10:00:00 14.9 C 6.88 g/m*3 14.9 C 0 km/h
968 05-11-2010 11:00:00 15.22 C 6.99 g/m*3 15.22 C 0 km/h
969 05-11-2010 12:00:00 15.14 C 7.09 g/m*3 15.14 C 0 km/h
970 05-11-2010 13:00:00 15.1 C 7.1 g/m*3 15.1 C 0 km/h
971 05-11-2010 14:00:00 14.8 C 7.4 g/m*3 14.8 C 0 km/h
972 05-11-2010 15:00:00 14.6 C 7.48 g/m*3 14.6 C 0 km/h
973 05-11-2010 16:00:00 14.56 C 7.49 g/m*3 14.56 C 0 km/h
974 05-11-2010 17:00:00 14.64 C 7.55 g/m*3 14.64 C 0 km/h
975 05-11-2010 18:00:00 14.76 C 7.58 g/m*3 14.76 C 0 km/h
Sensor: Nr:Datum:Temp:Abs-Feuchte:Windchill:Wind:
Aussen-T/F 976 05-11-2010 19:00:00 14.36 C 7.57 g/m*3 14.36 C 0 km/h
977 05-11-2010 20:00:00 14.44 C 7.58 g/m*3 14.44 C 0 km/h
978 05-11-2010 21:00:00 14.28 C 7.61 g/m*3 14.28 C 0 km/h
979 05-11-2010 22:00:00 14.02 C 7.58 g/m*3 14.02 C 0 km/h
980 05-11-2010 23:00:00 13.94 C 7.57 g/m*3 13.94 C 0 km/h
981 06-11-2010 00:00:00 14.04 C 7.57 g/m*3 14.04 C 0 km/h
982 06-11-2010 01:00:00 14.02 C 7.61 g/m*3 14.02 C 0 km/h
983 06-11-2010 02:00:00 13.38 C 7.69 g/m*3 13.38 C 0 km/h
984 06-11-2010 03:00:00 12.9 C 7.98 g/m*3 12.9 C 0 km/h
985 06-11-2010 04:00:00 12.78 C 8.12 g/m*3 12.78 C 0 km/h
986 06-11-2010 05:00:00 13.12 C 8 g/m*3 13.12 C 0 km/h
987 06-11-2010 06:00:00 13.46 C 7.86 g/m*3 13.46 C 0 km/h
988 06-11-2010 07:00:00 13.48 C 7.57 g/m*3 13.48 C 0 km/h
989 06-11-2010 08:00:00 13.34 C 7.5 g/m*3 13.34 C 0 km/h
990 06-11-2010 09:00:00 11.92 C 7.55 g/m*3 11.92 C 0 km/h
991 06-11-2010 10:00:00 10.18 C 7.93 g/m*3 10.18 C 0 km/h
992 06-11-2010 11:00:00 10.58 C 8.19 g/m*3 10.58 C 0 km/h
993 06-11-2010 12:00:00 9.78 C 7.67 g/m*3 9.78 C 0 km/h
994 06-11-2010 13:00:00 9.08 C 7.46 g/m*3 9.08 C 0 km/h
995 06-11-2010 14:00:00 8.92 C 7.67 g/m*3 8.92 C 0 km/h
996 06-11-2010 15:00:00 8.64 C 7.67 g/m*3 8.64 C 0 km/h
997 06-11-2010 16:00:00 8.2 C 7.54 g/m*3 8.2 C 0 km/h
998 06-11-2010 17:00:00 7.84 C 7.49 g/m*3 7.84 C 0 km/h
999 06-11-2010 18:00:00 7.44 C 7.34 g/m*3 7.44 C 0 km/h
1000 06-11-2010 19:00:00 7.42 C 7.41 g/m*3 7.42 C 0 km/h
Sensor: Nr:Datum:Temp:Abs-Feuchte:Windchill:Wind:
Aussen-T/F 1001 06-11-2010 20:00:00 7.2 C 7.3 g/m*3 7.2 C 0 km/h
1002 06-11-2010 21:00:00 7.26 C 7.33 g/m*3 7.26 C 0 km/h
1003 06-11-2010 22:00:00 7.48 C 7.43 g/m*3 7.48 C 0 km/h
1004 06-11-2010 23:00:00 7.36 C 7.38 g/m*3 7.36 C 0 km/h
1005 07-11-2010 00:00:00 7.22 C 7.31 g/m*3 7.22 C 0 km/h
1006 07-11-2010 01:00:00 7.18 C 7.29 g/m*3 7.18 C 0 km/h
1007 07-11-2010 02:00:00 6.98 C 7.24 g/m*3 6.98 C 0 km/h
1008 07-11-2010 03:00:00 7.3 C 7.4 g/m*3 7.3 C 0 km/h
1009 07-11-2010 04:00:00 7.18 C 7.34 g/m*3 7.18 C 0 km/h
1010 07-11-2010 05:00:00 6.8 C 7.19 g/m*3 6.8 C 0 km/h
1011 07-11-2010 06:00:00 6.48 C 7.04 g/m*3 6.48 C 0 km/h
1012 07-11-2010 07:00:00 6.7 C 7.14 g/m*3 6.7 C 0 km/h
1013 07-11-2010 08:00:00 7.16 C 7.28 g/m*3 7.16 C 0 km/h
1014 07-11-2010 09:00:00 7.46 C 7.47 g/m*3 7.46 C 0 km/h
1015 07-11-2010 10:00:00 7.82 C 7.68 g/m*3 7.82 C 0 km/h
1016 07-11-2010 11:00:00 8.06 C 7.67 g/m*3 8.06 C 0 km/h
1017 07-11-2010 12:00:00 8.74 C 7.87 g/m*3 8.74 C 0 km/h
1018 07-11-2010 13:00:00 8.48 C 7.5 g/m*3 8.48 C 0 km/h
1019 07-11-2010 14:00:00 8.22 C 7.43 g/m*3 8.22 C 0 km/h
1020 07-11-2010 15:00:00 7.5 C 7.17 g/m*3 7.5 C 0 km/h
1021 07-11-2010 16:00:00 6.82 C 6.97 g/m*3 6.82 C 0 km/h
1022 07-11-2010 17:00:00 6.76 C 7.02 g/m*3 6.76 C 0 km/h
1023 07-11-2010 18:00:00 6.58 C 6.94 g/m*3 6.58 C 0 km/h
1024 07-11-2010 19:00:00 5.72 C 6.61 g/m*3 5.72 C 0 km/h
1025 07-11-2010 20:00:00 5.18 C 6.4 g/m*3 5.18 C 0 km/h
Sensor: Nr:Datum:Temp:Abs-Feuchte:Windchill:Wind:
Aussen-T/F 1026 07-11-2010 21:00:00 4.98 C 6.32 g/m*3 4.98 C 0 km/h
1027 07-11-2010 22:00:00 4.9 C 6.32 g/m*3 4.9 C 0 km/h
1028 07-11-2010 23:00:00 4.64 C 6.22 g/m*3 4.64 C 0 km/h
1029 08-11-2010 00:00:00 4.04 C 5.95 g/m*3 4.04 C 0 km/h
1030 08-11-2010 01:00:00 4.12 C 5.97 g/m*3 4.12 C 0 km/h
1031 08-11-2010 02:00:00 4.04 C 5.97 g/m*3 4.04 C 0 km/h
1032 08-11-2010 03:00:00 4.46 C 6.16 g/m*3 4.46 C 0 km/h
1033 08-11-2010 04:00:00 4.4 C 6.14 g/m*3 4.4 C 0 km/h
1034 08-11-2010 05:00:00 4.6 C 6.22 g/m*3 4.6 C 0 km/h
1035 08-11-2010 06:00:00 4.86 C 6.33 g/m*3 4.86 C 0 km/h
1036 08-11-2010 07:00:00 4.74 C 6.26 g/m*3 4.74 C 0 km/h
1037 08-11-2010 08:00:00 4.96 C 6.34 g/m*3 4.96 C 0 km/h
1038 08-11-2010 09:00:00 5.84 C 6.58 g/m*3 5.84 C 0 km/h
1039 08-11-2010 10:00:00 7.08 C 6.5 g/m*3 7.08 C 0 km/h
1040 08-11-2010 11:00:00 7.26 C 5.75 g/m*3 7.26 C 0 km/h
1041 08-11-2010 12:00:00 6.78 C 5.3 g/m*3 6.78 C 0 km/h
1042 08-11-2010 13:00:00 7.24 C 5.15 g/m*3 7.24 C 0 km/h
1043 08-11-2010 14:00:00 6.88 C 4.74 g/m*3 6.88 C 0 km/h
1044 08-11-2010 15:00:00 5.6 C 4.67 g/m*3 5.6 C 0 km/h
1045 08-11-2010 16:00:00 2.98 C 4.87 g/m*3 2.98 C 0 km/h
1046 08-11-2010 17:00:00 2.08 C 4.85 g/m*3 2.08 C 0 km/h
1047 08-11-2010 18:00:00 1.46 C 4.79 g/m*3 1.46 C 0 km/h
1048 08-11-2010 19:00:00 2.26 C 5.11 g/m*3 2.26 C 0 km/h
1049 08-11-2010 20:00:00 3.5 C 5.42 g/m*3 3.5 C 0 km/h
1050 08-11-2010 21:00:00 3.9 C 5.56 g/m*3 3.9 C 0 km/h
Sensor: Nr:Datum:Temp:Abs-Feuchte:Windchill:Wind:
Aussen-T/F 1051 08-11-2010 22:00:00 4.22 C 5.72 g/m*3 4.22 C 0 km/h
1052 08-11-2010 23:00:00 4.44 C 5.62 g/m*3 4.44 C 0 km/h
1053 09-11-2010 00:00:00 4.24 C 5.65 g/m*3 4.24 C 0 km/h
1054 09-11-2010 01:00:00 4.2 C 5.73 g/m*3 4.2 C 0 km/h
1055 09-11-2010 02:00:00 4.2 C 5.79 g/m*3 4.2 C 0 km/h
1056 09-11-2010 03:00:00 4.46 C 5.97 g/m*3 4.46 C 0 km/h
1057 09-11-2010 04:00:00 4.44 C 5.96 g/m*3 4.44 C 0 km/h
1058 09-11-2010 05:00:00 4.74 C 6.08 g/m*3 4.74 C 0 km/h
1059 09-11-2010 06:00:00 5.1 C 6.16 g/m*3 5.1 C 0 km/h
1060 09-11-2010 07:00:00 5.58 C 6.24 g/m*3 5.58 C 0 km/h
1061 09-11-2010 08:00:00 6.42 C 6.09 g/m*3 6.42 C 0 km/h
1062 09-11-2010 09:00:00 6.9 C 6.1 g/m*3 6.9 C 0 km/h
1063 09-11-2010 10:00:00 7.9 C 6.26 g/m*3 7.9 C 0 km/h
1064 09-11-2010 11:00:00 9.16 C 6.29 g/m*3 9.16 C 0 km/h
1065 09-11-2010 12:00:00 9.52 C 6.43 g/m*3 9.52 C 0 km/h
1066 09-11-2010 13:00:00 9.66 C 6.47 g/m*3 9.66 C 0 km/h
1067 09-11-2010 14:00:00 8.86 C 6.85 g/m*3 8.86 C 0 km/h
1068 09-11-2010 15:00:00 8.42 C 7.07 g/m*3 8.42 C 0 km/h
1069 09-11-2010 16:00:00 7.92 C 7.19 g/m*3 7.92 C 0 km/h
1070 09-11-2010 17:00:00 7.3 C 7.05 g/m*3 7.3 C 0 km/h
1071 09-11-2010 18:00:00 6.64 C 6.83 g/m*3 6.64 C 0 km/h
1072 09-11-2010 19:00:00 6.86 C 7.02 g/m*3 6.86 C 0 km/h
1073 09-11-2010 20:00:00 6.78 C 7.03 g/m*3 6.78 C 0 km/h
1074 09-11-2010 21:00:00 6.84 C 7.05 g/m*3 6.84 C 0 km/h
1075 09-11-2010 22:00:00 6.78 C 7.03 g/m*3 6.78 C 0 km/h
Sensor: Nr:Datum:Temp:Abs-Feuchte:Windchill:Wind:
Aussen-T/F 1076 09-11-2010 23:00:00 6.84 C 7.05 g/m*3 6.84 C 0 km/h
1077 10-11-2010 00:00:00 6.56 C 6.93 g/m*3 6.56 C 0 km/h
1078 10-11-2010 01:00:00 6.92 C 7.14 g/m*3 6.92 C 0 km/h
1079 10-11-2010 02:00:00 6.9 C 7.14 g/m*3 6.9 C 0 km/h
1080 10-11-2010 03:00:00 7.1 C 7.18 g/m*3 7.1 C 0 km/h
1081 10-11-2010 04:00:00 6.88 C 7.12 g/m*3 6.88 C 0 km/h
1082 10-11-2010 05:00:00 6.9 C 7.13 g/m*3 6.9 C 0 km/h
1083 10-11-2010 06:00:00 6.82 C 7.09 g/m*3 6.82 C 0 km/h
1084 10-11-2010 07:00:00 6.34 C 6.87 g/m*3 6.34 C 0 km/h
1085 10-11-2010 08:00:00 6.72 C 7.05 g/m*3 6.72 C 0 km/h
1086 10-11-2010 09:00:00 8.22 C 7.56 g/m*3 8.22 C 0 km/h
1087 10-11-2010 10:00:00 9.6 C 6.93 g/m*3 9.6 C 0 km/h
1088 10-11-2010 11:00:00 9.64 C 6.48 g/m*3 9.64 C 0 km/h
1089 10-11-2010 12:00:00 10.18 C 6.48 g/m*3 10.18 C 0 km/h
1090 10-11-2010 13:00:00 11.08 C 6.16 g/m*3 11.08 C 0 km/h
1091 10-11-2010 14:00:00 10.52 C 6.02 g/m*3 10.52 C 0 km/h
1092 10-11-2010 15:00:00 7.86 C 6.41 g/m*3 7.86 C 0 km/h
1093 10-11-2010 16:00:00 6.24 C 6.18 g/m*3 6.24 C 0 km/h
1094 10-11-2010 17:00:00 5.94 C 5.81 g/m*3 5.94 C 0 km/h
1095 10-11-2010 18:00:00 5.22 C 5.67 g/m*3 5.22 C 0 km/h
1096 10-11-2010 19:00:00 5.2 C 5.63 g/m*3 5.2 C 0 km/h
1097 10-11-2010 20:00:00 5.34 C 5.5 g/m*3 5.34 C 0 km/h
1098 10-11-2010 21:00:00 4.46 C 5.52 g/m*3 4.46 C 0 km/h
1099 10-11-2010 22:00:00 4.55 C 5.59 g/m*3 4.55 C 0 km/h
1100 10-11-2010 23:00:00 4.3 C 5.34 g/m*3 4.3 C 0 km/h
Sensor: Nr:Datum:Temp:Abs-Feuchte:Windchill:Wind:
Aussen-T/F 1101 11-11-2010 00:00:00 4.6 C 5.29 g/m*3 4.6 C 0 km/h
1102 11-11-2010 01:00:00 4.5 C 5.44 g/m*3 4.5 C 0 km/h
1103 11-11-2010 02:00:00 5.02 C 5.42 g/m*3 5.02 C 0 km/h
1104 11-11-2010 03:00:00 4.84 C 5.23 g/m*3 4.84 C 0 km/h
1105 11-11-2010 04:00:00 4.3 C 5.24 g/m*3 4.3 C 0 km/h
1106 11-11-2010 05:00:00 4.12 C 5.2 g/m*3 4.12 C 0 km/h
1107 11-11-2010 06:00:00 3.7 C 5.01 g/m*3 3.7 C 0 km/h
1108 11-11-2010 07:00:00 3.56 C 4.98 g/m*3 3.56 C 0 km/h
1109 11-11-2010 08:00:00 2.32 C 4.71 g/m*3 2.32 C 0 km/h
1110 11-11-2010 09:00:00 3.66 C 5.28 g/m*3 3.66 C 0 km/h
1111 11-11-2010 10:00:00 5.58 C 4.59 g/m*3 5.58 C 0 km/h
1112 11-11-2010 11:00:00 6.94 C 3.78 g/m*3 6.94 C 0 km/h
1113 11-11-2010 12:00:00 7.46 C 3.98 g/m*3 7.46 C 0 km/h
1114 11-11-2010 13:00:00 7.7 C 4.15 g/m*3 7.7 C 0 km/h
1115 11-11-2010 14:00:00 7.36 C 4.24 g/m*3 7.36 C 0 km/h
1116 11-11-2010 15:00:00 6.8 C 4.45 g/m*3 6.8 C 0 km/h
1117 11-11-2010 16:00:00 5.54 C 5.08 g/m*3 5.54 C 0 km/h
1118 11-11-2010 17:00:00 5.28 C 5.48 g/m*3 5.28 C 0 km/h
1119 11-11-2010 18:00:00 5.64 C 5.87 g/m*3 5.64 C 0 km/h
1120 11-11-2010 19:00:00 6.22 C 6.27 g/m*3 6.22 C 0 km/h
1121 11-11-2010 20:00:00 7.5 C 6.34 g/m*3 7.5 C 0 km/h
1122 11-11-2010 21:00:00 8.44 C 6.57 g/m*3 8.44 C 0 km/h
1123 11-11-2010 22:00:00 9.34 C 7.23 g/m*3 9.34 C 0 km/h
1124 11-11-2010 23:00:00 9.78 C 7.69 g/m*3 9.78 C 0 km/h
1125 12-11-2010 00:00:00 9.74 C 6.82 g/m*3 9.74 C 0 km/h
Sensor: Nr:Datum:Temp:Abs-Feuchte:Windchill:Wind:
Aussen-T/F 1126 12-11-2010 01:00:00 9.84 C 5.93 g/m*3 9.84 C 0 km/h
1127 12-11-2010 02:00:00 9.88 C 5.63 g/m*3 9.88 C 0 km/h
1128 12-11-2010 03:00:00 9.6 C 5.81 g/m*3 9.6 C 0 km/h
1129 12-11-2010 04:00:00 9.8 C 5.6 g/m*3 9.8 C 0 km/h
1130 12-11-2010 05:00:00 9.94 C 5.77 g/m*3 9.94 C 0 km/h
1131 12-11-2010 06:00:00 10.62 C 5.77 g/m*3 10.62 C 0 km/h
1132 12-11-2010 07:00:00 10.62 C 5.8 g/m*3 10.62 C 0 km/h
1133 12-11-2010 08:00:00 10.7 C 5.81 g/m*3 10.7 C 0 km/h
1134 12-11-2010 09:00:00 10.84 C 5.85 g/m*3 10.84 C 0 km/h
1135 12-11-2010 10:00:00 10.7 C 6.11 g/m*3 10.7 C 0 km/h
1136 12-11-2010 11:00:00 11.42 C 6.08 g/m*3 11.42 C 0 km/h
1137 12-11-2010 12:00:00 11.88 C 5.99 g/m*3 11.88 C 0 km/h
1138 12-11-2010 13:00:00 11.64 C 6.29 g/m*3 11.64 C 0 km/h
1139 12-11-2010 14:00:00 11.6 C 6.55 g/m*3 11.6 C 0 km/h
1140 12-11-2010 15:00:00 11.6 C 6.57 g/m*3 11.6 C 0 km/h
1141 12-11-2010 16:00:00 11.54 C 6.73 g/m*3 11.54 C 0 km/h
1142 12-11-2010 17:00:00 11.16 C 7.2 g/m*3 11.16 C 0 km/h
1143 12-11-2010 18:00:00 10.48 C 7.73 g/m*3 10.48 C 0 km/h
1144 12-11-2010 19:00:00 10.52 C 8.29 g/m*3 10.52 C 0 km/h
1145 12-11-2010 20:00:00 11.52 C 8.77 g/m*3 11.52 C 0 km/h
1146 12-11-2010 21:00:00 12.16 C 9.28 g/m*3 12.16 C 0 km/h
1147 12-11-2010 22:00:00 13.3 C 9.22 g/m*3 13.3 C 0 km/h
1148 12-11-2010 23:00:00 13.88 C 8.69 g/m*3 13.88 C 0 km/h
1149 13-11-2010 00:00:00 13.82 C 8.85 g/m*3 13.82 C 0 km/h
1150 13-11-2010 01:00:00 13.86 C 9.06 g/m*3 13.86 C 0 km/h
Sensor: Nr:Datum:Temp:Abs-Feuchte:Windchill:Wind:
Aussen-T/F 1151 13-11-2010 02:00:00 13.78 C 9.28 g/m*3 13.78 C 0 km/h
1152 13-11-2010 03:00:00 14.2 C 9.33 g/m*3 14.2 C 0 km/h
1153 13-11-2010 04:00:00 14.14 C 9.25 g/m*3 14.14 C 0 km/h
1154 13-11-2010 05:00:00 14.5 C 9.1 g/m*3 14.5 C 0 km/h
1155 13-11-2010 06:00:00 14.62 C 9.05 g/m*3 14.62 C 0 km/h
1156 13-11-2010 07:00:00 14.72 C 9 g/m*3 14.72 C 0 km/h
1157 13-11-2010 08:00:00 14.72 C 9 g/m*3 14.72 C 0 km/h
1158 13-11-2010 09:00:00 14.18 C 9.15 g/m*3 14.18 C 0 km/h
1159 13-11-2010 10:00:00 14.32 C 9.23 g/m*3 14.32 C 0 km/h
1160 13-11-2010 11:00:00 14.76 C 9 g/m*3 14.76 C 0 km/h
1161 13-11-2010 12:00:00 14.8 C 8.84 g/m*3 14.8 C 0 km/h
1162 13-11-2010 13:00:00 14.76 C 8.85 g/m*3 14.76 C 0 km/h
1163 13-11-2010 14:00:00 14.78 C 8.68 g/m*3 14.78 C 0 km/h
1164 13-11-2010 15:00:00 14.82 C 8.55 g/m*3 14.82 C 0 km/h
1165 13-11-2010 16:00:00 14.68 C 8.68 g/m*3 14.68 C 0 km/h
1166 13-11-2010 17:00:00 14.26 C 8.75 g/m*3 14.26 C 0 km/h
1167 13-11-2010 18:00:00 14.68 C 8.7 g/m*3 14.68 C 0 km/h
1168 13-11-2010 19:00:00 14.94 C 8.51 g/m*3 14.94 C 0 km/h
1169 13-11-2010 20:00:00 15 C 8.28 g/m*3 15 C 0 km/h
1170 13-11-2010 21:00:00 14.52 C 8.39 g/m*3 14.52 C 0 km/h
1171 13-11-2010 22:00:00 14.86 C 8.11 g/m*3 14.86 C 0 km/h
1172 13-11-2010 23:00:00 14.74 C 8.05 g/m*3 14.74 C 0 km/h
1173 14-11-2010 00:00:00 15.08 C 8.07 g/m*3 15.08 C 0 km/h
1174 14-11-2010 01:00:00 14.24 C 8.27 g/m*3 14.24 C 0 km/h
1175 14-11-2010 02:00:00 13.58 C 8.7 g/m*3 13.58 C 0 km/h
Sensor: Nr:Datum:Temp:Abs-Feuchte:Windchill:Wind:
Aussen-T/F 1176 14-11-2010 03:00:00 14.36 C 8.39 g/m*3 14.36 C 0 km/h
1177 14-11-2010 04:00:00 14.02 C 8.38 g/m*3 14.02 C 0 km/h
1178 14-11-2010 05:00:00 13.9 C 8.46 g/m*3 13.9 C 0 km/h
1179 14-11-2010 06:00:00 13.42 C 8.36 g/m*3 13.42 C 0 km/h
1180 14-11-2010 07:00:00 11.92 C 8 g/m*3 11.92 C 0 km/h
1181 14-11-2010 08:00:00 12.66 C 7.53 g/m*3 12.66 C 0 km/h
1182 14-11-2010 09:00:00 14.28 C 7.24 g/m*3 14.28 C 0 km/h
1183 14-11-2010 10:00:00 15.02 C 7.22 g/m*3 15.02 C 0 km/h
1184 14-11-2010 11:00:00 15.44 C 7.22 g/m*3 15.44 C 0 km/h
1185 14-11-2010 12:00:00 16.16 C 7.4 g/m*3 16.16 C 0 km/h
1186 14-11-2010 13:00:00 17.46 C 7.44 g/m*3 17.46 C 0 km/h
1187 14-11-2010 14:00:00 17.64 C 7.25 g/m*3 17.64 C 0 km/h
1188 14-11-2010 15:00:00 17.7 C 7.12 g/m*3 17.7 C 0 km/h
1189 14-11-2010 16:00:00 15.72 C 7.64 g/m*3 15.72 C 0 km/h
1190 14-11-2010 17:00:00 14.74 C 8.13 g/m*3 14.74 C 0 km/h
1191 14-11-2010 18:00:00 14.16 C 8.02 g/m*3 14.16 C 0 km/h
1192 14-11-2010 19:00:00 13.96 C 7.89 g/m*3 13.96 C 0 km/h
1193 14-11-2010 20:00:00 14.02 C 7.68 g/m*3 14.02 C 0 km/h
1194 14-11-2010 21:00:00 13.92 C 7.27 g/m*3 13.92 C 0 km/h
1195 14-11-2010 22:00:00 13.78 C 7.09 g/m*3 13.78 C 0 km/h
1196 14-11-2010 23:00:00 13.42 C 6.94 g/m*3 13.42 C 0 km/h
1197 15-11-2010 00:00:00 12.88 C 6.98 g/m*3 12.88 C 0 km/h
1198 15-11-2010 01:00:00 12.22 C 6.91 g/m*3 12.22 C 0 km/h
1199 15-11-2010 02:00:00 11.78 C 6.92 g/m*3 11.78 C 0 km/h
1200 15-11-2010 03:00:00 10.9 C 7.02 g/m*3 10.9 C 0 km/h
Sensor: Nr:Datum:Temp:Abs-Feuchte:Windchill:Wind:
Aussen-T/F 1201 15-11-2010 04:00:00 10.24 C 6.95 g/m*3 10.24 C 0 km/h
1202 15-11-2010 05:00:00 9.92 C 6.53 g/m*3 9.92 C 0 km/h
1203 15-11-2010 06:00:00 9.34 C 6.27 g/m*3 9.34 C 0 km/h
1204 15-11-2010 07:00:00 8.96 C 6.42 g/m*3 8.96 C 0 km/h
1205 15-11-2010 08:00:00 9.1 C 6.28 g/m*3 9.1 C 0 km/h
1206 15-11-2010 09:00:00 9.16 C 6.07 g/m*3 9.16 C 0 km/h
1207 15-11-2010 10:00:00 9.82 C 5.87 g/m*3 9.82 C 0 km/h
1208 15-11-2010 11:00:00 10.3 C 5.75 g/m*3 10.3 C 0 km/h
1209 15-11-2010 12:00:00 10.84 C 5.57 g/m*3 10.84 C 0 km/h
1210 15-11-2010 13:00:00 10.48 C 5.62 g/m*3 10.48 C 0 km/h
1211 15-11-2010 14:00:00 10.24 C 5.5 g/m*3 10.24 C 0 km/h
1212 15-11-2010 15:00:00 9.68 C 5.54 g/m*3 9.68 C 0 km/h
1213 15-11-2010 16:00:00 8.96 C 5.7 g/m*3 8.96 C 0 km/h
1214 15-11-2010 17:00:00 8.16 C 5.81 g/m*3 8.16 C 0 km/h
1215 15-11-2010 18:00:00 8.14 C 5.89 g/m*3 8.14 C 0 km/h
1216 15-11-2010 19:00:00 7.98 C 5.88 g/m*3 7.98 C 0 km/h
1217 15-11-2010 20:00:00 7.6 C 5.95 g/m*3 7.6 C 0 km/h
1218 15-11-2010 21:00:00 7.16 C 5.93 g/m*3 7.16 C 0 km/h
1219 15-11-2010 22:00:00 6.94 C 5.97 g/m*3 6.94 C 0 km/h
1220 15-11-2010 23:00:00 6.68 C 5.99 g/m*3 6.68 C 0 km/h
1221 16-11-2010 00:00:00 5.88 C 5.95 g/m*3 5.88 C 0 km/h
1222 16-11-2010 01:00:00 5.2 C 5.87 g/m*3 5.2 C 0 km/h
1223 16-11-2010 02:00:00 5.48 C 6.1 g/m*3 5.48 C 0 km/h
1224 16-11-2010 03:00:00 5.86 C 6.21 g/m*3 5.86 C 0 km/h
1225 16-11-2010 04:00:00 5.22 C 5.97 g/m*3 5.22 C 0 km/h
Sensor: Nr:Datum:Temp:Abs-Feuchte:Windchill:Wind:
Aussen-T/F 1226 16-11-2010 05:00:00 5.5 C 6.07 g/m*3 5.5 C 0 km/h
1227 16-11-2010 06:00:00 5.22 C 5.83 g/m*3 5.22 C 0 km/h
1228 16-11-2010 07:00:00 5.18 C 5.79 g/m*3 5.18 C 0 km/h
1229 16-11-2010 08:00:00 5.42 C 5.83 g/m*3 5.42 C 0 km/h
1230 16-11-2010 09:00:00 5.88 C 5.82 g/m*3 5.88 C 0 km/h
1231 16-11-2010 10:00:00 6.26 C 5.74 g/m*3 6.26 C 0 km/h
1232 16-11-2010 11:00:00 6.56 C 5.65 g/m*3 6.56 C 0 km/h
1233 16-11-2010 12:00:00 7.34 C 5.53 g/m*3 7.34 C 0 km/h
1234 16-11-2010 13:00:00 7.54 C 5.59 g/m*3 7.54 C 0 km/h
1235 16-11-2010 14:00:00 7.68 C 5.52 g/m*3 7.68 C 0 km/h
1236 16-11-2010 15:00:00 7.24 C 5.51 g/m*3 7.24 C 0 km/h
1237 16-11-2010 16:00:00 7.08 C 5.53 g/m*3 7.08 C 0 km/h
1238 16-11-2010 17:00:00 6.8 C 5.64 g/m*3 6.8 C 0 km/h
1239 16-11-2010 18:00:00 6.22 C 5.67 g/m*3 6.22 C 0 km/h
1240 16-11-2010 19:00:00 5.92 C 5.75 g/m*3 5.92 C 0 km/h
1241 16-11-2010 20:00:00 5.56 C 5.71 g/m*3 5.56 C 0 km/h
1242 16-11-2010 21:00:00 5.42 C 5.66 g/m*3 5.42 C 0 km/h
1243 16-11-2010 22:00:00 5.24 C 5.61 g/m*3 5.24 C 0 km/h
1244 16-11-2010 23:00:00 4.6 C 5.58 g/m*3 4.6 C 0 km/h
1245 17-11-2010 00:00:00 4.78 C 5.72 g/m*3 4.78 C 0 km/h
1246 17-11-2010 01:00:00 5.08 C 5.62 g/m*3 5.08 C 0 km/h
1247 17-11-2010 02:00:00 5 C 5.59 g/m*3 5 C 0 km/h
1248 17-11-2010 03:00:00 4.92 C 5.66 g/m*3 4.92 C 0 km/h
1249 17-11-2010 04:00:00 4.8 C 5.65 g/m*3 4.8 C 0 km/h
1250 17-11-2010 05:00:00 4.74 C 5.72 g/m*3 4.74 C 0 km/h
Sensor: Nr:Datum:Temp:Abs-Feuchte:Windchill:Wind:
Aussen-T/F 1251 17-11-2010 06:00:00 4.7 C 5.73 g/m*3 4.7 C 0 km/h
1252 17-11-2010 07:00:00 4.72 C 5.67 g/m*3 4.72 C 0 km/h
1253 17-11-2010 08:00:00 5.1 C 4.98 g/m*3 5.1 C 0 km/h
1254 17-11-2010 09:00:00 5.56 C 4.64 g/m*3 5.56 C 0 km/h
1255 17-11-2010 10:00:00 5.78 C 4.66 g/m*3 5.78 C 0 km/h
1256 17-11-2010 11:00:00 6.04 C 4.6 g/m*3 6.04 C 0 km/h
1257 17-11-2010 12:00:00 6.28 C 4.6 g/m*3 6.28 C 0 km/h
1258 17-11-2010 13:00:00 6.54 C 4.63 g/m*3 6.54 C 0 km/h
1259 17-11-2010 14:00:00 6.18 C 4.55 g/m*3 6.18 C 0 km/h
1260 17-11-2010 15:00:00 5.86 C 4.67 g/m*3 5.86 C 0 km/h
1261 17-11-2010 16:00:00 5.54 C 4.8 g/m*3 5.54 C 0 km/h
1262 17-11-2010 17:00:00 5.26 C 4.91 g/m*3 5.26 C 0 km/h
1263 17-11-2010 18:00:00 5.2 C 4.97 g/m*3 5.2 C 0 km/h
1264 17-11-2010 19:00:00 5.3 C 4.99 g/m*3 5.3 C 0 km/h
1265 17-11-2010 20:00:00 5.3 C 5.12 g/m*3 5.3 C 0 km/h
1266 17-11-2010 21:00:00 5.26 C 5.21 g/m*3 5.26 C 0 km/h
1267 17-11-2010 22:00:00 5.04 C 5.34 g/m*3 5.04 C 0 km/h
1268 17-11-2010 23:00:00 4.52 C 5.58 g/m*3 4.52 C 0 km/h
1269 18-11-2010 00:00:00 4.56 C 5.74 g/m*3 4.56 C 0 km/h
1270 18-11-2010 01:00:00 4.28 C 5.71 g/m*3 4.28 C 0 km/h
1271 18-11-2010 02:00:00 4.28 C 5.77 g/m*3 4.28 C 0 km/h
1272 18-11-2010 03:00:00 4.06 C 5.75 g/m*3 4.06 C 0 km/h
1273 18-11-2010 04:00:00 4.28 C 5.88 g/m*3 4.28 C 0 km/h
1274 18-11-2010 05:00:00 4.28 C 5.89 g/m*3 4.28 C 0 km/h
1275 18-11-2010 06:00:00 3.92 C 5.81 g/m*3 3.92 C 0 km/h
Sensor: Nr:Datum:Temp:Abs-Feuchte:Windchill:Wind:
Aussen-T/F 1276 18-11-2010 07:00:00 3.98 C 5.84 g/m*3 3.98 C 0 km/h
1277 18-11-2010 08:00:00 4.22 C 5.94 g/m*3 4.22 C 0 km/h
1278 18-11-2010 09:00:00 4.94 C 6.2 g/m*3 4.94 C 0 km/h
1279 18-11-2010 10:00:00 5.96 C 6.24 g/m*3 5.96 C 0 km/h
1280 18-11-2010 11:00:00 6.9 C 6.02 g/m*3 6.9 C 0 km/h
1281 18-11-2010 12:00:00 7.54 C 5.92 g/m*3 7.54 C 0 km/h
1282 18-11-2010 13:00:00 8.36 C 5.7 g/m*3 8.36 C 0 km/h
1283 18-11-2010 14:00:00 8.14 C 5.32 g/m*3 8.14 C 0 km/h
1284 18-11-2010 15:00:00 7.76 C 5.39 g/m*3 7.76 C 0 km/h
1285 18-11-2010 16:00:00 6.9 C 5.77 g/m*3 6.9 C 0 km/h
1286 18-11-2010 17:00:00 6.12 C 5.87 g/m*3 6.12 C 0 km/h
1287 18-11-2010 18:00:00 6.2 C 6.02 g/m*3 6.2 C 0 km/h
1288 18-11-2010 19:00:00 5.94 C 6.01 g/m*3 5.94 C 0 km/h
1289 18-11-2010 20:00:00 5.58 C 6.23 g/m*3 5.58 C 0 km/h
1290 18-11-2010 21:00:00 5.52 C 6.27 g/m*3 5.52 C 0 km/h
1291 18-11-2010 22:00:00 5.5 C 6.32 g/m*3 5.5 C 0 km/h
1292 18-11-2010 23:00:00 5.64 C 6.42 g/m*3 5.64 C 0 km/h
1293 19-11-2010 00:00:00 5.66 C 6.26 g/m*3 5.66 C 0 km/h
1294 19-11-2010 01:00:00 5.58 C 6.11 g/m*3 5.58 C 0 km/h
1295 19-11-2010 02:00:00 5.34 C 6.17 g/m*3 5.34 C 0 km/h
1296 19-11-2010 03:00:00 5.12 C 6.08 g/m*3 5.12 C 0 km/h
1297 19-11-2010 04:00:00 5.04 C 6.05 g/m*3 5.04 C 0 km/h
1298 19-11-2010 05:00:00 4.94 C 6.04 g/m*3 4.94 C 0 km/h
1299 19-11-2010 06:00:00 4.9 C 6.02 g/m*3 4.9 C 0 km/h
1300 19-11-2010 07:00:00 5.14 C 6.1 g/m*3 5.14 C 0 km/h
Sensor: Nr:Datum:Temp:Abs-Feuchte:Windchill:Wind:
Aussen-T/F 1301 19-11-2010 08:00:00 5.44 C 6.23 g/m*3 5.44 C 0 km/h
1302 19-11-2010 09:00:00 6.32 C 6.26 g/m*3 6.32 C 0 km/h
1303 19-11-2010 10:00:00 7.62 C 6.28 g/m*3 7.62 C 0 km/h
1304 19-11-2010 11:00:00 8.84 C 6.06 g/m*3 8.84 C 0 km/h
1305 19-11-2010 12:00:00 9.52 C 5.85 g/m*3 9.52 C 0 km/h
1306 19-11-2010 13:00:00 9.74 C 5.82 g/m*3 9.74 C 0 km/h
1307 19-11-2010 14:00:00 9.94 C 5.69 g/m*3 9.94 C 0 km/h
1308 19-11-2010 15:00:00 8.5 C 5.93 g/m*3 8.5 C 0 km/h
1309 19-11-2010 16:00:00 7.04 C 6.23 g/m*3 7.04 C 0 km/h
1310 19-11-2010 17:00:00 7.58 C 6.31 g/m*3 7.58 C 0 km/h
1311 19-11-2010 18:00:00 7.62 C 6.32 g/m*3 7.62 C 0 km/h
1312 19-11-2010 19:00:00 6.96 C 6.23 g/m*3 6.96 C 0 km/h
1313 19-11-2010 20:00:00 5.1 C 5.91 g/m*3 5.1 C 0 km/h
1314 19-11-2010 21:00:00 3.86 C 5.62 g/m*3 3.86 C 0 km/h
1315 19-11-2010 22:00:00 3.92 C 5.74 g/m*3 3.92 C 0 km/h
1316 19-11-2010 23:00:00 4.54 C 6.02 g/m*3 4.54 C 0 km/h
1317 20-11-2010 00:00:00 4.04 C 5.86 g/m*3 4.04 C 0 km/h
1318 20-11-2010 01:00:00 4.18 C 5.92 g/m*3 4.18 C 0 km/h
1319 20-11-2010 02:00:00 1.94 C 5.11 g/m*3 1.94 C 0 km/h
1320 20-11-2010 03:00:00 1.34 C 4.91 g/m*3 1.34 C 0 km/h
1321 20-11-2010 04:00:00 2.64 C 5.37 g/m*3 2.64 C 0 km/h
1322 20-11-2010 05:00:00 3.34 C 5.65 g/m*3 3.34 C 0 km/h
1323 20-11-2010 06:00:00 3.76 C 5.82 g/m*3 3.76 C 0 km/h
1324 20-11-2010 07:00:00 4.06 C 5.94 g/m*3 4.06 C 0 km/h
1325 20-11-2010 08:00:00 4.4 C 6.07 g/m*3 4.4 C 0 km/h
Sensor: Nr:Datum:Temp:Abs-Feuchte:Windchill:Wind:
Aussen-T/F 1326 20-11-2010 09:00:00 5.04 C 6.32 g/m*3 5.04 C 0 km/h
1327 20-11-2010 10:00:00 6.02 C 6.63 g/m*3 6.02 C 0 km/h
1328 20-11-2010 11:00:00 7.46 C 6.75 g/m*3 7.46 C 0 km/h
1329 20-11-2010 12:00:00 9.1 C 6.67 g/m*3 9.1 C 0 km/h
1330 20-11-2010 13:00:00 8.88 C 6.37 g/m*3 8.88 C 0 km/h
1331 20-11-2010 14:00:00 8.78 C 6.29 g/m*3 8.78 C 0 km/h
1332 20-11-2010 15:00:00 7.76 C 6.19 g/m*3 7.76 C 0 km/h
1333 20-11-2010 16:00:00 5.34 C 5.87 g/m*3 5.34 C 0 km/h
1334 20-11-2010 17:00:00 4.6 C 5.9 g/m*3 4.6 C 0 km/h
1335 20-11-2010 18:00:00 4.4 C 5.9 g/m*3 4.4 C 0 km/h
1336 20-11-2010 19:00:00 3.92 C 5.75 g/m*3 3.92 C 0 km/h
1337 20-11-2010 20:00:00 3.28 C 5.55 g/m*3 3.28 C 0 km/h
1338 20-11-2010 21:00:00 3.26 C 5.57 g/m*3 3.26 C 0 km/h
1339 20-11-2010 22:00:00 4.32 C 5.98 g/m*3 4.32 C 0 km/h
1340 20-11-2010 23:00:00 4.12 C 5.92 g/m*3 4.12 C 0 km/h
1341 21-11-2010 00:00:00 4.32 C 5.96 g/m*3 4.32 C 0 km/h
1342 21-11-2010 01:00:00 4.48 C 5.75 g/m*3 4.48 C 0 km/h
1343 21-11-2010 02:00:00 4.44 C 5.43 g/m*3 4.44 C 0 km/h
1344 21-11-2010 03:00:00 4.5 C 5.28 g/m*3 4.5 C 0 km/h
1345 21-11-2010 04:00:00 4.56 C 5.06 g/m*3 4.56 C 0 km/h
1346 21-11-2010 05:00:00 4.5 C 4.94 g/m*3 4.5 C 0 km/h
1347 21-11-2010 06:00:00 4.4 C 4.92 g/m*3 4.4 C 0 km/h
1348 21-11-2010 07:00:00 4.38 C 5.05 g/m*3 4.38 C 0 km/h
1349 21-11-2010 08:00:00 4.7 C 5.14 g/m*3 4.7 C 0 km/h
1350 21-11-2010 09:00:00 5 C 4.92 g/m*3 5 C 0 km/h
Sensor: Nr:Datum:Temp:Abs-Feuchte:Windchill:Wind:
Aussen-T/F 1351 21-11-2010 10:00:00 5.36 C 4.82 g/m*3 5.36 C 0 km/h
1352 21-11-2010 11:00:00 5.3 C 4.63 g/m*3 5.3 C 0 km/h
1353 21-11-2010 12:00:00 5.1 C 4.53 g/m*3 5.1 C 0 km/h
1354 21-11-2010 13:00:00 5.12 C 4.45 g/m*3 5.12 C 0 km/h
1355 21-11-2010 14:00:00 4.88 C 4.42 g/m*3 4.88 C 0 km/h
1356 21-11-2010 15:00:00 4.44 C 4.28 g/m*3 4.44 C 0 km/h
1357 21-11-2010 16:00:00 4.16 C 4.38 g/m*3 4.16 C 0 km/h
1358 21-11-2010 17:00:00 3.96 C 4.5 g/m*3 3.96 C 0 km/h
1359 21-11-2010 18:00:00 3.96 C 4.57 g/m*3 3.96 C 0 km/h
1360 21-11-2010 19:00:00 4.06 C 4.61 g/m*3 4.06 C 0 km/h
1361 21-11-2010 20:00:00 4.3 C 4.55 g/m*3 4.3 C 0 km/h
1362 21-11-2010 21:00:00 4.16 C 4.5 g/m*3 4.16 C 0 km/h
1363 21-11-2010 22:00:00 3.76 C 4.66 g/m*3 3.76 C 0 km/h
1364 21-11-2010 23:00:00 3.76 C 4.81 g/m*3 3.76 C 0 km/h
1365 22-11-2010 00:00:00 4.06 C 4.93 g/m*3 4.06 C 0 km/h
1366 22-11-2010 01:00:00 4.08 C 4.92 g/m*3 4.08 C 0 km/h
1367 22-11-2010 02:00:00 4.16 C 4.97 g/m*3 4.16 C 0 km/h
1368 22-11-2010 03:00:00 4.46 C 5.06 g/m*3 4.46 C 0 km/h
1369 22-11-2010 04:00:00 4.86 C 5.01 g/m*3 4.86 C 0 km/h
1370 22-11-2010 05:00:00 4.88 C 4.95 g/m*3 4.88 C 0 km/h
1371 22-11-2010 06:00:00 4.7 C 4.86 g/m*3 4.7 C 0 km/h
1372 22-11-2010 07:00:00 4.64 C 4.79 g/m*3 4.64 C 0 km/h
1373 22-11-2010 08:00:00 4.64 C 4.8 g/m*3 4.64 C 0 km/h
1374 22-11-2010 09:00:00 4.74 C 4.81 g/m*3 4.74 C 0 km/h
1375 22-11-2010 10:00:00 4.82 C 4.86 g/m*3 4.82 C 0 km/h
Sensor: Nr:Datum:Temp:Abs-Feuchte:Windchill:Wind:
Aussen-T/F 1376 22-11-2010 11:00:00 4.48 C 4.95 g/m*3 4.48 C 0 km/h
1377 22-11-2010 12:00:00 4.2 C 5.21 g/m*3 4.2 C 0 km/h
1378 22-11-2010 13:00:00 4.24 C 5.38 g/m*3 4.24 C 0 km/h
1379 22-11-2010 14:00:00 4.78 C 5.25 g/m*3 4.78 C 0 km/h
1380 22-11-2010 15:00:00 4.9 C 5.02 g/m*3 4.9 C 0 km/h
1381 22-11-2010 16:00:00 4.32 C 4.91 g/m*3 4.32 C 0 km/h
1382 22-11-2010 17:00:00 4.04 C 4.99 g/m*3 4.04 C 0 km/h
1383 22-11-2010 18:00:00 4.28 C 4.95 g/m*3 4.28 C 0 km/h
1384 22-11-2010 19:00:00 4.38 C 4.88 g/m*3 4.38 C 0 km/h
1385 22-11-2010 20:00:00 4.42 C 4.8 g/m*3 4.42 C 0 km/h
1386 22-11-2010 21:00:00 4.4 C 4.82 g/m*3 4.4 C 0 km/h
1387 22-11-2010 22:00:00 4.5 C 4.89 g/m*3 4.5 C 0 km/h
1388 22-11-2010 23:00:00 4.4 C 4.94 g/m*3 4.4 C 0 km/h
1389 23-11-2010 00:00:00 4.44 C 4.94 g/m*3 4.44 C 0 km/h
1390 23-11-2010 01:00:00 4.46 C 4.85 g/m*3 4.46 C 0 km/h
1391 23-11-2010 02:00:00 4.26 C 4.62 g/m*3 4.26 C 0 km/h
1392 23-11-2010 03:00:00 4.08 C 4.42 g/m*3 4.08 C 0 km/h
1393 23-11-2010 04:00:00 3.68 C 4.52 g/m*3 3.68 C 0 km/h
1394 23-11-2010 05:00:00 3.2 C 4.65 g/m*3 3.2 C 0 km/h
1395 23-11-2010 06:00:00 2.66 C 5.01 g/m*3 2.66 C 0 km/h
1396 23-11-2010 07:00:00 2.96 C 5.08 g/m*3 2.96 C 0 km/h
1397 23-11-2010 08:00:00 3.18 C 4.89 g/m*3 3.18 C 0 km/h
1398 23-11-2010 09:00:00 3.68 C 4.75 g/m*3 3.68 C 0 km/h
1399 23-11-2010 10:00:00 4.26 C 4.58 g/m*3 4.26 C 0 km/h
1400 23-11-2010 11:00:00 4.72 C 4.66 g/m*3 4.72 C 0 km/h
Sensor: Nr:Datum:Temp:Abs-Feuchte:Windchill:Wind:
Aussen-T/F 1401 23-11-2010 12:00:00 5.28 C 4.47 g/m*3 5.28 C 0 km/h
1402 23-11-2010 13:00:00 6.04 C 4.37 g/m*3 6.04 C 0 km/h
1403 23-11-2010 14:00:00 5.74 C 4.25 g/m*3 5.74 C 0 km/h
1404 23-11-2010 15:00:00 5.54 C 4.25 g/m*3 5.54 C 0 km/h
1405 23-11-2010 16:00:00 5.38 C 4.47 g/m*3 5.38 C 0 km/h
1406 23-11-2010 17:00:00 5.32 C 4.46 g/m*3 5.32 C 0 km/h
1407 23-11-2010 18:00:00 5.28 C 4.42 g/m*3 5.28 C 0 km/h
1408 23-11-2010 19:00:00 5.2 C 4.5 g/m*3 5.2 C 0 km/h
1409 23-11-2010 20:00:00 5.14 C 4.46 g/m*3 5.14 C 0 km/h
1410 23-11-2010 21:00:00 4.98 C 4.33 g/m*3 4.98 C 0 km/h
1411 23-11-2010 22:00:00 4.95 C 4.33 g/m*3 4.95 C 0 km/h
1412 23-11-2010 23:00:00 4.64 C 4.39 g/m*3 4.64 C 0 km/h
1413 24-11-2010 00:00:00 4.32 C 4.44 g/m*3 4.32 C 0 km/h
1414 24-11-2010 01:00:00 3.96 C 4.46 g/m*3 3.96 C 0 km/h
1415 24-11-2010 02:00:00 3.42 C 4.5 g/m*3 3.42 C 0 km/h
1416 24-11-2010 03:00:00 3.52 C 4.62 g/m*3 3.52 C 0 km/h
1417 24-11-2010 04:00:00 3.46 C 4.72 g/m*3 3.46 C 0 km/h
1418 24-11-2010 05:00:00 2.92 C 5 g/m*3 2.92 C 0 km/h
1419 24-11-2010 06:00:00 3.2 C 5.07 g/m*3 3.2 C 0 km/h
1420 24-11-2010 07:00:00 3.34 C 5.01 g/m*3 3.34 C 0 km/h
1421 24-11-2010 08:00:00 3.42 C 5.08 g/m*3 3.42 C 0 km/h
1422 24-11-2010 09:00:00 4.22 C 4.99 g/m*3 4.22 C 0 km/h
1423 24-11-2010 10:00:00 5.22 C 4.7 g/m*3 5.22 C 0 km/h
1424 24-11-2010 11:00:00 5.22 C 4.78 g/m*3 5.22 C 0 km/h
1425 24-11-2010 12:00:00 5.8 C 4.57 g/m*3 5.8 C 0 km/h
Sensor: Nr:Datum:Temp:Abs-Feuchte:Windchill:Wind:
Aussen-T/F 1426 24-11-2010 13:00:00 5.36 C 4.61 g/m*3 5.36 C 0 km/h
1427 24-11-2010 14:00:00 4.48 C 5.08 g/m*3 4.48 C 0 km/h
1428 24-11-2010 15:00:00 3.48 C 5.24 g/m*3 3.48 C 0 km/h
1429 24-11-2010 16:00:00 3.3 C 5.22 g/m*3 3.3 C 0 km/h
1430 24-11-2010 17:00:00 2.28 C 4.88 g/m*3 2.28 C 0 km/h
1431 24-11-2010 18:00:00 1.64 C 4.9 g/m*3 1.64 C 0 km/h
1432 24-11-2010 19:00:00 2.02 C 5.09 g/m*3 2.02 C 0 km/h
1433 24-11-2010 20:00:00 1.42 C 4.91 g/m*3 1.42 C 0 km/h
1434 24-11-2010 21:00:00 1.42 C 4.91 g/m*3 1.42 C 0 km/h
1435 24-11-2010 22:00:00 2.14 C 5.13 g/m*3 2.14 C 0 km/h
1436 24-11-2010 23:00:00 2.4 C 5.06 g/m*3 2.4 C 0 km/h
1437 25-11-2010 00:00:00 2.5 C 4.93 g/m*3 2.5 C 0 km/h
1438 25-11-2010 01:00:00 2.94 C 4.82 g/m*3 2.94 C 0 km/h
1439 25-11-2010 02:00:00 2.76 C 4.55 g/m*3 2.76 C 0 km/h
1440 25-11-2010 03:00:00 2.82 C 4.43 g/m*3 2.82 C 0 km/h
1441 25-11-2010 04:00:00 2.02 C 4.2 g/m*3 2.02 C 0 km/h
1442 25-11-2010 05:00:00 1.3 C 4.08 g/m*3 1.3 C 0 km/h
1443 25-11-2010 06:00:00 0.66 C 4.12 g/m*3 0.66 C 0 km/h
1444 25-11-2010 07:00:00 0.06 C 4.24 g/m*3 0.06 C 0 km/h
1445 25-11-2010 08:00:00 -0.28 C 4.23 g/m*3 -0.28 C 0 km/h
1446 25-11-2010 09:00:00 0.58 C 4.45 g/m*3 0.58 C 0 km/h
1447 25-11-2010 10:00:00 0.8 C 4.42 g/m*3 0.8 C 0 km/h
1448 25-11-2010 11:00:00 1.76 C 4.53 g/m*3 1.76 C 0 km/h
1449 25-11-2010 12:00:00 2 C 4.51 g/m*3 2 C 0 km/h
1450 25-11-2010 13:00:00 3.48 C 4.22 g/m*3 3.48 C 0 km/h
Sensor: Nr:Datum:Temp:Abs-Feuchte:Windchill:Wind:
Aussen-T/F 1451 25-11-2010 14:00:00 3.66 C 4.03 g/m*3 3.66 C 0 km/h
1452 25-11-2010 15:00:00 3.28 C 3.96 g/m*3 3.28 C 0 km/h
1453 25-11-2010 16:00:00 2.04 C 4.21 g/m*3 2.04 C 0 km/h
1454 25-11-2010 17:00:00 2.04 C 4.35 g/m*3 2.04 C 0 km/h
1455 25-11-2010 18:00:00 1.74 C 4.42 g/m*3 1.74 C 0 km/h
1456 25-11-2010 19:00:00 0.98 C 4.38 g/m*3 0.98 C 0 km/h
1457 25-11-2010 20:00:00 0.7 C 4.4 g/m*3 0.7 C 0 km/h
1458 25-11-2010 21:00:00 1.24 C 4.5 g/m*3 1.24 C 0 km/h
1459 25-11-2010 22:00:00 1.34 C 4.49 g/m*3 1.34 C 0 km/h
1460 25-11-2010 23:00:00 1.36 C 4.52 g/m*3 1.36 C 0 km/h
1461 26-11-2010 00:00:00 1.4 C 4.51 g/m*3 1.4 C 0 km/h
1462 26-11-2010 01:00:00 1.06 C 4.49 g/m*3 1.06 C 0 km/h
1463 26-11-2010 02:00:00 1.06 C 4.47 g/m*3 1.06 C 0 km/h
1464 26-11-2010 03:00:00 0.74 C 4.37 g/m*3 0.74 C 0 km/h
1465 26-11-2010 04:00:00 0.32 C 4.4 g/m*3 0.32 C 0 km/h
1466 26-11-2010 05:00:00 0.26 C 4.47 g/m*3 0.26 C 0 km/h
1467 26-11-2010 06:00:00 0.22 C 4.49 g/m*3 0.22 C 0 km/h
1468 26-11-2010 07:00:00 0 C 4.46 g/m*3 0 C 0 km/h
1469 26-11-2010 08:00:00 0.04 C 4.49 g/m*3 0.04 C 0 km/h
1470 26-11-2010 09:00:00 0.14 C 4.55 g/m*3 0.14 C 0 km/h
1471 26-11-2010 10:00:00 0.58 C 4.66 g/m*3 0.58 C 0 km/h
1472 26-11-2010 11:00:00 1.12 C 4.61 g/m*3 1.12 C 0 km/h
1473 26-11-2010 12:00:00 0.84 C 4.41 g/m*3 0.84 C 0 km/h
1474 26-11-2010 13:00:00 0.9 C 4.37 g/m*3 0.9 C 0 km/h
1475 26-11-2010 14:00:00 1.6 C 4.17 g/m*3 1.6 C 0 km/h
Sensor: Nr:Datum:Temp:Abs-Feuchte:Windchill:Wind:
Aussen-T/F 1476 26-11-2010 15:00:00 0.8 C 3.8 g/m*3 0.8 C 0 km/h
1477 26-11-2010 16:00:00 -1.48 C 3.69 g/m*3 -1.48 C 0 km/h
1478 26-11-2010 17:00:00 -2.36 C 3.65 g/m*3 -2.36 C 0 km/h
1479 26-11-2010 18:00:00 -1.38 C 4 g/m*3 -1.38 C 0 km/h
1480 26-11-2010 19:00:00 -1.54 C 3.96 g/m*3 -1.54 C 0 km/h
1481 26-11-2010 20:00:00 -1.96 C 3.85 g/m*3 -1.96 C 0 km/h
1482 26-11-2010 21:00:00 -2.34 C 3.75 g/m*3 -2.34 C 0 km/h
1483 26-11-2010 22:00:00 -3.24 C 3.5 g/m*3 -3.24 C 0 km/h
1484 26-11-2010 23:00:00 -3.76 C 3.35 g/m*3 -3.76 C 0 km/h
1485 27-11-2010 00:00:00 -4.08 C 3.27 g/m*3 -4.08 C 0 km/h
1486 27-11-2010 01:00:00 -3.54 C 3.39 g/m*3 -3.54 C 0 km/h
1487 27-11-2010 02:00:00 -3.94 C 3.25 g/m*3 -3.94 C 0 km/h
1488 27-11-2010 03:00:00 -3.16 C 3.46 g/m*3 -3.16 C 0 km/h
1489 27-11-2010 04:00:00 -4.12 C 3.19 g/m*3 -4.12 C 0 km/h
1490 27-11-2010 05:00:00 -4.28 C 3.15 g/m*3 -4.28 C 0 km/h
1491 27-11-2010 06:00:00 -3.52 C 3.35 g/m*3 -3.52 C 0 km/h
1492 27-11-2010 07:00:00 -3.54 C 3.33 g/m*3 -3.54 C 0 km/h
1493 27-11-2010 08:00:00 -3 C 3.48 g/m*3 -3 C 0 km/h
1494 27-11-2010 09:00:00 -1.8 C 3.8 g/m*3 -1.8 C 0 km/h
1495 27-11-2010 10:00:00 -0.84 C 4.06 g/m*3 -0.84 C 0 km/h
1496 27-11-2010 11:00:00 -0.2 C 4.19 g/m*3 -0.2 C 0 km/h
1497 27-11-2010 12:00:00 0.38 C 4 g/m*3 0.38 C 0 km/h
1498 27-11-2010 13:00:00 0.86 C 3.91 g/m*3 0.86 C 0 km/h
1499 27-11-2010 14:00:00 1.48 C 3.79 g/m*3 1.48 C 0 km/h
1500 27-11-2010 15:00:00 0.76 C 3.8 g/m*3 0.76 C 0 km/h
Sensor: Nr:Datum:Temp:Abs-Feuchte:Windchill:Wind:
Aussen-T/F 1501 27-11-2010 16:00:00 -0.72 C 3.59 g/m*3 -0.72 C 0 km/h
1502 27-11-2010 17:00:00 -0.86 C 3.65 g/m*3 -0.86 C 0 km/h
1503 27-11-2010 18:00:00 -1.58 C 3.59 g/m*3 -1.58 C 0 km/h
1504 27-11-2010 19:00:00 -0.92 C 3.75 g/m*3 -0.92 C 0 km/h
1505 27-11-2010 20:00:00 -1.5 C 3.52 g/m*3 -1.5 C 0 km/h
1506 27-11-2010 21:00:00 -3.1 C 3.27 g/m*3 -3.1 C 0 km/h
1507 27-11-2010 22:00:00 -3.36 C 3.3 g/m*3 -3.36 C 0 km/h
1508 27-11-2010 23:00:00 -3.22 C 3.31 g/m*3 -3.22 C 0 km/h
1509 28-11-2010 00:00:00 -3.76 C 3.2 g/m*3 -3.76 C 0 km/h
1510 28-11-2010 01:00:00 -2.76 C 3.5 g/m*3 -2.76 C 0 km/h
1511 28-11-2010 02:00:00 -2.18 C 3.6 g/m*3 -2.18 C 0 km/h
1512 28-11-2010 03:00:00 -3.4 C 3.22 g/m*3 -3.4 C 0 km/h
1513 28-11-2010 04:00:00 -2.64 C 3.47 g/m*3 -2.64 C 0 km/h
1514 28-11-2010 05:00:00 -2.72 C 3.42 g/m*3 -2.72 C 0 km/h
1515 28-11-2010 06:00:00 -2.18 C 3.56 g/m*3 -2.18 C 0 km/h
1516 28-11-2010 07:00:00 -1.88 C 3.58 g/m*3 -1.88 C 0 km/h
1517 28-11-2010 08:00:00 -1.66 C 3.6 g/m*3 -1.66 C 0 km/h
1518 28-11-2010 09:00:00 -1.18 C 3.62 g/m*3 -1.18 C 0 km/h
1519 28-11-2010 10:00:00 -0.38 C 3.63 g/m*3 -0.38 C 0 km/h
1520 28-11-2010 11:00:00 -0.18 C 3.55 g/m*3 -0.18 C 0 km/h
1521 28-11-2010 12:00:00 0.02 C 3.59 g/m*3 0.02 C 0 km/h
1522 28-11-2010 13:00:00 0.14 C 3.63 g/m*3 0.14 C 0 km/h
1523 28-11-2010 14:00:00 0.5 C 3.69 g/m*3 0.5 C 0 km/h
1524 28-11-2010 15:00:00 0.54 C 3.71 g/m*3 0.54 C 0 km/h
1525 28-11-2010 16:00:00 -0.34 C 3.68 g/m*3 -0.34 C 0 km/h
Sensor: Nr:Datum:Temp:Abs-Feuchte:Windchill:Wind:
Aussen-T/F 1526 28-11-2010 17:00:00 -0.64 C 3.67 g/m*3 -0.64 C 0 km/h
1527 28-11-2010 18:00:00 -1.1 C 3.71 g/m*3 -1.1 C 0 km/h
1528 28-11-2010 19:00:00 -0.7 C 3.7 g/m*3 -0.7 C 0 km/h
1529 28-11-2010 20:00:00 -0.8 C 3.55 g/m*3 -0.8 C 0 km/h
1530 28-11-2010 21:00:00 -0.86 C 3.46 g/m*3 -0.86 C 0 km/h
1531 28-11-2010 22:00:00 -1.6 C 3.36 g/m*3 -1.6 C 0 km/h
1532 28-11-2010 23:00:00 -2.04 C 3.42 g/m*3 -2.04 C 0 km/h
1533 29-11-2010 00:00:00 -1.48 C 3.37 g/m*3 -1.48 C 0 km/h
1534 29-11-2010 01:00:00 -1.8 C 3.31 g/m*3 -1.8 C 0 km/h
1535 29-11-2010 02:00:00 -1.88 C 3.26 g/m*3 -1.88 C 0 km/h
1536 29-11-2010 03:00:00 -2 C 3.21 g/m*3 -2 C 0 km/h
1537 29-11-2010 04:00:00 -2 C 3.22 g/m*3 -2 C 0 km/h
1538 29-11-2010 05:00:00 -1.82 C 3.27 g/m*3 -1.82 C 0 km/h
1539 29-11-2010 06:00:00 -1.68 C 3.31 g/m*3 -1.68 C 0 km/h
1540 29-11-2010 07:00:00 -1.66 C 3.29 g/m*3 -1.66 C 0 km/h
1541 29-11-2010 08:00:00 -1.6 C 3.33 g/m*3 -1.6 C 0 km/h
1542 29-11-2010 09:00:00 -1.38 C 3.3 g/m*3 -1.38 C 0 km/h
1543 29-11-2010 10:00:00 -1.3 C 3.37 g/m*3 -1.3 C 0 km/h
1544 29-11-2010 11:00:00 -1.22 C 3.45 g/m*3 -1.22 C 0 km/h
1545 29-11-2010 12:00:00 -1.14 C 3.52 g/m*3 -1.14 C 0 km/h
1546 29-11-2010 13:00:00 -0.84 C 3.57 g/m*3 -0.84 C 0 km/h
1547 29-11-2010 14:00:00 -1.02 C 3.67 g/m*3 -1.02 C 0 km/h
1548 29-11-2010 15:00:00 -1.3 C 3.72 g/m*3 -1.3 C 0 km/h
1549 29-11-2010 16:00:00 -1.46 C 3.73 g/m*3 -1.46 C 0 km/h
1550 29-11-2010 17:00:00 -1.68 C 3.71 g/m*3 -1.68 C 0 km/h
Sensor: Nr:Datum:Temp:Abs-Feuchte:Windchill:Wind:
Aussen-T/F 1551 29-11-2010 18:00:00 -1.68 C 3.75 g/m*3 -1.68 C 0 km/h
1552 29-11-2010 19:00:00 -1.7 C 3.75 g/m*3 -1.7 C 0 km/h
1553 29-11-2010 20:00:00 -1.64 C 3.8 g/m*3 -1.64 C 0 km/h
1554 29-11-2010 21:00:00 -1.66 C 3.8 g/m*3 -1.66 C 0 km/h
1555 29-11-2010 22:00:00 -1.78 C 3.77 g/m*3 -1.78 C 0 km/h
1556 29-11-2010 23:00:00 -1.68 C 3.83 g/m*3 -1.68 C 0 km/h
1557 30-11-2010 00:00:00 -1.78 C 3.81 g/m*3 -1.78 C 0 km/h
1558 30-11-2010 01:00:00 -1.96 C 3.76 g/m*3 -1.96 C 0 km/h
1559 30-11-2010 02:00:00 -1.68 C 3.84 g/m*3 -1.68 C 0 km/h
1560 30-11-2010 03:00:00 -1.7 C 3.82 g/m*3 -1.7 C 0 km/h
1561 30-11-2010 04:00:00 -2.36 C 3.62 g/m*3 -2.36 C 0 km/h
1562 30-11-2010 05:00:00 -2.4 C 3.62 g/m*3 -2.4 C 0 km/h
1563 30-11-2010 06:00:00 -2.26 C 3.66 g/m*3 -2.26 C 0 km/h
1564 30-11-2010 07:00:00 -2.28 C 3.66 g/m*3 -2.28 C 0 km/h
1565 30-11-2010 08:00:00 -2.08 C 3.66 g/m*3 -2.08 C 0 km/h
1566 30-11-2010 09:00:00 -2 C 3.58 g/m*3 -2 C 0 km/h
1567 30-11-2010 10:00:00 -1.82 C 3.51 g/m*3 -1.82 C 0 km/h
1568 30-11-2010 11:00:00 -1.5 C 3.44 g/m*3 -1.5 C 0 km/h
1569 30-11-2010 12:00:00 -1.3 C 3.28 g/m*3 -1.3 C 0 km/h
1570 30-11-2010 13:00:00 -1.08 C 3.25 g/m*3 -1.08 C 0 km/h
1571 30-11-2010 14:00:00 -1.32 C 3.2 g/m*3 -1.32 C 0 km/h
1572 30-11-2010 15:00:00 -1.48 C 3.23 g/m*3 -1.48 C 0 km/h
1573 30-11-2010 16:00:00 -1.5 C 3.23 g/m*3 -1.5 C 0 km/h
1574 30-11-2010 17:00:00 -1.92 C 3.21 g/m*3 -1.92 C 0 km/h
1575 30-11-2010 18:00:00 -2.1 C 3.18 g/m*3 -2.1 C 0 km/h
Sensor: Nr:Datum:Temp:Abs-Feuchte:Windchill:Wind:
Aussen-T/F 1576 30-11-2010 19:00:00 -2.1 C 3.17 g/m*3 -2.1 C 0 km/h
1577 30-11-2010 20:00:00 -2.26 C 3.11 g/m*3 -2.26 C 0 km/h
1578 30-11-2010 21:00:00 -2.4 C 3.05 g/m*3 -2.4 C 0 km/h
1579 30-11-2010 22:00:00 -2.58 C 2.94 g/m*3 -2.58 C 0 km/h
1580 30-11-2010 23:00:00 -2.76 C 2.83 g/m*3 -2.76 C 0 km/h
1581 01-12-2010 00:00:00 -3 C 2.76 g/m*3 -3 C 0 km/h
1582 01-12-2010 01:00:00 -3.3 C 2.67 g/m*3 -3.3 C 0 km/h
1583 01-12-2010 02:00:00 -3.88 C 2.51 g/m*3 -3.88 C 0 km/h
1584 01-12-2010 03:00:00 -4.34 C 2.36 g/m*3 -4.34 C 0 km/h
1585 01-12-2010 04:00:00 -5 C 2.23 g/m*3 -5 C 0 km/h
1586 01-12-2010 05:00:00 -5.4 C 2.18 g/m*3 -5.4 C 0 km/h
1587 01-12-2010 06:00:00 -5.56 C 2.14 g/m*3 -5.56 C 0 km/h
1588 01-12-2010 07:00:00 -5.9 C 2.05 g/m*3 -5.9 C 0 km/h
1589 01-12-2010 08:00:00 -6.26 C 1.95 g/m*3 -6.26 C 0 km/h
1590 01-12-2010 09:00:00 -5.96 C 1.92 g/m*3 -5.96 C 0 km/h
1591 01-12-2010 10:00:00 -5.54 C 1.95 g/m*3 -5.54 C 0 km/h
1592 01-12-2010 11:00:00 -5.48 C 1.97 g/m*3 -5.48 C 0 km/h
1593 01-12-2010 12:00:00 -5.82 C 1.93 g/m*3 -5.82 C 0 km/h
1594 01-12-2010 13:00:00 -6.1 C 1.85 g/m*3 -6.1 C 0 km/h
1595 01-12-2010 14:00:00 -6.18 C 1.79 g/m*3 -6.18 C 0 km/h
1596 01-12-2010 15:00:00 -6.28 C 1.78 g/m*3 -6.28 C 0 km/h
1597 01-12-2010 16:00:00 -6.58 C 1.75 g/m*3 -6.58 C 0 km/h
1598 01-12-2010 17:00:00 -6.58 C 1.8 g/m*3 -6.58 C 0 km/h
1599 01-12-2010 18:00:00 -6.54 C 1.82 g/m*3 -6.54 C 0 km/h
1600 01-12-2010 19:00:00 -6.58 C 1.81 g/m*3 -6.58 C 0 km/h
Sensor: Nr:Datum:Temp:Abs-Feuchte:Windchill:Wind:
Aussen-T/F 1601 01-12-2010 20:00:00 -6.64 C 1.77 g/m*3 -6.64 C 0 km/h
1602 01-12-2010 21:00:00 -6.74 C 1.74 g/m*3 -6.74 C 0 km/h
1603 01-12-2010 22:00:00 -6.86 C 1.73 g/m*3 -6.86 C 0 km/h
1604 01-12-2010 23:00:00 -7.06 C 1.77 g/m*3 -7.06 C 0 km/h
1605 02-12-2010 00:00:00 -7.14 C 1.81 g/m*3 -7.14 C 0 km/h
1606 02-12-2010 01:00:00 -7.12 C 1.79 g/m*3 -7.12 C 0 km/h
1607 02-12-2010 02:00:00 -7.28 C 1.71 g/m*3 -7.28 C 0 km/h
1608 02-12-2010 03:00:00 -7.32 C 1.74 g/m*3 -7.32 C 0 km/h
1609 02-12-2010 04:00:00 -7.5 C 1.78 g/m*3 -7.5 C 0 km/h
1610 02-12-2010 05:00:00 -7.64 C 1.79 g/m*3 -7.64 C 0 km/h
1611 02-12-2010 06:00:00 -7.76 C 1.84 g/m*3 -7.76 C 0 km/h
1612 02-12-2010 07:00:00 -7.72 C 1.89 g/m*3 -7.72 C 0 km/h
1613 02-12-2010 08:00:00 -7.7 C 1.87 g/m*3 -7.7 C 0 km/h
1614 02-12-2010 09:00:00 -7.1 C 1.96 g/m*3 -7.1 C 0 km/h
1615 02-12-2010 10:00:00 -6.14 C 1.99 g/m*3 -6.14 C 0 km/h
1616 02-12-2010 11:00:00 -5.62 C 2.03 g/m*3 -5.62 C 0 km/h
1617 02-12-2010 12:00:00 -6.08 C 2.05 g/m*3 -6.08 C 0 km/h
1618 02-12-2010 13:00:00 -5.3 C 2.15 g/m*3 -5.3 C 0 km/h
1619 02-12-2010 14:00:00 -5.6 C 2.16 g/m*3 -5.6 C 0 km/h
1620 02-12-2010 15:00:00 -4.74 C 2.28 g/m*3 -4.74 C 0 km/h
1621 02-12-2010 16:00:00 -5.12 C 2.3 g/m*3 -5.12 C 0 km/h
1622 02-12-2010 17:00:00 -7.36 C 2.12 g/m*3 -7.36 C 0 km/h
1623 02-12-2010 18:00:00 -8.02 C 2.2 g/m*3 -8.02 C 0 km/h
1624 02-12-2010 19:00:00 -8.42 C 2.16 g/m*3 -8.42 C 0 km/h
1625 02-12-2010 20:00:00 -8.04 C 2.25 g/m*3 -8.04 C 0 km/h
Sensor: Nr:Datum:Temp:Abs-Feuchte:Windchill:Wind:
Aussen-T/F 1626 02-12-2010 21:00:00 -7.54 C 2.33 g/m*3 -7.54 C 0 km/h
1627 02-12-2010 22:00:00 -8.54 C 2.13 g/m*3 -8.54 C 0 km/h
1628 02-12-2010 23:00:00 -7.96 C 2.23 g/m*3 -7.96 C 0 km/h
1629 03-12-2010 00:00:00 -9.88 C 1.86 g/m*3 -9.88 C 0 km/h
1630 03-12-2010 01:00:00 -9.66 C 1.91 g/m*3 -9.66 C 0 km/h
1631 03-12-2010 02:00:00 -9.12 C 2 g/m*3 -9.12 C 0 km/h
1632 03-12-2010 03:00:00 -8.78 C 2.04 g/m*3 -8.78 C 0 km/h
1633 03-12-2010 04:00:00 -8.06 C 2.15 g/m*3 -8.06 C 0 km/h
1634 03-12-2010 05:00:00 -8.68 C 2.03 g/m*3 -8.68 C 0 km/h
1635 03-12-2010 06:00:00 -9.48 C 1.91 g/m*3 -9.48 C 0 km/h
1636 03-12-2010 07:00:00 -8.92 C 2.03 g/m*3 -8.92 C 0 km/h
1637 03-12-2010 08:00:00 -9.92 C 1.85 g/m*3 -9.92 C 0 km/h
1638 03-12-2010 09:00:00 -9.8 C 1.85 g/m*3 -9.8 C 0 km/h
1639 03-12-2010 10:00:00 -8.1 C 2.05 g/m*3 -8.1 C 0 km/h
1640 03-12-2010 11:00:00 -6.32 C 2.23 g/m*3 -6.32 C 0 km/h
1641 03-12-2010 12:00:00 -5.16 C 2.28 g/m*3 -5.16 C 0 km/h
1642 03-12-2010 13:00:00 -4.74 C 2.32 g/m*3 -4.74 C 0 km/h
1643 03-12-2010 14:00:00 -4.26 C 2.38 g/m*3 -4.26 C 0 km/h
1644 03-12-2010 15:00:00 -4.68 C 2.4 g/m*3 -4.68 C 0 km/h
1645 03-12-2010 16:00:00 -6.18 C 2.37 g/m*3 -6.18 C 0 km/h
1646 03-12-2010 17:00:00 -6.98 C 2.34 g/m*3 -6.98 C 0 km/h
1647 03-12-2010 18:00:00 -7.02 C 2.36 g/m*3 -7.02 C 0 km/h
1648 03-12-2010 19:00:00 -5.74 C 2.63 g/m*3 -5.74 C 0 km/h
1649 03-12-2010 20:00:00 -5.36 C 2.64 g/m*3 -5.36 C 0 km/h
1650 03-12-2010 21:00:00 -5.72 C 2.55 g/m*3 -5.72 C 0 km/h
Sensor: Nr:Datum:Temp:Abs-Feuchte:Windchill:Wind:
Aussen-T/F 1651 03-12-2010 22:00:00 -6.78 C 2.39 g/m*3 -6.78 C 0 km/h
1652 03-12-2010 23:00:00 -7.92 C 2.24 g/m*3 -7.92 C 0 km/h
1653 04-12-2010 00:00:00 -8.5 C 2.17 g/m*3 -8.5 C 0 km/h
1654 04-12-2010 01:00:00 -9.1 C 2.06 g/m*3 -9.1 C 0 km/h
1655 04-12-2010 02:00:00 -9.26 C 2.02 g/m*3 -9.26 C 0 km/h
1656 04-12-2010 03:00:00 -9.94 C 1.9 g/m*3 -9.94 C 0 km/h
1657 04-12-2010 04:00:00 -7.96 C 2.24 g/m*3 -7.96 C 0 km/h
1658 04-12-2010 05:00:00 -5.52 C 2.67 g/m*3 -5.52 C 0 km/h
1659 04-12-2010 06:00:00 -4.94 C 2.59 g/m*3 -4.94 C 0 km/h
1660 04-12-2010 07:00:00 -5.14 C 2.58 g/m*3 -5.14 C 0 km/h
1661 04-12-2010 08:00:00 -3.94 C 2.67 g/m*3 -3.94 C 0 km/h
1662 04-12-2010 09:00:00 -3.1 C 2.58 g/m*3 -3.1 C 0 km/h
1663 04-12-2010 10:00:00 -2.12 C 2.68 g/m*3 -2.12 C 0 km/h
1664 04-12-2010 11:00:00 -1.38 C 2.45 g/m*3 -1.38 C 0 km/h
1665 04-12-2010 12:00:00 -0.86 C 2.46 g/m*3 -0.86 C 0 km/h
1666 04-12-2010 13:00:00 -1.4 C 2.41 g/m*3 -1.4 C 0 km/h
1667 04-12-2010 14:00:00 -1 C 2.47 g/m*3 -1 C 0 km/h
1668 04-12-2010 15:00:00 -0.92 C 2.52 g/m*3 -0.92 C 0 km/h
1669 04-12-2010 16:00:00 -1.22 C 2.64 g/m*3 -1.22 C 0 km/h
1670 04-12-2010 17:00:00 -1.08 C 2.76 g/m*3 -1.08 C 0 km/h
1671 04-12-2010 18:00:00 -0.9 C 2.79 g/m*3 -0.9 C 0 km/h
1672 04-12-2010 19:00:00 -0.92 C 2.79 g/m*3 -0.92 C 0 km/h
1673 04-12-2010 20:00:00 -0.96 C 2.87 g/m*3 -0.96 C 0 km/h
1674 04-12-2010 21:00:00 -1.1 C 3.13 g/m*3 -1.1 C 0 km/h
1675 04-12-2010 22:00:00 -1.18 C 3.46 g/m*3 -1.18 C 0 km/h
Sensor: Nr:Datum:Temp:Abs-Feuchte:Windchill:Wind:
Aussen-T/F 1676 04-12-2010 23:00:00 -1.12 C 3.51 g/m*3 -1.12 C 0 km/h
1677 05-12-2010 00:00:00 -0.5 C 3.48 g/m*3 -0.5 C 0 km/h
1678 05-12-2010 01:00:00 0.12 C 3.31 g/m*3 0.12 C 0 km/h
1679 05-12-2010 02:00:00 0.02 C 3.49 g/m*3 0.02 C 0 km/h
1680 05-12-2010 03:00:00 0.12 C 3.53 g/m*3 0.12 C 0 km/h
1681 05-12-2010 04:00:00 0.12 C 3.58 g/m*3 0.12 C 0 km/h
1682 05-12-2010 05:00:00 0.22 C 3.25 g/m*3 0.22 C 0 km/h
1683 05-12-2010 06:00:00 0.22 C 3.02 g/m*3 0.22 C 0 km/h
1684 05-12-2010 07:00:00 -0.08 C 2.91 g/m*3 -0.08 C 0 km/h
1685 05-12-2010 08:00:00 -0.32 C 2.9 g/m*3 -0.32 C 0 km/h
1686 05-12-2010 09:00:00 0.02 C 2.96 g/m*3 0.02 C 0 km/h
1687 05-12-2010 10:00:00 1.68 C 2.83 g/m*3 1.68 C 0 km/h
1688 05-12-2010 11:00:00 2.54 C 2.77 g/m*3 2.54 C 0 km/h
1689 05-12-2010 12:00:00 3.1 C 2.67 g/m*3 3.1 C 0 km/h
1690 05-12-2010 13:00:00 3.4 C 2.63 g/m*3 3.4 C 0 km/h
1691 05-12-2010 14:00:00 3.24 C 2.6 g/m*3 3.24 C 0 km/h
1692 05-12-2010 15:00:00 2.22 C 3.05 g/m*3 2.22 C 0 km/h
1693 05-12-2010 16:00:00 1.24 C 3.28 g/m*3 1.24 C 0 km/h
1694 05-12-2010 17:00:00 1.38 C 3.4 g/m*3 1.38 C 0 km/h
1695 05-12-2010 18:00:00 0.88 C 3.81 g/m*3 0.88 C 0 km/h
1696 05-12-2010 19:00:00 0.86 C 3.97 g/m*3 0.86 C 0 km/h
1697 05-12-2010 20:00:00 0.62 C 4.08 g/m*3 0.62 C 0 km/h
1698 05-12-2010 21:00:00 0.34 C 4.27 g/m*3 0.34 C 0 km/h
1699 05-12-2010 22:00:00 0.36 C 4.35 g/m*3 0.36 C 0 km/h
1700 05-12-2010 23:00:00 0.2 C 4.33 g/m*3 0.2 C 0 km/h
Sensor: Nr:Datum:Temp:Abs-Feuchte:Windchill:Wind:
Aussen-T/F 1701 06-12-2010 00:00:00 0.12 C 4.35 g/m*3 0.12 C 0 km/h
1702 06-12-2010 01:00:00 0.12 C 4.38 g/m*3 0.12 C 0 km/h
1703 06-12-2010 02:00:00 0.1 C 4.39 g/m*3 0.1 C 0 km/h
1704 06-12-2010 03:00:00 0.1 C 4.35 g/m*3 0.1 C 0 km/h
1705 06-12-2010 04:00:00 0.14 C 4.38 g/m*3 0.14 C 0 km/h
1706 06-12-2010 05:00:00 0.04 C 4.33 g/m*3 0.04 C 0 km/h
1707 06-12-2010 06:00:00 0.02 C 4.37 g/m*3 0.02 C 0 km/h
1708 06-12-2010 07:00:00 0 C 4.34 g/m*3 0 C 0 km/h
1709 06-12-2010 08:00:00 0.06 C 4.31 g/m*3 0.06 C 0 km/h
1710 06-12-2010 09:00:00 0.84 C 4.37 g/m*3 0.84 C 0 km/h
1711 06-12-2010 10:00:00 1.38 C 4.04 g/m*3 1.38 C 0 km/h
1712 06-12-2010 11:00:00 1.88 C 3.94 g/m*3 1.88 C 0 km/h
1713 06-12-2010 12:00:00 2.4 C 3.76 g/m*3 2.4 C 0 km/h
1714 06-12-2010 13:00:00 2.54 C 3.68 g/m*3 2.54 C 0 km/h
1715 06-12-2010 14:00:00 1.9 C 3.59 g/m*3 1.9 C 0 km/h
1716 06-12-2010 15:00:00 0.96 C 3.65 g/m*3 0.96 C 0 km/h
1717 06-12-2010 16:00:00 -0.26 C 3.69 g/m*3 -0.26 C 0 km/h
1718 06-12-2010 17:00:00 -0.68 C 3.73 g/m*3 -0.68 C 0 km/h
1719 06-12-2010 18:00:00 -0.9 C 3.76 g/m*3 -0.9 C 0 km/h
1720 06-12-2010 19:00:00 -0.84 C 3.75 g/m*3 -0.84 C 0 km/h
1721 06-12-2010 20:00:00 -1.14 C 3.67 g/m*3 -1.14 C 0 km/h
1722 06-12-2010 21:00:00 -1.275 C 3.64 g/m*3 -1.27 C 0 km/h
1723 06-12-2010 22:00:00 -1.24 C 3.68 g/m*3 -1.24 C 0 km/h
1724 06-12-2010 23:00:00 -0.68 C 3.74 g/m*3 -0.68 C 0 km/h
1725 07-12-2010 00:00:00 -1.06 C 3.6 g/m*3 -1.06 C 0 km/h
Sensor: Nr:Datum:Temp:Abs-Feuchte:Windchill:Wind:
Aussen-T/F 1726 07-12-2010 01:00:00 -1.16 C 3.68 g/m*3 -1.16 C 0 km/h
1727 07-12-2010 02:00:00 -0.56 C 3.77 g/m*3 -0.56 C 0 km/h
1728 07-12-2010 03:00:00 -0.56 C 3.73 g/m*3 -0.56 C 0 km/h
1729 07-12-2010 04:00:00 -0.74 C 3.7 g/m*3 -0.74 C 0 km/h
1730 07-12-2010 05:00:00 -0.94 C 3.68 g/m*3 -0.94 C 0 km/h
1731 07-12-2010 06:00:00 -0.78 C 3.68 g/m*3 -0.78 C 0 km/h
1732 07-12-2010 07:00:00 -1 C 3.57 g/m*3 -1 C 0 km/h
1733 07-12-2010 08:00:00 -0.84 C 3.6 g/m*3 -0.84 C 0 km/h
1734 07-12-2010 09:00:00 -0.4 C 3.61 g/m*3 -0.4 C 0 km/h
1735 07-12-2010 10:00:00 0.18 C 3.6 g/m*3 0.18 C 0 km/h
1736 07-12-2010 11:00:00 0.56 C 3.61 g/m*3 0.56 C 0 km/h
1737 07-12-2010 12:00:00 1.12 C 3.63 g/m*3 1.12 C 0 km/h
1738 07-12-2010 13:00:00 1.44 C 3.61 g/m*3 1.44 C 0 km/h
1739 07-12-2010 14:00:00 1.06 C 3.67 g/m*3 1.06 C 0 km/h
1740 07-12-2010 15:00:00 0.4 C 3.81 g/m*3 0.4 C 0 km/h
1741 07-12-2010 16:00:00 -0.22 C 4.06 g/m*3 -0.22 C 0 km/h
1742 07-12-2010 17:00:00 -0.3 C 4.2 g/m*3 -0.3 C 0 km/h
1743 07-12-2010 18:00:00 -0.26 C 4.26 g/m*3 -0.26 C 0 km/h
1744 07-12-2010 19:00:00 -0.2 C 4.31 g/m*3 -0.2 C 0 km/h
1745 07-12-2010 20:00:00 -0.16 C 4.36 g/m*3 -0.16 C 0 km/h
1746 07-12-2010 21:00:00 -0.2 C 4.36 g/m*3 -0.2 C 0 km/h
1747 07-12-2010 22:00:00 -0.18 C 4.4 g/m*3 -0.18 C 0 km/h
1748 07-12-2010 23:00:00 -0.2 C 4.4 g/m*3 -0.2 C 0 km/h
1749 08-12-2010 00:00:00 -0.2 C 4.4 g/m*3 -0.2 C 0 km/h
1750 08-12-2010 01:00:00 -0.2 C 4.4 g/m*3 -0.2 C 0 km/h
Sensor: Nr:Datum:Temp:Abs-Feuchte:Windchill:Wind:
Aussen-T/F 1751 08-12-2010 02:00:00 -0.16 C 4.41 g/m*3 -0.16 C 0 km/h
1752 08-12-2010 03:00:00 -0.18 C 4.4 g/m*3 -0.18 C 0 km/h
1753 08-12-2010 04:00:00 -0.08 C 4.43 g/m*3 -0.08 C 0 km/h
1754 08-12-2010 05:00:00 -0.08 C 4.46 g/m*3 -0.08 C 0 km/h
1755 08-12-2010 06:00:00 -0.06 C 4.49 g/m*3 -0.06 C 0 km/h
1756 08-12-2010 07:00:00 -0.02 C 4.5 g/m*3 -0.02 C 0 km/h
1757 08-12-2010 08:00:00 0 C 4.51 g/m*3 0 C 0 km/h
1758 08-12-2010 09:00:00 0.08 C 4.53 g/m*3 0.08 C 0 km/h
1759 08-12-2010 10:00:00 0.18 C 4.56 g/m*3 0.18 C 0 km/h
1760 08-12-2010 11:00:00 0.34 C 4.63 g/m*3 0.34 C 0 km/h
1761 08-12-2010 12:00:00 0.56 C 4.67 g/m*3 0.56 C 0 km/h
1762 08-12-2010 13:00:00 0.62 C 4.58 g/m*3 0.62 C 0 km/h
1763 08-12-2010 14:00:00 0.42 C 4.44 g/m*3 0.42 C 0 km/h
1764 08-12-2010 15:00:00 -0.08 C 4.29 g/m*3 -0.08 C 0 km/h
1765 08-12-2010 16:00:00 -0.3 C 4.26 g/m*3 -0.3 C 0 km/h
1766 08-12-2010 17:00:00 -0.36 C 4.24 g/m*3 -0.36 C 0 km/h
1767 08-12-2010 18:00:00 -0.74 C 4.1 g/m*3 -0.74 C 0 km/h
1768 08-12-2010 19:00:00 -0.92 C 4.05 g/m*3 -0.92 C 0 km/h
1769 08-12-2010 20:00:00 -1.06 C 4.02 g/m*3 -1.06 C 0 km/h
1770 08-12-2010 21:00:00 -1.24 C 3.94 g/m*3 -1.24 C 0 km/h
1771 08-12-2010 22:00:00 -1.44 C 3.82 g/m*3 -1.44 C 0 km/h
1772 08-12-2010 23:00:00 -1.3 C 3.74 g/m*3 -1.3 C 0 km/h
1773 09-12-2010 00:00:00 -1.32 C 3.64 g/m*3 -1.32 C 0 km/h
1774 09-12-2010 01:00:00 -1.52 C 3.56 g/m*3 -1.52 C 0 km/h
1775 09-12-2010 02:00:00 -1.74 C 3.55 g/m*3 -1.74 C 0 km/h
Sensor: Nr:Datum:Temp:Abs-Feuchte:Windchill:Wind:
Aussen-T/F 1776 09-12-2010 03:00:00 -1.7 C 3.69 g/m*3 -1.7 C 0 km/h
1777 09-12-2010 04:00:00 -1.62 C 3.72 g/m*3 -1.62 C 0 km/h
1778 09-12-2010 05:00:00 -1.04 C 3.84 g/m*3 -1.04 C 0 km/h
1779 09-12-2010 06:00:00 -0.42 C 3.9 g/m*3 -0.42 C 0 km/h
1780 09-12-2010 07:00:00 -0.28 C 3.95 g/m*3 -0.28 C 0 km/h
1781 09-12-2010 08:00:00 -0.38 C 3.91 g/m*3 -0.38 C 0 km/h
1782 09-12-2010 09:00:00 -0.08 C 3.93 g/m*3 -0.08 C 0 km/h
1783 09-12-2010 10:00:00 0.32 C 4 g/m*3 0.32 C 0 km/h
1784 09-12-2010 11:00:00 0.8 C 4.06 g/m*3 0.8 C 0 km/h
1785 09-12-2010 12:00:00 2.18 C 4.07 g/m*3 2.18 C 0 km/h
1786 09-12-2010 13:00:00 1.74 C 4.11 g/m*3 1.74 C 0 km/h
1787 09-12-2010 14:00:00 2.12 C 3.92 g/m*3 2.12 C 0 km/h
1788 09-12-2010 15:00:00 1.84 C 3.75 g/m*3 1.84 C 0 km/h
1789 09-12-2010 16:00:00 1.52 C 3.66 g/m*3 1.52 C 0 km/h
1790 09-12-2010 17:00:00 1.5 C 3.89 g/m*3 1.5 C 0 km/h
1791 09-12-2010 18:00:00 1.68 C 4.03 g/m*3 1.68 C 0 km/h
1792 09-12-2010 19:00:00 2.16 C 3.9 g/m*3 2.16 C 0 km/h
1793 09-12-2010 20:00:00 2.44 C 4 g/m*3 2.44 C 0 km/h
1794 09-12-2010 21:00:00 2.58 C 4.06 g/m*3 2.58 C 0 km/h
1795 09-12-2010 22:00:00 2.44 C 4.16 g/m*3 2.44 C 0 km/h
1796 09-12-2010 23:00:00 1.5 C 4.43 g/m*3 1.5 C 0 km/h
1797 10-12-2010 00:00:00 1.9 C 4.42 g/m*3 1.9 C 0 km/h
1798 10-12-2010 01:00:00 2.04 C 4.36 g/m*3 2.04 C 0 km/h
1799 10-12-2010 02:00:00 1.7 C 4.26 g/m*3 1.7 C 0 km/h
1800 10-12-2010 03:00:00 1.24 C 4.52 g/m*3 1.24 C 0 km/h
Sensor: Nr:Datum:Temp:Abs-Feuchte:Windchill:Wind:
Aussen-T/F 1801 10-12-2010 04:00:00 1.7 C 4.79 g/m*3 1.7 C 0 km/h
1802 10-12-2010 05:00:00 2.52 C 4.87 g/m*3 2.52 C 0 km/h
1803 10-12-2010 06:00:00 1.84 C 4.73 g/m*3 1.84 C 0 km/h
1804 10-12-2010 07:00:00 0.76 C 4.53 g/m*3 0.76 C 0 km/h
1805 10-12-2010 08:00:00 -0.32 C 4.28 g/m*3 -0.32 C 0 km/h
1806 10-12-2010 09:00:00 -0.4 C 4.3 g/m*3 -0.4 C 0 km/h
1807 10-12-2010 10:00:00 0.06 C 4.45 g/m*3 0.06 C 0 km/h
1808 10-12-2010 11:00:00 1.38 C 4.82 g/m*3 1.38 C 0 km/h
1809 10-12-2010 12:00:00 2.24 C 4.95 g/m*3 2.24 C 0 km/h
1810 10-12-2010 13:00:00 2.96 C 4.9 g/m*3 2.96 C 0 km/h
1811 10-12-2010 14:00:00 2.82 C 4.65 g/m*3 2.82 C 0 km/h
1812 10-12-2010 15:00:00 1.78 C 4.64 g/m*3 1.78 C 0 km/h
1813 10-12-2010 16:00:00 1.54 C 4.8 g/m*3 1.54 C 0 km/h
1814 10-12-2010 17:00:00 1.84 C 4.95 g/m*3 1.84 C 0 km/h
1815 10-12-2010 18:00:00 1.86 C 4.93 g/m*3 1.86 C 0 km/h
1816 10-12-2010 19:00:00 2.28 C 4.97 g/m*3 2.28 C 0 km/h
1817 10-12-2010 20:00:00 2.6 C 4.93 g/m*3 2.6 C 0 km/h
1818 10-12-2010 21:00:00 2.5 C 4.85 g/m*3 2.5 C 0 km/h
1819 10-12-2010 22:00:00 2.52 C 4.87 g/m*3 2.52 C 0 km/h
1820 10-12-2010 23:00:00 2.24 C 4.86 g/m*3 2.24 C 0 km/h
1821 11-12-2010 00:00:00 2.18 C 4.97 g/m*3 2.18 C 0 km/h
1822 11-12-2010 01:00:00 2.46 C 5.08 g/m*3 2.46 C 0 km/h
1823 11-12-2010 02:00:00 2.72 C 5.13 g/m*3 2.72 C 0 km/h
1824 11-12-2010 03:00:00 2.54 C 5.1 g/m*3 2.54 C 0 km/h
1825 11-12-2010 04:00:00 3.26 C 5.24 g/m*3 3.26 C 0 km/h
Sensor: Nr:Datum:Temp:Abs-Feuchte:Windchill:Wind:
Aussen-T/F 1826 11-12-2010 05:00:00 3.86 C 5.19 g/m*3 3.86 C 0 km/h
1827 11-12-2010 06:00:00 3.36 C 5.15 g/m*3 3.36 C 0 km/h
1828 11-12-2010 07:00:00 4.14 C 5.21 g/m*3 4.14 C 0 km/h
1829 11-12-2010 08:00:00 4.86 C 5.01 g/m*3 4.86 C 0 km/h
1830 11-12-2010 09:00:00 4.16 C 5.04 g/m*3 4.16 C 0 km/h
1831 11-12-2010 10:00:00 3.9 C 5.38 g/m*3 3.9 C 0 km/h
1832 11-12-2010 11:00:00 4.3 C 5.37 g/m*3 4.3 C 0 km/h
1833 11-12-2010 12:00:00 4.54 C 5.56 g/m*3 4.54 C 0 km/h
1834 11-12-2010 13:00:00 4.86 C 5.39 g/m*3 4.86 C 0 km/h
1835 11-12-2010 14:00:00 4.9 C 5.31 g/m*3 4.9 C 0 km/h
1836 11-12-2010 15:00:00 5.06 C 5.18 g/m*3 5.06 C 0 km/h
1837 11-12-2010 16:00:00 4.9 C 5.24 g/m*3 4.9 C 0 km/h
1838 11-12-2010 17:00:00 5.16 C 5.22 g/m*3 5.16 C 0 km/h
1839 11-12-2010 18:00:00 4.22 C 5.21 g/m*3 4.22 C 0 km/h
1840 11-12-2010 19:00:00 4.26 C 5.2 g/m*3 4.26 C 0 km/h
1841 11-12-2010 20:00:00 4.82 C 5.01 g/m*3 4.82 C 0 km/h
1842 11-12-2010 21:00:00 4.4 C 5.04 g/m*3 4.4 C 0 km/h
1843 11-12-2010 22:00:00 4.3 C 5.03 g/m*3 4.3 C 0 km/h
1844 11-12-2010 23:00:00 4.66 C 4.89 g/m*3 4.66 C 0 km/h
1845 12-12-2010 00:00:00 4.26 C 4.97 g/m*3 4.26 C 0 km/h
1846 12-12-2010 01:00:00 4.84 C 4.84 g/m*3 4.84 C 0 km/h
1847 12-12-2010 02:00:00 4.82 C 4.58 g/m*3 4.82 C 0 km/h
1848 12-12-2010 03:00:00 4.2 C 4.66 g/m*3 4.2 C 0 km/h
1849 12-12-2010 04:00:00 3.68 C 5.18 g/m*3 3.68 C 0 km/h
1850 12-12-2010 05:00:00 3.44 C 5.11 g/m*3 3.44 C 0 km/h
Sensor: Nr:Datum:Temp:Abs-Feuchte:Windchill:Wind:
Aussen-T/F 1851 12-12-2010 06:00:00 3.04 C 5.07 g/m*3 3.04 C 0 km/h
1852 12-12-2010 07:00:00 3.86 C 4.93 g/m*3 3.86 C 0 km/h
1853 12-12-2010 08:00:00 3.62 C 4.87 g/m*3 3.62 C 0 km/h
1854 12-12-2010 09:00:00 3.7 C 4.96 g/m*3 3.7 C 0 km/h
1855 12-12-2010 10:00:00 3.86 C 5.03 g/m*3 3.86 C 0 km/h
1856 12-12-2010 11:00:00 4.12 C 5.14 g/m*3 4.12 C 0 km/h
1857 12-12-2010 12:00:00 4.5 C 5.34 g/m*3 4.5 C 0 km/h
1858 12-12-2010 13:00:00 4.82 C 5.17 g/m*3 4.82 C 0 km/h
1859 12-12-2010 14:00:00 3.46 C 4.95 g/m*3 3.46 C 0 km/h
1860 12-12-2010 15:00:00 3.1 C 5.21 g/m*3 3.1 C 0 km/h
1861 12-12-2010 16:00:00 2.7 C 5.12 g/m*3 2.7 C 0 km/h
1862 12-12-2010 17:00:00 2.48 C 4.62 g/m*3 2.48 C 0 km/h
1863 12-12-2010 18:00:00 1.86 C 4.15 g/m*3 1.86 C 0 km/h
1864 12-12-2010 19:00:00 1.38 C 3.91 g/m*3 1.38 C 0 km/h
1865 12-12-2010 20:00:00 1.18 C 3.56 g/m*3 1.18 C 0 km/h
1866 12-12-2010 21:00:00 0.76 C 3.35 g/m*3 0.76 C 0 km/h
1867 12-12-2010 22:00:00 0.4 C 3.18 g/m*3 0.4 C 0 km/h
1868 12-12-2010 23:00:00 -0.04 C 2.73 g/m*3 -0.04 C 0 km/h
1869 13-12-2010 00:00:00 -0.52 C 2.5 g/m*3 -0.52 C 0 km/h
1870 13-12-2010 01:00:00 -0.84 C 2.45 g/m*3 -0.84 C 0 km/h
1871 13-12-2010 02:00:00 -2.28 C 2.3 g/m*3 -2.28 C 0 km/h
1872 13-12-2010 03:00:00 -3.5 C 2.27 g/m*3 -3.5 C 0 km/h
1873 13-12-2010 04:00:00 -4.2 C 2.29 g/m*3 -4.2 C 0 km/h
1874 13-12-2010 05:00:00 -5.8 C 2.22 g/m*3 -5.8 C 0 km/h
1875 13-12-2010 06:00:00 -6.94 C 2.21 g/m*3 -6.94 C 0 km/h
Sensor: Nr:Datum:Temp:Abs-Feuchte:Windchill:Wind:
Aussen-T/F 1876 13-12-2010 07:00:00 -7.2 C 2.22 g/m*3 -7.2 C 0 km/h
1877 13-12-2010 08:00:00 -7.18 C 2.27 g/m*3 -7.18 C 0 km/h
1878 13-12-2010 09:00:00 -7.12 C 2.29 g/m*3 -7.12 C 0 km/h
1879 13-12-2010 10:00:00 -6.62 C 2.4 g/m*3 -6.62 C 0 km/h
1880 13-12-2010 11:00:00 -4 C 2.63 g/m*3 -4 C 0 km/h
1881 13-12-2010 12:00:00 -2.78 C 2.52 g/m*3 -2.78 C 0 km/h
1882 13-12-2010 13:00:00 -2.32 C 2.5 g/m*3 -2.32 C 0 km/h
1883 13-12-2010 14:00:00 -2.2 C 2.39 g/m*3 -2.2 C 0 km/h
1884 13-12-2010 15:00:00 -3.66 C 2.47 g/m*3 -3.66 C 0 km/h
1885 13-12-2010 16:00:00 -4.98 C 2.58 g/m*3 -4.98 C 0 km/h
1886 13-12-2010 17:00:00 -5.88 C 2.5 g/m*3 -5.88 C 0 km/h
1887 13-12-2010 18:00:00 -6.2 C 2.48 g/m*3 -6.2 C 0 km/h
1888 13-12-2010 19:00:00 -5.44 C 2.72 g/m*3 -5.44 C 0 km/h
1889 13-12-2010 20:00:00 -4.86 C 2.8 g/m*3 -4.86 C 0 km/h
1890 13-12-2010 21:00:00 -4.22 C 2.82 g/m*3 -4.22 C 0 km/h
1891 13-12-2010 22:00:00 -3.92 C 2.86 g/m*3 -3.92 C 0 km/h
1892 13-12-2010 23:00:00 -4.1 C 3 g/m*3 -4.1 C 0 km/h
1893 14-12-2010 00:00:00 -4.1 C 3.02 g/m*3 -4.1 C 0 km/h
1894 14-12-2010 01:00:00 -4.06 C 3.03 g/m*3 -4.06 C 0 km/h
1895 14-12-2010 02:00:00 -3.84 C 3.07 g/m*3 -3.84 C 0 km/h
1896 14-12-2010 03:00:00 -3.66 C 3.11 g/m*3 -3.66 C 0 km/h
1897 14-12-2010 04:00:00 -3.62 C 3.09 g/m*3 -3.62 C 0 km/h
1898 14-12-2010 05:00:00 -3.8 C 3.04 g/m*3 -3.8 C 0 km/h
1899 14-12-2010 06:00:00 -4.7 C 2.87 g/m*3 -4.7 C 0 km/h
1900 14-12-2010 07:00:00 -6.22 C 2.59 g/m*3 -6.22 C 0 km/h
Sensor: Nr:Datum:Temp:Abs-Feuchte:Windchill:Wind:
Aussen-T/F 1901 14-12-2010 08:00:00 -6.38 C 2.62 g/m*3 -6.38 C 0 km/h
1902 14-12-2010 09:00:00 -6 C 2.69 g/m*3 -6 C 0 km/h
1903 14-12-2010 10:00:00 -4.06 C 3 g/m*3 -4.06 C 0 km/h
1904 14-12-2010 11:00:00 -3.24 C 2.75 g/m*3 -3.24 C 0 km/h
1905 14-12-2010 12:00:00 -2.42 C 2.66 g/m*3 -2.42 C 0 km/h
1906 14-12-2010 13:00:00 -2.2 C 2.64 g/m*3 -2.2 C 0 km/h
1907 14-12-2010 14:00:00 -2.44 C 2.66 g/m*3 -2.44 C 0 km/h
1908 14-12-2010 15:00:00 -2.76 C 2.7 g/m*3 -2.76 C 0 km/h
1909 14-12-2010 16:00:00 -2.9 C 2.8 g/m*3 -2.9 C 0 km/h
1910 14-12-2010 17:00:00 -2.98 C 2.91 g/m*3 -2.98 C 0 km/h
1911 14-12-2010 18:00:00 -3.06 C 2.78 g/m*3 -3.06 C 0 km/h
1912 14-12-2010 19:00:00 -2.82 C 2.84 g/m*3 -2.82 C 0 km/h
1913 14-12-2010 20:00:00 -3.04 C 2.74 g/m*3 -3.04 C 0 km/h
1914 14-12-2010 21:00:00 -3.12 C 2.64 g/m*3 -3.12 C 0 km/h
1915 14-12-2010 22:00:00 -3.16 C 2.58 g/m*3 -3.16 C 0 km/h
1916 14-12-2010 23:00:00 -3.22 C 2.51 g/m*3 -3.22 C 0 km/h
1917 15-12-2010 00:00:00 -3.3 C 2.5 g/m*3 -3.3 C 0 km/h
1918 15-12-2010 01:00:00 -3.26 C 2.57 g/m*3 -3.26 C 0 km/h
1919 15-12-2010 02:00:00 -4.16 C 2.54 g/m*3 -4.16 C 0 km/h
1920 15-12-2010 03:00:00 -4.9 C 2.5 g/m*3 -4.9 C 0 km/h
1921 15-12-2010 04:00:00 -4.86 C 2.54 g/m*3 -4.86 C 0 km/h
1922 15-12-2010 05:00:00 -4.72 C 2.63 g/m*3 -4.72 C 0 km/h
1923 15-12-2010 06:00:00 -3.78 C 2.71 g/m*3 -3.78 C 0 km/h
1924 15-12-2010 07:00:00 -3.42 C 2.81 g/m*3 -3.42 C 0 km/h
1925 15-12-2010 08:00:00 -3.3 C 2.88 g/m*3 -3.3 C 0 km/h
Sensor: Nr:Datum:Temp:Abs-Feuchte:Windchill:Wind:
Aussen-T/F 1926 15-12-2010 09:00:00 -2.56 C 3.02 g/m*3 -2.56 C 0 km/h
1927 15-12-2010 10:00:00 -1.76 C 3.22 g/m*3 -1.76 C 0 km/h
1928 15-12-2010 11:00:00 -0.68 C 3.51 g/m*3 -0.68 C 0 km/h
1929 15-12-2010 12:00:00 -0.48 C 3.47 g/m*3 -0.48 C 0 km/h
1930 15-12-2010 13:00:00 -0.38 C 3.56 g/m*3 -0.38 C 0 km/h
1931 15-12-2010 14:00:00 -0.12 C 3.36 g/m*3 -0.12 C 0 km/h
1932 15-12-2010 15:00:00 -1.44 C 2.8 g/m*3 -1.44 C 0 km/h
1933 15-12-2010 16:00:00 -3.2 C 2.7 g/m*3 -3.2 C 0 km/h
1934 15-12-2010 17:00:00 -4.34 C 2.74 g/m*3 -4.34 C 0 km/h
1935 15-12-2010 18:00:00 -4.86 C 2.77 g/m*3 -4.86 C 0 km/h
1936 15-12-2010 19:00:00 -4.42 C 2.86 g/m*3 -4.42 C 0 km/h
1937 15-12-2010 20:00:00 -3.62 C 2.83 g/m*3 -3.62 C 0 km/h
1938 15-12-2010 21:00:00 -3.18 C 2.77 g/m*3 -3.18 C 0 km/h
1939 15-12-2010 22:00:00 -3.78 C 2.76 g/m*3 -3.78 C 0 km/h
1940 15-12-2010 23:00:00 -4.54 C 2.76 g/m*3 -4.54 C 0 km/h
1941 16-12-2010 00:00:00 -4.68 C 2.85 g/m*3 -4.68 C 0 km/h
1942 16-12-2010 01:00:00 -4.84 C 2.87 g/m*3 -4.84 C 0 km/h
1943 16-12-2010 02:00:00 -5.3 C 2.73 g/m*3 -5.3 C 0 km/h
1944 16-12-2010 03:00:00 -5.36 C 2.75 g/m*3 -5.36 C 0 km/h
1945 16-12-2010 04:00:00 -5.58 C 2.66 g/m*3 -5.58 C 0 km/h
1946 16-12-2010 05:00:00 -6.4 C 2.41 g/m*3 -6.4 C 0 km/h
1947 16-12-2010 06:00:00 -7.54 C 2.25 g/m*3 -7.54 C 0 km/h
1948 16-12-2010 07:00:00 -8.28 C 2.11 g/m*3 -8.28 C 0 km/h
1949 16-12-2010 08:00:00 -7.86 C 2.18 g/m*3 -7.86 C 0 km/h
1950 16-12-2010 09:00:00 -6.6 C 2.26 g/m*3 -6.6 C 0 km/h
Sensor: Nr:Datum:Temp:Abs-Feuchte:Windchill:Wind:
Aussen-T/F 1951 16-12-2010 10:00:00 -4.84 C 2.47 g/m*3 -4.84 C 0 km/h
1952 16-12-2010 11:00:00 -3.42 C 2.65 g/m*3 -3.42 C 0 km/h
1953 16-12-2010 12:00:00 -2.84 C 2.8 g/m*3 -2.84 C 0 km/h
1954 16-12-2010 13:00:00 -2.12 C 2.99 g/m*3 -2.12 C 0 km/h
1955 16-12-2010 14:00:00 -1.72 C 3.2 g/m*3 -1.72 C 0 km/h
1956 16-12-2010 15:00:00 -1.4 C 3.45 g/m*3 -1.4 C 0 km/h
1957 16-12-2010 16:00:00 -1.3 C 3.43 g/m*3 -1.3 C 0 km/h
1958 16-12-2010 17:00:00 -1.26 C 3.47 g/m*3 -1.26 C 0 km/h
1959 16-12-2010 18:00:00 -0.7 C 3.61 g/m*3 -0.7 C 0 km/h
1960 16-12-2010 19:00:00 -0.28 C 3.67 g/m*3 -0.28 C 0 km/h
1961 16-12-2010 20:00:00 0.02 C 3.69 g/m*3 0.02 C 0 km/h
1962 16-12-2010 21:00:00 -0.12 C 3.79 g/m*3 -0.12 C 0 km/h
1963 16-12-2010 22:00:00 -0.34 C 3.88 g/m*3 -0.34 C 0 km/h
1964 16-12-2010 23:00:00 -0.46 C 3.84 g/m*3 -0.46 C 0 km/h
1965 17-12-2010 00:00:00 -0.28 C 3.85 g/m*3 -0.28 C 0 km/h
1966 17-12-2010 01:00:00 -0.34 C 3.88 g/m*3 -0.34 C 0 km/h
1967 17-12-2010 02:00:00 -0.58 C 3.62 g/m*3 -0.58 C 0 km/h
1968 17-12-2010 03:00:00 -1.2 C 3.36 g/m*3 -1.2 C 0 km/h
1969 17-12-2010 04:00:00 -1.28 C 3.16 g/m*3 -1.28 C 0 km/h
1970 17-12-2010 05:00:00 -1.62 C 3.26 g/m*3 -1.62 C 0 km/h
1971 17-12-2010 06:00:00 -2.24 C 2.97 g/m*3 -2.24 C 0 km/h
1972 17-12-2010 07:00:00 -2.28 C 2.65 g/m*3 -2.28 C 0 km/h
1973 17-12-2010 08:00:00 -2.22 C 3 g/m*3 -2.22 C 0 km/h
1974 17-12-2010 09:00:00 -1.92 C 3.01 g/m*3 -1.92 C 0 km/h
1975 17-12-2010 10:00:00 -1.66 C 2.95 g/m*3 -1.66 C 0 km/h
Sensor: Nr:Datum:Temp:Abs-Feuchte:Windchill:Wind:
Aussen-T/F 1976 17-12-2010 11:00:00 -1.2 C 2.74 g/m*3 -1.2 C 0 km/h
1977 17-12-2010 12:00:00 -1.14 C 2.52 g/m*3 -1.14 C 0 km/h
1978 17-12-2010 13:00:00 -1.22 C 2.43 g/m*3 -1.22 C 0 km/h
1979 17-12-2010 14:00:00 -1.4 C 2.66 g/m*3 -1.4 C 0 km/h
1980 17-12-2010 15:00:00 -1.82 C 2.98 g/m*3 -1.82 C 0 km/h
1981 17-12-2010 16:00:00 -2.08 C 3 g/m*3 -2.08 C 0 km/h
1982 17-12-2010 17:00:00 -4.06 C 2.8 g/m*3 -4.06 C 0 km/h
1983 17-12-2010 18:00:00 -5.22 C 2.69 g/m*3 -5.22 C 0 km/h
1984 17-12-2010 19:00:00 -6.48 C 2.51 g/m*3 -6.48 C 0 km/h
1985 17-12-2010 20:00:00 -6.58 C 2.52 g/m*3 -6.58 C 0 km/h
1986 17-12-2010 21:00:00 -6.94 C 2.44 g/m*3 -6.94 C 0 km/h
1987 17-12-2010 22:00:00 -6.92 C 2.44 g/m*3 -6.92 C 0 km/h
1988 17-12-2010 23:00:00 -5.9 C 2.66 g/m*3 -5.9 C 0 km/h
1989 18-12-2010 00:00:00 -4.74 C 2.93 g/m*3 -4.74 C 0 km/h
1990 18-12-2010 01:00:00 -4.44 C 2.9 g/m*3 -4.44 C 0 km/h
1991 18-12-2010 02:00:00 -5.28 C 2.7 g/m*3 -5.28 C 0 km/h
1992 18-12-2010 03:00:00 -4.36 C 2.87 g/m*3 -4.36 C 0 km/h
1993 18-12-2010 04:00:00 -4.36 C 2.94 g/m*3 -4.36 C 0 km/h
1994 18-12-2010 05:00:00 -4.44 C 2.98 g/m*3 -4.44 C 0 km/h
1995 18-12-2010 06:00:00 -4.34 C 3.01 g/m*3 -4.34 C 0 km/h
1996 18-12-2010 07:00:00 -5.26 C 2.81 g/m*3 -5.26 C 0 km/h
1997 18-12-2010 08:00:00 -5.34 C 2.8 g/m*3 -5.34 C 0 km/h
1998 18-12-2010 09:00:00 -4.84 C 2.73 g/m*3 -4.84 C 0 km/h
1999 18-12-2010 10:00:00 -3.82 C 2.68 g/m*3 -3.82 C 0 km/h
2000 18-12-2010 11:00:00 -3.48 C 2.59 g/m*3 -3.48 C 0 km/h
Sensor: Nr:Datum:Temp:Abs-Feuchte:Windchill:Wind:
Aussen-T/F 2001 18-12-2010 12:00:00 -3.28 C 2.46 g/m*3 -3.28 C 0 km/h
2002 18-12-2010 13:00:00 -2.96 C 2.36 g/m*3 -2.96 C 0 km/h
2003 18-12-2010 14:00:00 -3.84 C 2.29 g/m*3 -3.84 C 0 km/h
2004 18-12-2010 15:00:00 -5.48 C 2.31 g/m*3 -5.48 C 0 km/h
2005 18-12-2010 16:00:00 -7.06 C 2.27 g/m*3 -7.06 C 0 km/h
2006 18-12-2010 17:00:00 -7.56 C 2.29 g/m*3 -7.56 C 0 km/h
2007 18-12-2010 18:00:00 -6.74 C 2.48 g/m*3 -6.74 C 0 km/h
2008 18-12-2010 19:00:00 -5.34 C 2.79 g/m*3 -5.34 C 0 km/h
2009 18-12-2010 20:00:00 -4.36 C 2.97 g/m*3 -4.36 C 0 km/h
2010 18-12-2010 21:00:00 -3.98 C 3.05 g/m*3 -3.98 C 0 km/h
2011 18-12-2010 22:00:00 -3.42 C 3.2 g/m*3 -3.42 C 0 km/h
2012 18-12-2010 23:00:00 -3.08 C 3.28 g/m*3 -3.08 C 0 km/h
2013 19-12-2010 00:00:00 -2.56 C 3.41 g/m*3 -2.56 C 0 km/h
2014 19-12-2010 01:00:00 -2.44 C 3.53 g/m*3 -2.44 C 0 km/h
2015 19-12-2010 02:00:00 -2.5 C 3.54 g/m*3 -2.5 C 0 km/h
2016 19-12-2010 03:00:00 -2.7 C 3.49 g/m*3 -2.7 C 0 km/h
2017 19-12-2010 04:00:00 -2.46 C 3.55 g/m*3 -2.46 C 0 km/h
2018 19-12-2010 05:00:00 -1.02 C 3.67 g/m*3 -1.02 C 0 km/h
2019 19-12-2010 06:00:00 -1.64 C 3.24 g/m*3 -1.64 C 0 km/h
2020 19-12-2010 07:00:00 -2.58 C 3.19 g/m*3 -2.58 C 0 km/h
2021 19-12-2010 08:00:00 -2.5 C 3.2 g/m*3 -2.5 C 0 km/h
2022 19-12-2010 09:00:00 -2.04 C 3.37 g/m*3 -2.04 C 0 km/h
2023 19-12-2010 10:00:00 -0.94 C 3.41 g/m*3 -0.94 C 0 km/h
2024 19-12-2010 11:00:00 -0.38 C 3.56 g/m*3 -0.38 C 0 km/h
2025 19-12-2010 12:00:00 0.3 C 3.6 g/m*3 0.3 C 0 km/h
Sensor: Nr:Datum:Temp:Abs-Feuchte:Windchill:Wind:
Aussen-T/F 2026 19-12-2010 13:00:00 0.14 C 3.71 g/m*3 0.14 C 0 km/h
2027 19-12-2010 14:00:00 -0.18 C 3.94 g/m*3 -0.18 C 0 km/h
2028 19-12-2010 15:00:00 -0.4 C 4.08 g/m*3 -0.4 C 0 km/h
2029 19-12-2010 16:00:00 -0.3 C 4.23 g/m*3 -0.3 C 0 km/h
2030 19-12-2010 17:00:00 -0.2 C 4.33 g/m*3 -0.2 C 0 km/h
2031 19-12-2010 18:00:00 -0.18 C 4.36 g/m*3 -0.18 C 0 km/h
2032 19-12-2010 19:00:00 -0.04 C 4.45 g/m*3 -0.04 C 0 km/h
2033 19-12-2010 20:00:00 0.08 C 4.49 g/m*3 0.08 C 0 km/h
2034 19-12-2010 21:00:00 1.1 C 4.84 g/m*3 1.1 C 0 km/h
2035 19-12-2010 22:00:00 1.92 C 5.06 g/m*3 1.92 C 0 km/h
2036 19-12-2010 23:00:00 4.42 C 5.05 g/m*3 4.42 C 0 km/h
2037 20-12-2010 00:00:00 4.02 C 4.62 g/m*3 4.02 C 0 km/h
2038 20-12-2010 01:00:00 1.68 C 4.43 g/m*3 1.68 C 0 km/h
2039 20-12-2010 02:00:00 0.42 C 3.7 g/m*3 0.42 C 0 km/h
2040 20-12-2010 03:00:00 -0.08 C 3.63 g/m*3 -0.08 C 0 km/h
2041 20-12-2010 04:00:00 -0.44 C 3.67 g/m*3 -0.44 C 0 km/h
2042 20-12-2010 05:00:00 -1.02 C 3.56 g/m*3 -1.02 C 0 km/h
2043 20-12-2010 06:00:00 -1.66 C 3.46 g/m*3 -1.66 C 0 km/h
2044 20-12-2010 07:00:00 -2.6 C 3.38 g/m*3 -2.6 C 0 km/h
2045 20-12-2010 08:00:00 -2.42 C 3.54 g/m*3 -2.42 C 0 km/h
2046 20-12-2010 09:00:00 -1.8 C 3.59 g/m*3 -1.8 C 0 km/h
2047 20-12-2010 10:00:00 -1.22 C 3.33 g/m*3 -1.22 C 0 km/h
2048 20-12-2010 11:00:00 -0.8 C 3.28 g/m*3 -0.8 C 0 km/h
2049 20-12-2010 12:00:00 -1.06 C 3.27 g/m*3 -1.06 C 0 km/h
2050 20-12-2010 13:00:00 -0.92 C 3.28 g/m*3 -0.92 C 0 km/h
Sensor: Nr:Datum:Temp:Abs-Feuchte:Windchill:Wind:
Aussen-T/F 2051 20-12-2010 14:00:00 -0.98 C 3.26 g/m*3 -0.98 C 0 km/h
2052 20-12-2010 15:00:00 -1.08 C 3.26 g/m*3 -1.08 C 0 km/h
2053 20-12-2010 16:00:00 -3.04 C 3.05 g/m*3 -3.04 C 0 km/h
2054 20-12-2010 17:00:00 -3.52 C 3.23 g/m*3 -3.52 C 0 km/h
2055 20-12-2010 18:00:00 -3.04 C 3.42 g/m*3 -3.04 C 0 km/h
2056 20-12-2010 19:00:00 -3 C 3.45 g/m*3 -3 C 0 km/h
2057 20-12-2010 20:00:00 -2.92 C 3.48 g/m*3 -2.92 C 0 km/h
2058 20-12-2010 21:00:00 -3.64 C 3.26 g/m*3 -3.64 C 0 km/h
2059 20-12-2010 22:00:00 -4.3 C 3.11 g/m*3 -4.3 C 0 km/h
2060 20-12-2010 23:00:00 -3.46 C 3.37 g/m*3 -3.46 C 0 km/h
2061 21-12-2010 00:00:00 -3.62 C 3.33 g/m*3 -3.62 C 0 km/h
2062 21-12-2010 01:00:00 -2.88 C 3.53 g/m*3 -2.88 C 0 km/h
2063 21-12-2010 02:00:00 -2.6 C 3.6 g/m*3 -2.6 C 0 km/h
2064 21-12-2010 03:00:00 -2.54 C 3.57 g/m*3 -2.54 C 0 km/h
2065 21-12-2010 04:00:00 -2.14 C 3.67 g/m*3 -2.14 C 0 km/h
2066 21-12-2010 05:00:00 -1.88 C 3.76 g/m*3 -1.88 C 0 km/h
2067 21-12-2010 06:00:00 -1.78 C 3.81 g/m*3 -1.78 C 0 km/h
2068 21-12-2010 07:00:00 -1.7 C 3.83 g/m*3 -1.7 C 0 km/h
2069 21-12-2010 08:00:00 -1.64 C 3.85 g/m*3 -1.64 C 0 km/h
2070 21-12-2010 09:00:00 -1.24 C 3.91 g/m*3 -1.24 C 0 km/h
2071 21-12-2010 10:00:00 -0.6 C 3.91 g/m*3 -0.6 C 0 km/h
2072 21-12-2010 11:00:00 0.5 C 3.98 g/m*3 0.5 C 0 km/h
2073 21-12-2010 12:00:00 1.14 C 3.97 g/m*3 1.14 C 0 km/h
2074 21-12-2010 13:00:00 1.44 C 4.12 g/m*3 1.44 C 0 km/h
2075 21-12-2010 14:00:00 1.24 C 4.06 g/m*3 1.24 C 0 km/h
Sensor: Nr:Datum:Temp:Abs-Feuchte:Windchill:Wind:
Aussen-T/F 2076 21-12-2010 15:00:00 1.18 C 4.18 g/m*3 1.18 C 0 km/h
2077 21-12-2010 16:00:00 0.58 C 4.2 g/m*3 0.58 C 0 km/h
2078 21-12-2010 17:00:00 0.16 C 4.28 g/m*3 0.16 C 0 km/h
2079 21-12-2010 18:00:00 0.18 C 4.38 g/m*3 0.18 C 0 km/h
2080 21-12-2010 19:00:00 0.12 C 4.4 g/m*3 0.12 C 0 km/h
2081 21-12-2010 20:00:00 0.12 C 4.4 g/m*3 0.12 C 0 km/h
2082 21-12-2010 21:00:00 0.12 C 4.45 g/m*3 0.12 C 0 km/h
2083 21-12-2010 22:00:00 0.15 C 4.45 g/m*3 0.15 C 0 km/h
2084 21-12-2010 23:00:00 0.12 C 4.45 g/m*3 0.12 C 0 km/h
2085 22-12-2010 00:00:00 0.1 C 4.48 g/m*3 0.1 C 0 km/h
2086 22-12-2010 01:00:00 0.16 C 4.51 g/m*3 0.16 C 0 km/h
2087 22-12-2010 02:00:00 0.2 C 4.52 g/m*3 0.2 C 0 km/h
2088 22-12-2010 03:00:00 0.16 C 4.51 g/m*3 0.16 C 0 km/h
2089 22-12-2010 04:00:00 0.28 C 4.54 g/m*3 0.28 C 0 km/h
2090 22-12-2010 05:00:00 0.3 C 4.55 g/m*3 0.3 C 0 km/h
2091 22-12-2010 06:00:00 0.3 C 4.55 g/m*3 0.3 C 0 km/h
2092 22-12-2010 07:00:00 0.3 C 4.57 g/m*3 0.3 C 0 km/h
2093 22-12-2010 08:00:00 0.34 C 4.61 g/m*3 0.34 C 0 km/h
2094 22-12-2010 09:00:00 0.7 C 4.73 g/m*3 0.7 C 0 km/h
2095 22-12-2010 10:00:00 1.38 C 4.9 g/m*3 1.38 C 0 km/h
2096 22-12-2010 11:00:00 2.3 C 5.02 g/m*3 2.3 C 0 km/h
2097 22-12-2010 12:00:00 2.76 C 4.89 g/m*3 2.76 C 0 km/h
2098 22-12-2010 13:00:00 2.38 C 4.73 g/m*3 2.38 C 0 km/h
2099 22-12-2010 14:00:00 2.4 C 4.76 g/m*3 2.4 C 0 km/h
2100 22-12-2010 15:00:00 1.66 C 4.59 g/m*3 1.66 C 0 km/h
Sensor: Nr:Datum:Temp:Abs-Feuchte:Windchill:Wind:
Aussen-T/F 2101 22-12-2010 16:00:00 1.16 C 4.6 g/m*3 1.16 C 0 km/h
2102 22-12-2010 17:00:00 0.8 C 4.6 g/m*3 0.8 C 0 km/h
2103 22-12-2010 18:00:00 0.7 C 4.63 g/m*3 0.7 C 0 km/h
2104 22-12-2010 19:00:00 0.78 C 4.7 g/m*3 0.78 C 0 km/h
2105 22-12-2010 20:00:00 0.78 C 4.7 g/m*3 0.78 C 0 km/h
2106 22-12-2010 21:00:00 0.8 C 4.71 g/m*3 0.8 C 0 km/h
2107 22-12-2010 22:00:00 0.7 C 4.68 g/m*3 0.7 C 0 km/h
2108 22-12-2010 23:00:00 0.7 C 4.68 g/m*3 0.7 C 0 km/h
2109 23-12-2010 00:00:00 0.76 C 4.74 g/m*3 0.76 C 0 km/h
2110 23-12-2010 01:00:00 0.7 C 4.73 g/m*3 0.7 C 0 km/h
2111 23-12-2010 02:00:00 0.7 C 4.73 g/m*3 0.7 C 0 km/h
2112 23-12-2010 03:00:00 0.7 C 4.73 g/m*3 0.7 C 0 km/h
2113 23-12-2010 04:00:00 0.66 C 4.72 g/m*3 0.66 C 0 km/h
2114 23-12-2010 05:00:00 0.48 C 4.66 g/m*3 0.48 C 0 km/h
2115 23-12-2010 06:00:00 0.34 C 4.61 g/m*3 0.34 C 0 km/h
2116 23-12-2010 07:00:00 0 C 4.51 g/m*3 0 C 0 km/h
2117 23-12-2010 08:00:00 -0.32 C 4.39 g/m*3 -0.32 C 0 km/h
2118 23-12-2010 09:00:00 -0.5 C 4.31 g/m*3 -0.5 C 0 km/h
2119 23-12-2010 10:00:00 -0.54 C 4.27 g/m*3 -0.54 C 0 km/h
2120 23-12-2010 11:00:00 -0.58 C 4.19 g/m*3 -0.58 C 0 km/h
2121 23-12-2010 12:00:00 -0.68 C 4.06 g/m*3 -0.68 C 0 km/h
2122 23-12-2010 13:00:00 -0.66 C 4 g/m*3 -0.66 C 0 km/h
2123 23-12-2010 14:00:00 -0.62 C 3.99 g/m*3 -0.62 C 0 km/h
2124 23-12-2010 15:00:00 -0.86 C 3.93 g/m*3 -0.86 C 0 km/h
2125 23-12-2010 16:00:00 -0.9 C 3.96 g/m*3 -0.9 C 0 km/h
Sensor: Nr:Datum:Temp:Abs-Feuchte:Windchill:Wind:
Aussen-T/F 2126 23-12-2010 17:00:00 -1.02 C 3.93 g/m*3 -1.02 C 0 km/h
2127 23-12-2010 18:00:00 -1.14 C 3.89 g/m*3 -1.14 C 0 km/h
2128 23-12-2010 19:00:00 -1.26 C 3.84 g/m*3 -1.26 C 0 km/h
2129 23-12-2010 20:00:00 -1.26 C 3.84 g/m*3 -1.26 C 0 km/h
2130 23-12-2010 21:00:00 -1.1 C 3.86 g/m*3 -1.1 C 0 km/h
2131 23-12-2010 22:00:00 -0.94 C 3.92 g/m*3 -0.94 C 0 km/h
2132 23-12-2010 23:00:00 -0.8 C 3.98 g/m*3 -0.8 C 0 km/h
2133 24-12-2010 00:00:00 -0.9 C 3.91 g/m*3 -0.9 C 0 km/h
2134 24-12-2010 01:00:00 -0.74 C 3.98 g/m*3 -0.74 C 0 km/h
2135 24-12-2010 02:00:00 -0.5 C 4.03 g/m*3 -0.5 C 0 km/h
2136 24-12-2010 03:00:00 -0.48 C 4.03 g/m*3 -0.48 C 0 km/h
2137 24-12-2010 04:00:00 -0.5 C 4.03 g/m*3 -0.5 C 0 km/h
2138 24-12-2010 05:00:00 -0.74 C 3.91 g/m*3 -0.74 C 0 km/h
2139 24-12-2010 06:00:00 -0.96 C 3.79 g/m*3 -0.96 C 0 km/h
2140 24-12-2010 07:00:00 -1.2 C 3.64 g/m*3 -1.2 C 0 km/h
2141 24-12-2010 08:00:00 -1.48 C 3.64 g/m*3 -1.48 C 0 km/h
2142 24-12-2010 09:00:00 -1.7 C 3.66 g/m*3 -1.7 C 0 km/h
2143 24-12-2010 10:00:00 -1.54 C 3.68 g/m*3 -1.54 C 0 km/h
2144 24-12-2010 11:00:00 -1.32 C 3.67 g/m*3 -1.32 C 0 km/h
2145 24-12-2010 12:00:00 -1.34 C 3.58 g/m*3 -1.34 C 0 km/h
2146 24-12-2010 13:00:00 -1.38 C 3.52 g/m*3 -1.38 C 0 km/h
2147 24-12-2010 14:00:00 -1.4 C 3.52 g/m*3 -1.4 C 0 km/h
2148 24-12-2010 15:00:00 -1.84 C 3.46 g/m*3 -1.84 C 0 km/h
2149 24-12-2010 16:00:00 -2.42 C 3.35 g/m*3 -2.42 C 0 km/h
2150 24-12-2010 17:00:00 -2.56 C 3.22 g/m*3 -2.56 C 0 km/h
Sensor: Nr:Datum:Temp:Abs-Feuchte:Windchill:Wind:
Aussen-T/F 2151 24-12-2010 18:00:00 -2.8 C 3.23 g/m*3 -2.8 C 0 km/h
2152 24-12-2010 19:00:00 -2.94 C 3.13 g/m*3 -2.94 C 0 km/h
2153 24-12-2010 20:00:00 -3.02 C 3.11 g/m*3 -3.02 C 0 km/h
2154 24-12-2010 21:00:00 -3.23333 C 3.06 g/m*3 -3.23 C 0 km/h
2155 24-12-2010 22:00:00 -3.56 C 3.02 g/m*3 -3.56 C 0 km/h
2156 24-12-2010 23:00:00 -3.74 C 2.98 g/m*3 -3.74 C 0 km/h
2157 25-12-2010 00:00:00 -3.82 C 2.94 g/m*3 -3.82 C 0 km/h
2158 25-12-2010 01:00:00 -3.92 C 2.88 g/m*3 -3.92 C 0 km/h
2159 25-12-2010 02:00:00 -4.08 C 2.87 g/m*3 -4.08 C 0 km/h
2160 25-12-2010 03:00:00 -4.16 C 2.81 g/m*3 -4.16 C 0 km/h
2161 25-12-2010 04:00:00 -4.26 C 2.68 g/m*3 -4.26 C 0 km/h
2162 25-12-2010 05:00:00 -4.46 C 2.58 g/m*3 -4.46 C 0 km/h
2163 25-12-2010 06:00:00 -4.62 C 2.51 g/m*3 -4.62 C 0 km/h
2164 25-12-2010 07:00:00 -4.72 C 2.45 g/m*3 -4.72 C 0 km/h
2165 25-12-2010 08:00:00 -4.8 C 2.47 g/m*3 -4.8 C 0 km/h
2166 25-12-2010 09:00:00 -4.82 C 2.44 g/m*3 -4.82 C 0 km/h
2167 25-12-2010 10:00:00 -4.58 C 2.36 g/m*3 -4.58 C 0 km/h
2168 25-12-2010 11:00:00 -4.5 C 2.18 g/m*3 -4.5 C 0 km/h
2169 25-12-2010 12:00:00 -4.98 C 2.07 g/m*3 -4.98 C 0 km/h
2170 25-12-2010 13:00:00 -4.72 C 2.18 g/m*3 -4.72 C 0 km/h
2171 25-12-2010 14:00:00 -4.92 C 2.1 g/m*3 -4.92 C 0 km/h
2172 25-12-2010 15:00:00 -5.54 C 2.09 g/m*3 -5.54 C 0 km/h
2173 25-12-2010 16:00:00 -6.82 C 2.12 g/m*3 -6.82 C 0 km/h
2174 25-12-2010 17:00:00 -7.52 C 2.13 g/m*3 -7.52 C 0 km/h
2175 25-12-2010 18:00:00 -7.46 C 2.17 g/m*3 -7.46 C 0 km/h
Sensor: Nr:Datum:Temp:Abs-Feuchte:Windchill:Wind:
Aussen-T/F 2176 25-12-2010 19:00:00 -7.4 C 2.17 g/m*3 -7.4 C 0 km/h
2177 25-12-2010 20:00:00 -8.34 C 2.11 g/m*3 -8.34 C 0 km/h
2178 25-12-2010 21:00:00 -7.4 C 2.32 g/m*3 -7.4 C 0 km/h
2179 25-12-2010 22:00:00 -6.8 C 2.31 g/m*3 -6.8 C 0 km/h
2180 25-12-2010 23:00:00 -6.82 C 2.18 g/m*3 -6.82 C 0 km/h
2181 26-12-2010 00:00:00 -7.08 C 2.12 g/m*3 -7.08 C 0 km/h
2182 26-12-2010 01:00:00 -8 C 1.99 g/m*3 -8 C 0 km/h
2183 26-12-2010 02:00:00 -8.78 C 1.88 g/m*3 -8.78 C 0 km/h
2184 26-12-2010 03:00:00 -9.04 C 1.82 g/m*3 -9.04 C 0 km/h
2185 26-12-2010 04:00:00 -9.04 C 1.85 g/m*3 -9.04 C 0 km/h
2186 26-12-2010 05:00:00 -8.44 C 1.94 g/m*3 -8.44 C 0 km/h
2187 26-12-2010 06:00:00 -7.24 C 2.11 g/m*3 -7.24 C 0 km/h
2188 26-12-2010 07:00:00 -6.34 C 2.24 g/m*3 -6.34 C 0 km/h
2189 26-12-2010 08:00:00 -5.84 C 2.36 g/m*3 -5.84 C 0 km/h
2190 26-12-2010 09:00:00 -4.88 C 2.6 g/m*3 -4.88 C 0 km/h
2191 26-12-2010 10:00:00 -4.24 C 2.68 g/m*3 -4.24 C 0 km/h
2192 26-12-2010 11:00:00 -3.52 C 2.69 g/m*3 -3.52 C 0 km/h
2193 26-12-2010 12:00:00 -3.14 C 2.78 g/m*3 -3.14 C 0 km/h
2194 26-12-2010 13:00:00 -2.72 C 2.85 g/m*3 -2.72 C 0 km/h
2195 26-12-2010 14:00:00 -2.66 C 3 g/m*3 -2.66 C 0 km/h
2196 26-12-2010 15:00:00 -2.72 C 3.13 g/m*3 -2.72 C 0 km/h
2197 26-12-2010 16:00:00 -2.86 C 3.16 g/m*3 -2.86 C 0 km/h
2198 26-12-2010 17:00:00 -2.82 C 3.17 g/m*3 -2.82 C 0 km/h
2199 26-12-2010 18:00:00 -2.9 C 3.17 g/m*3 -2.9 C 0 km/h
2200 26-12-2010 19:00:00 -2.72 C 3.18 g/m*3 -2.72 C 0 km/h
Sensor: Nr:Datum:Temp:Abs-Feuchte:Windchill:Wind:
Aussen-T/F 2201 26-12-2010 20:00:00 -3.04 C 3.16 g/m*3 -3.04 C 0 km/h
2202 26-12-2010 21:00:00 -3.3 C 3.08 g/m*3 -3.3 C 0 km/h
2203 26-12-2010 22:00:00 -3.04 C 3.13 g/m*3 -3.04 C 0 km/h
2204 26-12-2010 23:00:00 -2.72 C 3.18 g/m*3 -2.72 C 0 km/h
2205 27-12-2010 00:00:00 -2.64 C 3.22 g/m*3 -2.64 C 0 km/h
2206 27-12-2010 01:00:00 -1.92 C 3.31 g/m*3 -1.92 C 0 km/h
2207 27-12-2010 02:00:00 -1.6 C 3.35 g/m*3 -1.6 C 0 km/h
2208 27-12-2010 03:00:00 -1.38 C 3.41 g/m*3 -1.38 C 0 km/h
2209 27-12-2010 04:00:00 -1.3 C 3.36 g/m*3 -1.3 C 0 km/h
2210 27-12-2010 05:00:00 -1.32 C 3.37 g/m*3 -1.32 C 0 km/h
2211 27-12-2010 06:00:00 -1.44 C 3.38 g/m*3 -1.44 C 0 km/h
2212 27-12-2010 07:00:00 -1.62 C 3.33 g/m*3 -1.62 C 0 km/h
2213 27-12-2010 08:00:00 -1.86 C 3.29 g/m*3 -1.86 C 0 km/h
2214 27-12-2010 09:00:00 -1.78 C 3.24 g/m*3 -1.78 C 0 km/h
2215 27-12-2010 10:00:00 -1.42 C 3.27 g/m*3 -1.42 C 0 km/h
2216 27-12-2010 11:00:00 -1.16 C 3.26 g/m*3 -1.16 C 0 km/h
2217 27-12-2010 12:00:00 -1.02 C 3.22 g/m*3 -1.02 C 0 km/h
2218 27-12-2010 13:00:00 -0.88 C 3.29 g/m*3 -0.88 C 0 km/h
2219 27-12-2010 14:00:00 -1.04 C 3.27 g/m*3 -1.04 C 0 km/h
2220 27-12-2010 15:00:00 -1.3 C 3.33 g/m*3 -1.3 C 0 km/h
2221 27-12-2010 16:00:00 -2.3 C 3.25 g/m*3 -2.3 C 0 km/h
2222 27-12-2010 17:00:00 -3.16 C 3.25 g/m*3 -3.16 C 0 km/h
2223 27-12-2010 18:00:00 -3.18 C 3.34 g/m*3 -3.18 C 0 km/h
2224 27-12-2010 19:00:00 -3.74 C 3.21 g/m*3 -3.74 C 0 km/h
2225 27-12-2010 20:00:00 -4.3 C 3.12 g/m*3 -4.3 C 0 km/h
Sensor: Nr:Datum:Temp:Abs-Feuchte:Windchill:Wind:
Aussen-T/F 2226 27-12-2010 21:00:00 -4.4 C 3.1 g/m*3 -4.4 C 0 km/h
2227 27-12-2010 22:00:00 -4.14 C 3.16 g/m*3 -4.14 C 0 km/h
2228 27-12-2010 23:00:00 -4.34 C 3.11 g/m*3 -4.34 C 0 km/h
2229 28-12-2010 00:00:00 -4.46 C 3.08 g/m*3 -4.46 C 0 km/h
2230 28-12-2010 01:00:00 -4.3 C 3.12 g/m*3 -4.3 C 0 km/h
2231 28-12-2010 02:00:00 -4.16 C 3.15 g/m*3 -4.16 C 0 km/h
2232 28-12-2010 03:00:00 -4.36 C 3.08 g/m*3 -4.36 C 0 km/h
2233 28-12-2010 04:00:00 -4.16 C 3.15 g/m*3 -4.16 C 0 km/h
2234 28-12-2010 05:00:00 -3.78 C 3.23 g/m*3 -3.78 C 0 km/h
2235 28-12-2010 06:00:00 -3.74 C 3.24 g/m*3 -3.74 C 0 km/h
2236 28-12-2010 07:00:00 -3.72 C 3.22 g/m*3 -3.72 C 0 km/h
2237 28-12-2010 08:00:00 -3.56 C 3.25 g/m*3 -3.56 C 0 km/h
2238 28-12-2010 09:00:00 -2.68 C 3.44 g/m*3 -2.68 C 0 km/h
2239 28-12-2010 10:00:00 -1.12 C 3.61 g/m*3 -1.12 C 0 km/h
2240 28-12-2010 11:00:00 -0.54 C 3.46 g/m*3 -0.54 C 0 km/h
2241 28-12-2010 12:00:00 0.3 C 3.31 g/m*3 0.3 C 0 km/h
2242 28-12-2010 13:00:00 0.36 C 3.32 g/m*3 0.36 C 0 km/h
2243 28-12-2010 14:00:00 0 C 3.33 g/m*3 0 C 0 km/h
2244 28-12-2010 15:00:00 -0.54 C 3.42 g/m*3 -0.54 C 0 km/h
2245 28-12-2010 16:00:00 -0.68 C 3.39 g/m*3 -0.68 C 0 km/h
2246 28-12-2010 17:00:00 -0.7 C 3.42 g/m*3 -0.7 C 0 km/h
2247 28-12-2010 18:00:00 -0.88 C 3.38 g/m*3 -0.88 C 0 km/h
2248 28-12-2010 19:00:00 -1.2 C 3.45 g/m*3 -1.2 C 0 km/h
2249 28-12-2010 20:00:00 -1.4 C 3.43 g/m*3 -1.4 C 0 km/h
2250 28-12-2010 21:00:00 -1.86 C 3.4 g/m*3 -1.86 C 0 km/h
Sensor: Nr:Datum:Temp:Abs-Feuchte:Windchill:Wind:
Aussen-T/F 2251 28-12-2010 22:00:00 -1.275 C 3.59 g/m*3 -1.27 C 0 km/h
2252 28-12-2010 23:00:00 -1.28 C 3.58 g/m*3 -1.28 C 0 km/h
2253 29-12-2010 00:00:00 -1.32 C 3.56 g/m*3 -1.32 C 0 km/h
2254 29-12-2010 01:00:00 -1.3 C 3.62 g/m*3 -1.3 C 0 km/h
2255 29-12-2010 02:00:00 -1.3 C 3.64 g/m*3 -1.3 C 0 km/h
2256 29-12-2010 03:00:00 -1.22 C 3.68 g/m*3 -1.22 C 0 km/h
2257 29-12-2010 04:00:00 -1.28 C 3.66 g/m*3 -1.28 C 0 km/h
2258 29-12-2010 05:00:00 -1.3 C 3.67 g/m*3 -1.3 C 0 km/h
2259 29-12-2010 06:00:00 -1.2 C 3.73 g/m*3 -1.2 C 0 km/h
2260 29-12-2010 07:00:00 -1.1 C 3.79 g/m*3 -1.1 C 0 km/h
2261 29-12-2010 08:00:00 -1.1 C 3.83 g/m*3 -1.1 C 0 km/h
2262 29-12-2010 09:00:00 -0.74 C 3.88 g/m*3 -0.74 C 0 km/h
2263 29-12-2010 10:00:00 0.14 C 3.75 g/m*3 0.14 C 0 km/h
2264 29-12-2010 11:00:00 0.58 C 3.6 g/m*3 0.58 C 0 km/h
2265 29-12-2010 12:00:00 0.88 C 3.58 g/m*3 0.88 C 0 km/h
2266 29-12-2010 13:00:00 1.34 C 3.61 g/m*3 1.34 C 0 km/h
2267 29-12-2010 14:00:00 1.76 C 3.66 g/m*3 1.76 C 0 km/h
2268 29-12-2010 15:00:00 1.18 C 3.73 g/m*3 1.18 C 0 km/h
2269 29-12-2010 16:00:00 0.62 C 3.85 g/m*3 0.62 C 0 km/h
2270 29-12-2010 17:00:00 0.28 C 3.85 g/m*3 0.28 C 0 km/h
2271 29-12-2010 18:00:00 0.14 C 3.89 g/m*3 0.14 C 0 km/h
2272 29-12-2010 19:00:00 0.06 C 3.97 g/m*3 0.06 C 0 km/h
2273 29-12-2010 20:00:00 -0.04 C 3.96 g/m*3 -0.04 C 0 km/h
2274 29-12-2010 21:00:00 -0.18 C 3.92 g/m*3 -0.18 C 0 km/h
2275 29-12-2010 22:00:00 -0.32 C 3.84 g/m*3 -0.32 C 0 km/h
Sensor: Nr:Datum:Temp:Abs-Feuchte:Windchill:Wind:
Aussen-T/F 2276 29-12-2010 23:00:00 -0.7 C 3.79 g/m*3 -0.7 C 0 km/h
2277 30-12-2010 00:00:00 -0.925 C 3.79 g/m*3 -0.93 C 0 km/h
2278 30-12-2010 01:00:00 -1.32 C 3.7 g/m*3 -1.32 C 0 km/h
2279 30-12-2010 02:00:00 -1.46 C 3.75 g/m*3 -1.46 C 0 km/h
2280 30-12-2010 03:00:00 -1.14 C 3.85 g/m*3 -1.14 C 0 km/h
2281 30-12-2010 04:00:00 -1.14 C 3.76 g/m*3 -1.14 C 0 km/h
2282 30-12-2010 05:00:00 -2.82 C 3.25 g/m*3 -2.82 C 0 km/h
2283 30-12-2010 06:00:00 -1.24 C 3.53 g/m*3 -1.24 C 0 km/h
2284 30-12-2010 07:00:00 -1.34 C 3.44 g/m*3 -1.34 C 0 km/h
2285 30-12-2010 08:00:00 -1.4 C 3.45 g/m*3 -1.4 C 0 km/h
2286 30-12-2010 09:00:00 -1.1 C 3.47 g/m*3 -1.1 C 0 km/h
2287 30-12-2010 10:00:00 -0.45 C 3.46 g/m*3 -0.45 C 0 km/h
2288 30-12-2010 11:00:00 0.08 C 3.53 g/m*3 0.08 C 0 km/h
2289 30-12-2010 12:00:00 0.6 C 3.59 g/m*3 0.6 C 0 km/h
2290 30-12-2010 13:00:00 1.2 C 3.59 g/m*3 1.2 C 0 km/h
2291 30-12-2010 14:00:00 1.32 C 3.61 g/m*3 1.32 C 0 km/h
2292 30-12-2010 15:00:00 0.98 C 3.67 g/m*3 0.98 C 0 km/h
2293 30-12-2010 16:00:00 0.3 C 3.73 g/m*3 0.3 C 0 km/h
2294 30-12-2010 17:00:00 0.04 C 3.74 g/m*3 0.04 C 0 km/h
2295 30-12-2010 18:00:00 -0.3 C 3.68 g/m*3 -0.3 C 0 km/h
2296 30-12-2010 19:00:00 -0.44 C 3.75 g/m*3 -0.44 C 0 km/h
2297 30-12-2010 20:00:00 -0.48 C 3.71 g/m*3 -0.48 C 0 km/h
2298 30-12-2010 21:00:00 -0.6 C 3.63 g/m*3 -0.6 C 0 km/h
2299 30-12-2010 22:00:00 -0.78 C 3.59 g/m*3 -0.78 C 0 km/h
2300 30-12-2010 23:00:00 -0.96 C 3.51 g/m*3 -0.96 C 0 km/h
Sensor: Nr:Datum:Temp:Abs-Feuchte:Windchill:Wind:
Aussen-T/F 2301 31-12-2010 00:00:00 -1.1 C 3.49 g/m*3 -1.1 C 0 km/h
2302 31-12-2010 01:00:00 -1.14 C 3.54 g/m*3 -1.14 C 0 km/h
2303 31-12-2010 02:00:00 -1.34 C 3.49 g/m*3 -1.34 C 0 km/h
2304 31-12-2010 03:00:00 -1.76 C 3.4 g/m*3 -1.76 C 0 km/h
2305 31-12-2010 04:00:00 -1.98 C 3.38 g/m*3 -1.98 C 0 km/h
2306 31-12-2010 05:00:00 -2.12 C 3.34 g/m*3 -2.12 C 0 km/h
2307 31-12-2010 06:00:00 -2.26 C 3.29 g/m*3 -2.26 C 0 km/h
2308 31-12-2010 07:00:00 -2.12 C 3.36 g/m*3 -2.12 C 0 km/h
2309 31-12-2010 08:00:00 -2.12 C 3.39 g/m*3 -2.12 C 0 km/h
2310 31-12-2010 09:00:00 -2.18 C 3.35 g/m*3 -2.18 C 0 km/h
2311 31-12-2010 10:00:00 -1.9 C 3.35 g/m*3 -1.9 C 0 km/h
2312 31-12-2010 11:00:00 -1.22 C 3.38 g/m*3 -1.22 C 0 km/h
2313 31-12-2010 12:00:00 -0.92 C 3.41 g/m*3 -0.92 C 0 km/h
2314 31-12-2010 13:00:00 -0.18 C 3.46 g/m*3 -0.18 C 0 km/h
2315 31-12-2010 14:00:00 0.24 C 3.37 g/m*3 0.24 C 0 km/h
2316 31-12-2010 15:00:00 -0.34 C 3.43 g/m*3 -0.34 C 0 km/h
2317 31-12-2010 16:00:00 -0.56 C 3.52 g/m*3 -0.56 C 0 km/h
2318 31-12-2010 17:00:00 -0.6 C 3.63 g/m*3 -0.6 C 0 km/h
2319 31-12-2010 18:00:00 -0.54 C 3.76 g/m*3 -0.54 C 0 km/h
2320 31-12-2010 19:00:00 -0.6 C 3.82 g/m*3 -0.6 C 0 km/h
2321 31-12-2010 20:00:00 -0.64 C 3.94 g/m*3 -0.64 C 0 km/h
2322 31-12-2010 21:00:00 -0.58 C 4.02 g/m*3 -0.58 C 0 km/h
2323 31-12-2010 22:00:00 -0.38 C 4.11 g/m*3 -0.38 C 0 km/h
2324 31-12-2010 23:00:00 -0.325 C 4.12 g/m*3 -0.33 C 0 km/h
2325 01-01-2011 00:00:00 -0.32 C 4.12 g/m*3 -0.32 C 0 km/h
Sensor: Nr:Datum:Temp:Abs-Feuchte:Windchill:Wind:
Aussen-T/F 2326 01-01-2011 01:00:00 -0.28 C 4.18 g/m*3 -0.28 C 0 km/h
2327 01-01-2011 02:00:00 -0.14 C 4.22 g/m*3 -0.14 C 0 km/h
2328 01-01-2011 03:00:00 -0.13333 C 4.22 g/m*3 -0.13 C 0 km/h
2329 01-01-2011 04:00:00 -0.2 C 4.21 g/m*3 -0.2 C 0 km/h
2330 01-01-2011 05:00:00 -0.02 C 4.3 g/m*3 -0.02 C 0 km/h
2331 01-01-2011 06:00:00 0.36 C 4.29 g/m*3 0.36 C 0 km/h
2332 01-01-2011 07:00:00 0.5 C 4.25 g/m*3 0.5 C 0 km/h
2333 01-01-2011 08:00:00 0.82 C 4.3 g/m*3 0.82 C 0 km/h
2334 01-01-2011 09:00:00 1.08 C 4.38 g/m*3 1.08 C 0 km/h
2335 01-01-2011 10:00:00 1.36 C 4.59 g/m*3 1.36 C 0 km/h
2336 01-01-2011 11:00:00 1.94 C 4.68 g/m*3 1.94 C 0 km/h
2337 01-01-2011 12:00:00 2.44 C 4.63 g/m*3 2.44 C 0 km/h
2338 01-01-2011 13:00:00 2.92 C 4.62 g/m*3 2.92 C 0 km/h
2339 01-01-2011 14:00:00 2.54 C 4.63 g/m*3 2.54 C 0 km/h
2340 01-01-2011 15:00:00 2.02 C 4.64 g/m*3 2.02 C 0 km/h
2341 01-01-2011 16:00:00 1.58 C 4.73 g/m*3 1.58 C 0 km/h
2342 01-01-2011 17:00:00 1.34 C 4.75 g/m*3 1.34 C 0 km/h
2343 01-01-2011 18:00:00 1.46 C 4.87 g/m*3 1.46 C 0 km/h
2344 01-01-2011 19:00:00 1.96 C 5.05 g/m*3 1.96 C 0 km/h
2345 01-01-2011 20:00:00 1.72 C 4.93 g/m*3 1.72 C 0 km/h
2346 01-01-2011 21:00:00 1.18 C 4.73 g/m*3 1.18 C 0 km/h
2347 01-01-2011 22:00:00 1.06 C 4.73 g/m*3 1.06 C 0 km/h
2348 01-01-2011 23:00:00 0.3 C 4.5 g/m*3 0.3 C 0 km/h
2349 02-01-2011 00:00:00 0.18 C 4.5 g/m*3 0.18 C 0 km/h
2350 02-01-2011 01:00:00 0.32 C 4.57 g/m*3 0.32 C 0 km/h
Sensor: Nr:Datum:Temp:Abs-Feuchte:Windchill:Wind:
Aussen-T/F 2351 02-01-2011 02:00:00 0.36 C 4.61 g/m*3 0.36 C 0 km/h
2352 02-01-2011 03:00:00 0.44 C 4.64 g/m*3 0.44 C 0 km/h
2353 02-01-2011 04:00:00 0.5 C 4.65 g/m*3 0.5 C 0 km/h
2354 02-01-2011 05:00:00 0.28 C 4.54 g/m*3 0.28 C 0 km/h
2355 02-01-2011 06:00:00 0.3 C 4.54 g/m*3 0.3 C 0 km/h
2356 02-01-2011 07:00:00 0.3 C 4.47 g/m*3 0.3 C 0 km/h
2357 02-01-2011 08:00:00 0.12 C 4.34 g/m*3 0.12 C 0 km/h
2358 02-01-2011 09:00:00 0.54 C 4.48 g/m*3 0.54 C 0 km/h
2359 02-01-2011 10:00:00 1.42 C 4.47 g/m*3 1.42 C 0 km/h
2360 02-01-2011 11:00:00 1.8 C 4.16 g/m*3 1.8 C 0 km/h
2361 02-01-2011 12:00:00 2.06 C 4.16 g/m*3 2.06 C 0 km/h
2362 02-01-2011 13:00:00 2.5 C 4.14 g/m*3 2.5 C 0 km/h
2363 02-01-2011 14:00:00 2.22 C 4.07 g/m*3 2.22 C 0 km/h
2364 02-01-2011 15:00:00 1.7 C 4.03 g/m*3 1.7 C 0 km/h
2365 02-01-2011 16:00:00 1.44 C 4.19 g/m*3 1.44 C 0 km/h
2366 02-01-2011 17:00:00 0.66 C 4.36 g/m*3 0.66 C 0 km/h
2367 02-01-2011 18:00:00 0.62 C 4.45 g/m*3 0.62 C 0 km/h
2368 02-01-2011 19:00:00 0.58 C 4.44 g/m*3 0.58 C 0 km/h
2369 02-01-2011 20:00:00 0.42 C 4.36 g/m*3 0.42 C 0 km/h
2370 02-01-2011 21:00:00 0.18 C 4.32 g/m*3 0.18 C 0 km/h
2371 02-01-2011 22:00:00 0.2 C 4.29 g/m*3 0.2 C 0 km/h
2372 02-01-2011 23:00:00 0.12 C 4.3 g/m*3 0.12 C 0 km/h
2373 03-01-2011 00:00:00 0.12 C 4.34 g/m*3 0.12 C 0 km/h
2374 03-01-2011 01:00:00 0.06 C 4.28 g/m*3 0.06 C 0 km/h
2375 03-01-2011 02:00:00 -0.16 C 4.22 g/m*3 -0.16 C 0 km/h
Sensor: Nr:Datum:Temp:Abs-Feuchte:Windchill:Wind:
Aussen-T/F 2376 03-01-2011 03:00:00 -0.3 C 4.12 g/m*3 -0.3 C 0 km/h
2377 03-01-2011 04:00:00 -0.88 C 3.85 g/m*3 -0.88 C 0 km/h
2378 03-01-2011 05:00:00 -1.04 C 3.84 g/m*3 -1.04 C 0 km/h
2379 03-01-2011 06:00:00 -1.12 C 3.88 g/m*3 -1.12 C 0 km/h
2380 03-01-2011 07:00:00 -1.08 C 3.99 g/m*3 -1.08 C 0 km/h
2381 03-01-2011 08:00:00 -1.3 C 3.9 g/m*3 -1.3 C 0 km/h
2382 03-01-2011 09:00:00 -1.22 C 3.93 g/m*3 -1.22 C 0 km/h
2383 03-01-2011 10:00:00 -1.02 C 3.86 g/m*3 -1.02 C 0 km/h
2384 03-01-2011 11:00:00 -0.3 C 3.73 g/m*3 -0.3 C 0 km/h
2385 03-01-2011 12:00:00 0.26 C 3.73 g/m*3 0.26 C 0 km/h
2386 03-01-2011 13:00:00 0.92 C 3.81 g/m*3 0.92 C 0 km/h
2387 03-01-2011 14:00:00 0.86 C 3.86 g/m*3 0.86 C 0 km/h
2388 03-01-2011 15:00:00 -0.08 C 3.74 g/m*3 -0.08 C 0 km/h
2389 03-01-2011 16:00:00 -1.54 C 3.65 g/m*3 -1.54 C 0 km/h
2390 03-01-2011 17:00:00 -2.46 C 3.53 g/m*3 -2.46 C 0 km/h
2391 03-01-2011 18:00:00 -1.3 C 3.93 g/m*3 -1.3 C 0 km/h
2392 03-01-2011 19:00:00 -1.22 C 3.98 g/m*3 -1.22 C 0 km/h
2393 03-01-2011 20:00:00 -2 C 3.76 g/m*3 -2 C 0 km/h
2394 03-01-2011 21:00:00 -2.5 C 3.63 g/m*3 -2.5 C 0 km/h
2395 03-01-2011 22:00:00 -1.6 C 3.9 g/m*3 -1.6 C 0 km/h
2396 03-01-2011 23:00:00 -3 C 3.53 g/m*3 -3 C 0 km/h
2397 04-01-2011 00:00:00 -3.64 C 3.38 g/m*3 -3.64 C 0 km/h
2398 04-01-2011 01:00:00 -3.94 C 3.29 g/m*3 -3.94 C 0 km/h
2399 04-01-2011 02:00:00 -3.3 C 3.46 g/m*3 -3.3 C 0 km/h
2400 04-01-2011 03:00:00 -3.18 C 3.47 g/m*3 -3.18 C 0 km/h
Sensor: Nr:Datum:Temp:Abs-Feuchte:Windchill:Wind:
Aussen-T/F 2401 04-01-2011 04:00:00 -3.44 C 3.4 g/m*3 -3.44 C 0 km/h
2402 04-01-2011 05:00:00 -3.74 C 3.3 g/m*3 -3.74 C 0 km/h
2403 04-01-2011 06:00:00 -3.84 C 3.27 g/m*3 -3.84 C 0 km/h
2404 04-01-2011 07:00:00 -2.72 C 3.57 g/m*3 -2.72 C 0 km/h
2405 04-01-2011 08:00:00 -2.14 C 3.76 g/m*3 -2.14 C 0 km/h
2406 04-01-2011 09:00:00 -1.88 C 3.83 g/m*3 -1.88 C 0 km/h
2407 04-01-2011 10:00:00 -1.02 C 4.06 g/m*3 -1.02 C 0 km/h
2408 04-01-2011 11:00:00 -0.42 C 4.05 g/m*3 -0.42 C 0 km/h
2409 04-01-2011 12:00:00 -0.26 C 3.46 g/m*3 -0.26 C 0 km/h
2410 04-01-2011 13:00:00 0.1 C 3.4 g/m*3 0.1 C 0 km/h
2411 04-01-2011 14:00:00 0.06 C 3.33 g/m*3 0.06 C 0 km/h
2412 04-01-2011 15:00:00 -0.92 C 3.25 g/m*3 -0.92 C 0 km/h
2413 04-01-2011 16:00:00 -1.18 C 3.26 g/m*3 -1.18 C 0 km/h
2414 04-01-2011 17:00:00 -2 C 3.21 g/m*3 -2 C 0 km/h
2415 04-01-2011 18:00:00 -2.22 C 3.18 g/m*3 -2.22 C 0 km/h
2416 04-01-2011 19:00:00 -3.56 C 2.94 g/m*3 -3.56 C 0 km/h
2417 04-01-2011 20:00:00 -4.2 C 2.89 g/m*3 -4.2 C 0 km/h
2418 04-01-2011 21:00:00 -3.72 C 2.98 g/m*3 -3.72 C 0 km/h
2419 04-01-2011 22:00:00 -2.82 C 2.86 g/m*3 -2.82 C 0 km/h
2420 04-01-2011 23:00:00 -2.82 C 2.83 g/m*3 -2.82 C 0 km/h
2421 05-01-2011 00:00:00 -2.88 C 2.88 g/m*3 -2.88 C 0 km/h
2422 05-01-2011 01:00:00 -2.98 C 2.74 g/m*3 -2.98 C 0 km/h
2423 05-01-2011 02:00:00 -2.92 C 2.75 g/m*3 -2.92 C 0 km/h
2424 05-01-2011 03:00:00 -2.96 C 2.76 g/m*3 -2.96 C 0 km/h
2425 05-01-2011 04:00:00 -3.56 C 2.54 g/m*3 -3.56 C 0 km/h
Sensor: Nr:Datum:Temp:Abs-Feuchte:Windchill:Wind:
Aussen-T/F 2426 05-01-2011 05:00:00 -4.06 C 2.5 g/m*3 -4.06 C 0 km/h
2427 05-01-2011 06:00:00 -4.88 C 2.36 g/m*3 -4.88 C 0 km/h
2428 05-01-2011 07:00:00 -6.04 C 2.24 g/m*3 -6.04 C 0 km/h
2429 05-01-2011 08:00:00 -7.46 C 2.16 g/m*3 -7.46 C 0 km/h
2430 05-01-2011 09:00:00 -6.64 C 2.35 g/m*3 -6.64 C 0 km/h
2431 05-01-2011 10:00:00 -4.26 C 2.44 g/m*3 -4.26 C 0 km/h
2432 05-01-2011 11:00:00 -3.2 C 2.38 g/m*3 -3.2 C 0 km/h
2433 05-01-2011 12:00:00 -3.68 C 2.34 g/m*3 -3.68 C 0 km/h
2434 05-01-2011 13:00:00 -3.76 C 2.43 g/m*3 -3.76 C 0 km/h
2435 05-01-2011 14:00:00 -3.38 C 2.52 g/m*3 -3.38 C 0 km/h
2436 05-01-2011 15:00:00 -3.74 C 2.56 g/m*3 -3.74 C 0 km/h
2437 05-01-2011 16:00:00 -4.44 C 2.56 g/m*3 -4.44 C 0 km/h
2438 05-01-2011 17:00:00 -5.7 C 2.52 g/m*3 -5.7 C 0 km/h
2439 05-01-2011 18:00:00 -5.7 C 2.6 g/m*3 -5.7 C 0 km/h
2440 05-01-2011 19:00:00 -3.86 C 2.93 g/m*3 -3.86 C 0 km/h
2441 05-01-2011 20:00:00 -2.66 C 3.07 g/m*3 -2.66 C 0 km/h
2442 05-01-2011 21:00:00 -1.68 C 3.21 g/m*3 -1.68 C 0 km/h
2443 05-01-2011 22:00:00 -1.06 C 3.5 g/m*3 -1.06 C 0 km/h
2444 05-01-2011 23:00:00 -0.56 C 3.76 g/m*3 -0.56 C 0 km/h
2445 06-01-2011 00:00:00 -0.58 C 3.83 g/m*3 -0.58 C 0 km/h
2446 06-01-2011 01:00:00 -0.22 C 3.97 g/m*3 -0.22 C 0 km/h
2447 06-01-2011 02:00:00 0.3 C 4.29 g/m*3 0.3 C 0 km/h
2448 06-01-2011 03:00:00 0.64 C 4.54 g/m*3 0.64 C 0 km/h
2449 06-01-2011 04:00:00 0.88 C 4.68 g/m*3 0.88 C 0 km/h
2450 06-01-2011 05:00:00 1.04 C 4.74 g/m*3 1.04 C 0 km/h
Sensor: Nr:Datum:Temp:Abs-Feuchte:Windchill:Wind:
Aussen-T/F 2451 06-01-2011 06:00:00 1.26 C 4.86 g/m*3 1.26 C 0 km/h
2452 06-01-2011 07:00:00 1.38 C 4.9 g/m*3 1.38 C 0 km/h
2453 06-01-2011 08:00:00 1.54 C 4.97 g/m*3 1.54 C 0 km/h
2454 06-01-2011 09:00:00 2.54 C 5.3 g/m*3 2.54 C 0 km/h
2455 06-01-2011 10:00:00 4.5 C 6.03 g/m*3 4.5 C 0 km/h
2456 06-01-2011 11:00:00 6.08 C 6.27 g/m*3 6.08 C 0 km/h
2457 06-01-2011 12:00:00 5.34 C 5.8 g/m*3 5.34 C 0 km/h
2458 06-01-2011 13:00:00 4.5 C 5.69 g/m*3 4.5 C 0 km/h
2459 06-01-2011 14:00:00 4.12 C 5.59 g/m*3 4.12 C 0 km/h
2460 06-01-2011 15:00:00 3.94 C 5.62 g/m*3 3.94 C 0 km/h
2461 06-01-2011 16:00:00 3.92 C 5.65 g/m*3 3.92 C 0 km/h
2462 06-01-2011 17:00:00 4.14 C 5.79 g/m*3 4.14 C 0 km/h
2463 06-01-2011 18:00:00 4.6 C 6.02 g/m*3 4.6 C 0 km/h
2464 06-01-2011 19:00:00 5.02 C 6.23 g/m*3 5.02 C 0 km/h
2465 06-01-2011 20:00:00 7.36 C 7.14 g/m*3 7.36 C 0 km/h
2466 06-01-2011 21:00:00 8.56 C 7.35 g/m*3 8.56 C 0 km/h
2467 06-01-2011 22:00:00 9.5 C 7.14 g/m*3 9.5 C 0 km/h
2468 06-01-2011 23:00:00 9.08 C 7 g/m*3 9.08 C 0 km/h
2469 07-01-2011 00:00:00 7.38 C 6.64 g/m*3 7.38 C 0 km/h
2470 07-01-2011 01:00:00 6.64 C 6.66 g/m*3 6.64 C 0 km/h
2471 07-01-2011 02:00:00 5.82 C 6.46 g/m*3 5.82 C 0 km/h
2472 07-01-2011 03:00:00 5.62 C 6.44 g/m*3 5.62 C 0 km/h
2473 07-01-2011 04:00:00 5.36 C 6.33 g/m*3 5.36 C 0 km/h
2474 07-01-2011 05:00:00 5.28 C 6.34 g/m*3 5.28 C 0 km/h
2475 07-01-2011 06:00:00 4.9 C 6.18 g/m*3 4.9 C 0 km/h
Sensor: Nr:Datum:Temp:Abs-Feuchte:Windchill:Wind:
Aussen-T/F 2476 07-01-2011 07:00:00 5.04 C 6.27 g/m*3 5.04 C 0 km/h
2477 07-01-2011 08:00:00 4.88 C 6.2 g/m*3 4.88 C 0 km/h
2478 07-01-2011 09:00:00 4.9 C 6.21 g/m*3 4.9 C 0 km/h
2479 07-01-2011 10:00:00 5.5 C 6.43 g/m*3 5.5 C 0 km/h
2480 07-01-2011 11:00:00 6.76 C 6.94 g/m*3 6.76 C 0 km/h
2481 07-01-2011 12:00:00 7.28 C 7.12 g/m*3 7.28 C 0 km/h
2482 07-01-2011 13:00:00 7.38 C 7.12 g/m*3 7.38 C 0 km/h
2483 07-01-2011 14:00:00 7.42 C 7.13 g/m*3 7.42 C 0 km/h
2484 07-01-2011 15:00:00 7.18 C 7.06 g/m*3 7.18 C 0 km/h
2485 07-01-2011 16:00:00 7.06 C 7.02 g/m*3 7.06 C 0 km/h
2486 07-01-2011 17:00:00 7.52 C 7.29 g/m*3 7.52 C 0 km/h
2487 07-01-2011 18:00:00 9.32 C 8.08 g/m*3 9.32 C 0 km/h
2488 07-01-2011 19:00:00 9.44 C 7.83 g/m*3 9.44 C 0 km/h
2489 07-01-2011 20:00:00 8.9 C 7.78 g/m*3 8.9 C 0 km/h
2490 07-01-2011 21:00:00 9 C 7.86 g/m*3 9 C 0 km/h
2491 07-01-2011 22:00:00 8.7 C 7.66 g/m*3 8.7 C 0 km/h
2492 07-01-2011 23:00:00 8.76 C 7.71 g/m*3 8.76 C 0 km/h
2493 08-01-2011 00:00:00 8.64 C 7.5 g/m*3 8.64 C 0 km/h
2494 08-01-2011 01:00:00 7.46 C 7.09 g/m*3 7.46 C 0 km/h
2495 08-01-2011 02:00:00 6.72 C 6.89 g/m*3 6.72 C 0 km/h
2496 08-01-2011 03:00:00 7.92 C 7.5 g/m*3 7.92 C 0 km/h
2497 08-01-2011 04:00:00 7.88 C 7.51 g/m*3 7.88 C 0 km/h
2498 08-01-2011 05:00:00 7.94 C 7.56 g/m*3 7.94 C 0 km/h
2499 08-01-2011 06:00:00 7.98 C 7.63 g/m*3 7.98 C 0 km/h
2500 08-01-2011 07:00:00 8.16 C 7.7 g/m*3 8.16 C 0 km/h
Sensor: Nr:Datum:Temp:Abs-Feuchte:Windchill:Wind:
Aussen-T/F 2501 08-01-2011 08:00:00 8.34 C 7.81 g/m*3 8.34 C 0 km/h
2502 08-01-2011 09:00:00 8.7 C 7.94 g/m*3 8.7 C 0 km/h
2503 08-01-2011 10:00:00 7.78 C 7.48 g/m*3 7.78 C 0 km/h
2504 08-01-2011 11:00:00 10.2 C 7.88 g/m*3 10.2 C 0 km/h
2505 08-01-2011 12:00:00 13.1 C 6.6 g/m*3 13.1 C 0 km/h
2506 08-01-2011 13:00:00 14.18 C 6.07 g/m*3 14.18 C 0 km/h
2507 08-01-2011 14:00:00 14.4 C 5.86 g/m*3 14.4 C 0 km/h
2508 08-01-2011 15:00:00 14.12 C 5.86 g/m*3 14.12 C 0 km/h
2509 08-01-2011 16:00:00 13.6 C 5.86 g/m*3 13.6 C 0 km/h
2510 08-01-2011 17:00:00 13.28 C 5.91 g/m*3 13.28 C 0 km/h
2511 08-01-2011 18:00:00 13.44 C 5.87 g/m*3 13.44 C 0 km/h
2512 08-01-2011 19:00:00 13.16 C 5.93 g/m*3 13.16 C 0 km/h
2513 08-01-2011 20:00:00 12.32 C 6.35 g/m*3 12.32 C 0 km/h
2514 08-01-2011 21:00:00 12.04 C 6.6 g/m*3 12.04 C 0 km/h
2515 08-01-2011 22:00:00 11.94 C 6.56 g/m*3 11.94 C 0 km/h
2516 08-01-2011 23:00:00 10.32 C 7.13 g/m*3 10.32 C 0 km/h
2517 09-01-2011 00:00:00 9.64 C 7.66 g/m*3 9.64 C 0 km/h
2518 09-01-2011 01:00:00 9.62 C 7.98 g/m*3 9.62 C 0 km/h
2519 09-01-2011 02:00:00 9.78 C 7.93 g/m*3 9.78 C 0 km/h
2520 09-01-2011 03:00:00 9.32 C 7.77 g/m*3 9.32 C 0 km/h
2521 09-01-2011 04:00:00 10.92 C 7.59 g/m*3 10.92 C 0 km/h
2522 09-01-2011 05:00:00 11.08 C 7.1 g/m*3 11.08 C 0 km/h
2523 09-01-2011 06:00:00 7.3 C 6.54 g/m*3 7.3 C 0 km/h
2524 09-01-2011 07:00:00 6.12 C 6.39 g/m*3 6.12 C 0 km/h
2525 09-01-2011 08:00:00 5.16 C 6.04 g/m*3 5.16 C 0 km/h
Sensor: Nr:Datum:Temp:Abs-Feuchte:Windchill:Wind:
Aussen-T/F 2526 09-01-2011 09:00:00 3.98 C 5.5 g/m*3 3.98 C 0 km/h
2527 09-01-2011 10:00:00 3.02 C 5.18 g/m*3 3.02 C 0 km/h
2528 09-01-2011 11:00:00 4.1 C 5.47 g/m*3 4.1 C 0 km/h
2529 09-01-2011 12:00:00 4.56 C 5.39 g/m*3 4.56 C 0 km/h
2530 09-01-2011 13:00:00 5.08 C 5.33 g/m*3 5.08 C 0 km/h
2531 09-01-2011 14:00:00 5.24 C 5.26 g/m*3 5.24 C 0 km/h
2532 09-01-2011 15:00:00 4.58 C 5.43 g/m*3 4.58 C 0 km/h
2533 09-01-2011 16:00:00 3.26 C 5.29 g/m*3 3.26 C 0 km/h
2534 09-01-2011 17:00:00 2.78 C 5.24 g/m*3 2.78 C 0 km/h
2535 09-01-2011 18:00:00 1.76 C 4.96 g/m*3 1.76 C 0 km/h
2536 09-01-2011 19:00:00 1.8 C 5.04 g/m*3 1.8 C 0 km/h
2537 09-01-2011 20:00:00 1.24 C 4.84 g/m*3 1.24 C 0 km/h
2538 09-01-2011 21:00:00 0.64 C 4.68 g/m*3 0.64 C 0 km/h
2539 09-01-2011 22:00:00 0.075 C 4.49 g/m*3 0.08 C 0 km/h
2540 09-01-2011 23:00:00 0.02 C 4.51 g/m*3 0.02 C 0 km/h
2541 10-01-2011 00:00:00 0.16 C 4.56 g/m*3 0.16 C 0 km/h
2542 10-01-2011 01:00:00 0.28 C 4.61 g/m*3 0.28 C 0 km/h
2543 10-01-2011 02:00:00 0.02 C 4.55 g/m*3 0.02 C 0 km/h
2544 10-01-2011 03:00:00 0.2 C 4.62 g/m*3 0.2 C 0 km/h
2545 10-01-2011 04:00:00 0.38 C 4.68 g/m*3 0.38 C 0 km/h
2546 10-01-2011 05:00:00 0.26 C 4.63 g/m*3 0.26 C 0 km/h
2547 10-01-2011 06:00:00 0.2 C 4.57 g/m*3 0.2 C 0 km/h
2548 10-01-2011 07:00:00 0.1 C 4.54 g/m*3 0.1 C 0 km/h
2549 10-01-2011 08:00:00 0.18 C 4.5 g/m*3 0.18 C 0 km/h
2550 10-01-2011 09:00:00 0.32 C 4.45 g/m*3 0.32 C 0 km/h
Sensor: Nr:Datum:Temp:Abs-Feuchte:Windchill:Wind:
Aussen-T/F 2551 10-01-2011 10:00:00 0.54 C 4.37 g/m*3 0.54 C 0 km/h
2552 10-01-2011 11:00:00 0.88 C 4.22 g/m*3 0.88 C 0 km/h
2553 10-01-2011 12:00:00 1.78 C 4.3 g/m*3 1.78 C 0 km/h
2554 10-01-2011 13:00:00 2.1 C 4.39 g/m*3 2.1 C 0 km/h
2555 10-01-2011 14:00:00 2.26 C 4.42 g/m*3 2.26 C 0 km/h
2556 10-01-2011 15:00:00 2.1 C 4.36 g/m*3 2.1 C 0 km/h
2557 10-01-2011 16:00:00 1.86 C 4.33 g/m*3 1.86 C 0 km/h
2558 10-01-2011 17:00:00 0.84 C 4.24 g/m*3 0.84 C 0 km/h
2559 10-01-2011 18:00:00 0.22 C 4.16 g/m*3 0.22 C 0 km/h
2560 10-01-2011 19:00:00 0.26 C 4.32 g/m*3 0.26 C 0 km/h
2561 10-01-2011 20:00:00 0.68 C 4.35 g/m*3 0.68 C 0 km/h
2562 10-01-2011 21:00:00 0.56 C 4.04 g/m*3 0.56 C 0 km/h
2563 10-01-2011 22:00:00 0.5 C 4.05 g/m*3 0.5 C 0 km/h
2564 10-01-2011 23:00:00 0.54 C 4.04 g/m*3 0.54 C 0 km/h
2565 11-01-2011 00:00:00 0.16 C 3.93 g/m*3 0.16 C 0 km/h
2566 11-01-2011 01:00:00 -0.12 C 4.08 g/m*3 -0.12 C 0 km/h
2567 11-01-2011 02:00:00 0.78 C 4.17 g/m*3 0.78 C 0 km/h
2568 11-01-2011 03:00:00 0.72 C 4.05 g/m*3 0.72 C 0 km/h
2569 11-01-2011 04:00:00 0.42 C 4.05 g/m*3 0.42 C 0 km/h
2570 11-01-2011 05:00:00 1.1 C 4.13 g/m*3 1.1 C 0 km/h
2571 11-01-2011 06:00:00 1.26 C 4.2 g/m*3 1.26 C 0 km/h
2572 11-01-2011 07:00:00 1.42 C 4.33 g/m*3 1.42 C 0 km/h
2573 11-01-2011 08:00:00 1.5 C 4.45 g/m*3 1.5 C 0 km/h
2574 11-01-2011 09:00:00 2.06 C 4.66 g/m*3 2.06 C 0 km/h
2575 11-01-2011 10:00:00 3.04 C 4.63 g/m*3 3.04 C 0 km/h
Sensor: Nr:Datum:Temp:Abs-Feuchte:Windchill:Wind:
Aussen-T/F 2576 11-01-2011 11:00:00 3.28 C 4.9 g/m*3 3.28 C 0 km/h
2577 11-01-2011 12:00:00 5.5 C 4.62 g/m*3 5.5 C 0 km/h
2578 11-01-2011 13:00:00 5.3 C 4.75 g/m*3 5.3 C 0 km/h
2579 11-01-2011 14:00:00 5.3 C 4.89 g/m*3 5.3 C 0 km/h
2580 11-01-2011 15:00:00 5.36 C 5.07 g/m*3 5.36 C 0 km/h
2581 11-01-2011 16:00:00 4.58 C 5.42 g/m*3 4.58 C 0 km/h
2582 11-01-2011 17:00:00 5.1 C 5.46 g/m*3 5.1 C 0 km/h
2583 11-01-2011 18:00:00 5.48 C 5.51 g/m*3 5.48 C 0 km/h
2584 11-01-2011 19:00:00 5.98 C 5.57 g/m*3 5.98 C 0 km/h
2585 11-01-2011 20:00:00 6.14 C 5.6 g/m*3 6.14 C 0 km/h
2586 11-01-2011 21:00:00 6.16 C 5.66 g/m*3 6.16 C 0 km/h
2587 11-01-2011 22:00:00 5.96 C 5.91 g/m*3 5.96 C 0 km/h
2588 11-01-2011 23:00:00 6 C 6.01 g/m*3 6 C 0 km/h
2589 12-01-2011 00:00:00 6.14 C 5.46 g/m*3 6.14 C 0 km/h
2590 12-01-2011 01:00:00 5.96 C 5.23 g/m*3 5.96 C 0 km/h
2591 12-01-2011 02:00:00 5.9 C 5.06 g/m*3 5.9 C 0 km/h
2592 12-01-2011 03:00:00 4.92 C 5.18 g/m*3 4.92 C 0 km/h
2593 12-01-2011 04:00:00 4.08 C 5.34 g/m*3 4.08 C 0 km/h
2594 12-01-2011 05:00:00 3.76 C 5.24 g/m*3 3.76 C 0 km/h
2595 12-01-2011 06:00:00 3.56 C 5.12 g/m*3 3.56 C 0 km/h
2596 12-01-2011 07:00:00 3.32 C 5.02 g/m*3 3.32 C 0 km/h
2597 12-01-2011 08:00:00 2.98 C 4.99 g/m*3 2.98 C 0 km/h
2598 12-01-2011 09:00:00 3.84 C 5.04 g/m*3 3.84 C 0 km/h
2599 12-01-2011 10:00:00 4.82 C 4.87 g/m*3 4.82 C 0 km/h
2600 12-01-2011 11:00:00 5.26 C 4.85 g/m*3 5.26 C 0 km/h
Sensor: Nr:Datum:Temp:Abs-Feuchte:Windchill:Wind:
Aussen-T/F 2601 12-01-2011 12:00:00 4.88 C 5.08 g/m*3 4.88 C 0 km/h
2602 12-01-2011 13:00:00 4.9 C 5.37 g/m*3 4.9 C 0 km/h
2603 12-01-2011 14:00:00 5.12 C 5.52 g/m*3 5.12 C 0 km/h
2604 12-01-2011 15:00:00 5.42 C 5.51 g/m*3 5.42 C 0 km/h
2605 12-01-2011 16:00:00 6.04 C 5.47 g/m*3 6.04 C 0 km/h
2606 12-01-2011 17:00:00 6.2 C 5.6 g/m*3 6.2 C 0 km/h
2607 12-01-2011 18:00:00 6.12 C 5.91 g/m*3 6.12 C 0 km/h
2608 12-01-2011 19:00:00 6.3 C 6.17 g/m*3 6.3 C 0 km/h
2609 12-01-2011 20:00:00 6.98 C 6.28 g/m*3 6.98 C 0 km/h
2610 12-01-2011 21:00:00 7.34 C 6.51 g/m*3 7.34 C 0 km/h
2611 12-01-2011 22:00:00 7.96 C 6.71 g/m*3 7.96 C 0 km/h
2612 12-01-2011 23:00:00 8.76 C 6.82 g/m*3 8.76 C 0 km/h
2613 13-01-2011 00:00:00 9.3 C 6.99 g/m*3 9.3 C 0 km/h
2614 13-01-2011 01:00:00 9.98 C 7.26 g/m*3 9.98 C 0 km/h
2615 13-01-2011 02:00:00 10.6 C 7.55 g/m*3 10.6 C 0 km/h
2616 13-01-2011 03:00:00 10.32 C 7.84 g/m*3 10.32 C 0 km/h
2617 13-01-2011 04:00:00 10.7 C 8.05 g/m*3 10.7 C 0 km/h
2618 13-01-2011 05:00:00 10.84 C 8.13 g/m*3 10.84 C 0 km/h
2619 13-01-2011 06:00:00 10.58 C 8.31 g/m*3 10.58 C 0 km/h
2620 13-01-2011 07:00:00 10.66 C 8.46 g/m*3 10.66 C 0 km/h
2621 13-01-2011 08:00:00 10.84 C 8.46 g/m*3 10.84 C 0 km/h
2622 13-01-2011 09:00:00 11.26 C 8.44 g/m*3 11.26 C 0 km/h
2623 13-01-2011 10:00:00 11.94 C 8.32 g/m*3 11.94 C 0 km/h
2624 13-01-2011 11:00:00 12.52 C 8.26 g/m*3 12.52 C 0 km/h
2625 13-01-2011 12:00:00 12.46 C 8.31 g/m*3 12.46 C 0 km/h
Sensor: Nr:Datum:Temp:Abs-Feuchte:Windchill:Wind:
Aussen-T/F 2626 13-01-2011 13:00:00 12.54 C 8.4 g/m*3 12.54 C 0 km/h
2627 13-01-2011 14:00:00 13.18 C 8.28 g/m*3 13.18 C 0 km/h
2628 13-01-2011 15:00:00 13.06 C 8.26 g/m*3 13.06 C 0 km/h
2629 13-01-2011 16:00:00 12.9 C 8.48 g/m*3 12.9 C 0 km/h
2630 13-01-2011 17:00:00 12.86 C 8.5 g/m*3 12.86 C 0 km/h
2631 13-01-2011 18:00:00 12.84 C 8.42 g/m*3 12.84 C 0 km/h
2632 13-01-2011 19:00:00 12.82 C 8.5 g/m*3 12.82 C 0 km/h
2633 13-01-2011 20:00:00 12.7 C 8.53 g/m*3 12.7 C 0 km/h
2634 13-01-2011 21:00:00 12.82 C 8.46 g/m*3 12.82 C 0 km/h
2635 13-01-2011 22:00:00 12.82 C 8.34 g/m*3 12.82 C 0 km/h
2636 13-01-2011 23:00:00 12.74 C 8.26 g/m*3 12.74 C 0 km/h
2637 14-01-2011 00:00:00 12.56 C 8.14 g/m*3 12.56 C 0 km/h
2638 14-01-2011 01:00:00 12.5 C 8.09 g/m*3 12.5 C 0 km/h
2639 14-01-2011 02:00:00 12.34 C 7.95 g/m*3 12.34 C 0 km/h
2640 14-01-2011 03:00:00 12.24 C 7.83 g/m*3 12.24 C 0 km/h
2641 14-01-2011 04:00:00 12.24 C 7.81 g/m*3 12.24 C 0 km/h
2642 14-01-2011 05:00:00 12.26 C 7.8 g/m*3 12.26 C 0 km/h
2643 14-01-2011 06:00:00 12.56 C 7.61 g/m*3 12.56 C 0 km/h
2644 14-01-2011 07:00:00 12.3 C 7.36 g/m*3 12.3 C 0 km/h
2645 14-01-2011 08:00:00 11.66 C 6.99 g/m*3 11.66 C 0 km/h
2646 14-01-2011 09:00:00 11.46 C 6.84 g/m*3 11.46 C 0 km/h
2647 14-01-2011 10:00:00 11.74 C 6.71 g/m*3 11.74 C 0 km/h
2648 14-01-2011 11:00:00 12.02 C 6.62 g/m*3 12.02 C 0 km/h
2649 14-01-2011 12:00:00 12.14 C 6.54 g/m*3 12.14 C 0 km/h
2650 14-01-2011 13:00:00 12 C 6.63 g/m*3 12 C 0 km/h
Sensor: Nr:Datum:Temp:Abs-Feuchte:Windchill:Wind:
Aussen-T/F 2651 14-01-2011 14:00:00 11.64 C 6.81 g/m*3 11.64 C 0 km/h
2652 14-01-2011 15:00:00 12.12 C 6.55 g/m*3 12.12 C 0 km/h
2653 14-01-2011 16:00:00 11.96 C 6.4 g/m*3 11.96 C 0 km/h
2654 14-01-2011 17:00:00 11.52 C 6.33 g/m*3 11.52 C 0 km/h
2655 14-01-2011 18:00:00 11.04 C 6.32 g/m*3 11.04 C 0 km/h
2656 14-01-2011 19:00:00 11.14 C 6.24 g/m*3 11.14 C 0 km/h
2657 14-01-2011 20:00:00 11.68 C 6.08 g/m*3 11.68 C 0 km/h
2658 14-01-2011 21:00:00 11.4 C 6.01 g/m*3 11.4 C 0 km/h
2659 14-01-2011 22:00:00 10.82 C 6.25 g/m*3 10.82 C 0 km/h
2660 14-01-2011 23:00:00 9.24 C 6.77 g/m*3 9.24 C 0 km/h
2661 15-01-2011 00:00:00 8.22 C 6.64 g/m*3 8.22 C 0 km/h
2662 15-01-2011 01:00:00 8.22 C 6.41 g/m*3 8.22 C 0 km/h
2663 15-01-2011 02:00:00 8.04 C 6.43 g/m*3 8.04 C 0 km/h
2664 15-01-2011 03:00:00 8.12 C 6.47 g/m*3 8.12 C 0 km/h
2665 15-01-2011 04:00:00 8.22 C 6.41 g/m*3 8.22 C 0 km/h
2666 15-01-2011 05:00:00 7.96 C 6.14 g/m*3 7.96 C 0 km/h
2667 15-01-2011 06:00:00 7.44 C 6.22 g/m*3 7.44 C 0 km/h
2668 15-01-2011 07:00:00 7.08 C 6.14 g/m*3 7.08 C 0 km/h
2669 15-01-2011 08:00:00 7.68 C 6.14 g/m*3 7.68 C 0 km/h
2670 15-01-2011 09:00:00 8.3 C 5.98 g/m*3 8.3 C 0 km/h
2671 15-01-2011 10:00:00 9.06 C 5.91 g/m*3 9.06 C 0 km/h
2672 15-01-2011 11:00:00 9.86 C 5.89 g/m*3 9.86 C 0 km/h
2673 15-01-2011 12:00:00 10.2 C 5.73 g/m*3 10.2 C 0 km/h
2674 15-01-2011 13:00:00 10.04 C 5.58 g/m*3 10.04 C 0 km/h
2675 15-01-2011 14:00:00 10.04 C 5.54 g/m*3 10.04 C 0 km/h
Sensor: Nr:Datum:Temp:Abs-Feuchte:Windchill:Wind:
Aussen-T/F 2676 15-01-2011 15:00:00 9.62 C 5.52 g/m*3 9.62 C 0 km/h
2677 15-01-2011 16:00:00 8.9 C 5.71 g/m*3 8.9 C 0 km/h
2678 15-01-2011 17:00:00 9.02 C 5.65 g/m*3 9.02 C 0 km/h
2679 15-01-2011 18:00:00 8.98 C 5.78 g/m*3 8.98 C 0 km/h
2680 15-01-2011 19:00:00 9.18 C 5.69 g/m*3 9.18 C 0 km/h
2681 15-01-2011 20:00:00 8.92 C 5.68 g/m*3 8.92 C 0 km/h
2682 15-01-2011 21:00:00 8.04 C 5.62 g/m*3 8.04 C 0 km/h
2683 15-01-2011 22:00:00 8.6 C 5.89 g/m*3 8.6 C 0 km/h
2684 15-01-2011 23:00:00 8.62 C 5.89 g/m*3 8.62 C 0 km/h
2685 16-01-2011 00:00:00 8.9 C 5.83 g/m*3 8.9 C 0 km/h
2686 16-01-2011 01:00:00 8.24 C 5.69 g/m*3 8.24 C 0 km/h
2687 16-01-2011 02:00:00 7.96 C 5.77 g/m*3 7.96 C 0 km/h
2688 16-01-2011 03:00:00 8.14 C 5.71 g/m*3 8.14 C 0 km/h
2689 16-01-2011 04:00:00 8.22 C 5.75 g/m*3 8.22 C 0 km/h
2690 16-01-2011 05:00:00 7.16 C 5.98 g/m*3 7.16 C 0 km/h
2691 16-01-2011 06:00:00 7.06 C 6.08 g/m*3 7.06 C 0 km/h
2692 16-01-2011 07:00:00 7.88 C 6.07 g/m*3 7.88 C 0 km/h
2693 16-01-2011 08:00:00 8.22 C 5.87 g/m*3 8.22 C 0 km/h
2694 16-01-2011 09:00:00 8.04 C 5.9 g/m*3 8.04 C 0 km/h
2695 16-01-2011 10:00:00 7.98 C 5.91 g/m*3 7.98 C 0 km/h
2696 16-01-2011 11:00:00 8.36 C 5.99 g/m*3 8.36 C 0 km/h
2697 16-01-2011 12:00:00 8.64 C 6.15 g/m*3 8.64 C 0 km/h
2698 16-01-2011 13:00:00 8.82 C 6.19 g/m*3 8.82 C 0 km/h
2699 16-01-2011 14:00:00 8.46 C 6.27 g/m*3 8.46 C 0 km/h
2700 16-01-2011 15:00:00 9.92 C 6.23 g/m*3 9.92 C 0 km/h
Sensor: Nr:Datum:Temp:Abs-Feuchte:Windchill:Wind:
Aussen-T/F 2701 16-01-2011 16:00:00 8.04 C 6.35 g/m*3 8.04 C 0 km/h
2702 16-01-2011 17:00:00 5.92 C 6.14 g/m*3 5.92 C 0 km/h
2703 16-01-2011 18:00:00 4.84 C 5.92 g/m*3 4.84 C 0 km/h
2704 16-01-2011 19:00:00 4.22 C 5.77 g/m*3 4.22 C 0 km/h
2705 16-01-2011 20:00:00 3.26 C 5.47 g/m*3 3.26 C 0 km/h
2706 16-01-2011 21:00:00 2.4 C 5.2 g/m*3 2.4 C 0 km/h
2707 16-01-2011 22:00:00 2.16 C 5.16 g/m*3 2.16 C 0 km/h
2708 16-01-2011 23:00:00 1.36 C 4.89 g/m*3 1.36 C 0 km/h
2709 17-01-2011 00:00:00 1.4 C 4.93 g/m*3 1.4 C 0 km/h
2710 17-01-2011 01:00:00 1.18 C 4.88 g/m*3 1.18 C 0 km/h
2711 17-01-2011 02:00:00 1.12 C 4.87 g/m*3 1.12 C 0 km/h
2712 17-01-2011 03:00:00 1.04 C 4.87 g/m*3 1.04 C 0 km/h
2713 17-01-2011 04:00:00 -0.04 C 4.49 g/m*3 -0.04 C 0 km/h
2714 17-01-2011 05:00:00 0.08 C 4.55 g/m*3 0.08 C 0 km/h
2715 17-01-2011 06:00:00 -0.62 C 4.32 g/m*3 -0.62 C 0 km/h
2716 17-01-2011 07:00:00 -0.4 C 4.4 g/m*3 -0.4 C 0 km/h
2717 17-01-2011 08:00:00 -0.66 C 4.32 g/m*3 -0.66 C 0 km/h
2718 17-01-2011 09:00:00 0.72 C 4.79 g/m*3 0.72 C 0 km/h
2719 17-01-2011 10:00:00 0.68 C 4.77 g/m*3 0.68 C 0 km/h
2720 17-01-2011 11:00:00 2.14 C 5.26 g/m*3 2.14 C 0 km/h
2721 17-01-2011 12:00:00 5.42 C 6.5 g/m*3 5.42 C 0 km/h
2722 17-01-2011 13:00:00 6.06 C 6.54 g/m*3 6.06 C 0 km/h
2723 17-01-2011 14:00:00 6.4 C 6.08 g/m*3 6.4 C 0 km/h
2724 17-01-2011 15:00:00 6.18 C 5.9 g/m*3 6.18 C 0 km/h
2725 17-01-2011 16:00:00 6.18 C 5.96 g/m*3 6.18 C 0 km/h
Sensor: Nr:Datum:Temp:Abs-Feuchte:Windchill:Wind:
Aussen-T/F 2726 17-01-2011 17:00:00 6.2 C 5.82 g/m*3 6.2 C 0 km/h
2727 17-01-2011 18:00:00 5.98 C 6.05 g/m*3 5.98 C 0 km/h
2728 17-01-2011 19:00:00 6.22 C 6.1 g/m*3 6.22 C 0 km/h
2729 17-01-2011 20:00:00 6.94 C 6.19 g/m*3 6.94 C 0 km/h
2730 17-01-2011 21:00:00 8.04 C 6.23 g/m*3 8.04 C 0 km/h
2731 17-01-2011 22:00:00 8.28 C 6.13 g/m*3 8.28 C 0 km/h
2732 17-01-2011 23:00:00 8.56 C 6.24 g/m*3 8.56 C 0 km/h
2733 18-01-2011 00:00:00 7.64 C 6.14 g/m*3 7.64 C 0 km/h
2734 18-01-2011 01:00:00 6.84 C 6.13 g/m*3 6.84 C 0 km/h
2735 18-01-2011 02:00:00 5.24 C 5.94 g/m*3 5.24 C 0 km/h
2736 18-01-2011 03:00:00 7.1 C 6.1 g/m*3 7.1 C 0 km/h
2737 18-01-2011 04:00:00 7.06 C 5.96 g/m*3 7.06 C 0 km/h
2738 18-01-2011 05:00:00 7.68 C 5.94 g/m*3 7.68 C 0 km/h
2739 18-01-2011 06:00:00 7.26 C 5.97 g/m*3 7.26 C 0 km/h
2740 18-01-2011 07:00:00 7.14 C 6.04 g/m*3 7.14 C 0 km/h
2741 18-01-2011 08:00:00 7.3 C 5.97 g/m*3 7.3 C 0 km/h
2742 18-01-2011 09:00:00 8.44 C 6.04 g/m*3 8.44 C 0 km/h
2743 18-01-2011 10:00:00 8.84 C 6.09 g/m*3 8.84 C 0 km/h
2744 18-01-2011 11:00:00 8.74 C 6.05 g/m*3 8.74 C 0 km/h
2745 18-01-2011 12:00:00 9.7 C 6.07 g/m*3 9.7 C 0 km/h
2746 18-01-2011 13:00:00 9.7 C 6.05 g/m*3 9.7 C 0 km/h
2747 18-01-2011 14:00:00 9.72 C 5.94 g/m*3 9.72 C 0 km/h
2748 18-01-2011 15:00:00 9.42 C 5.67 g/m*3 9.42 C 0 km/h
2749 18-01-2011 16:00:00 8.38 C 5.78 g/m*3 8.38 C 0 km/h
2750 18-01-2011 17:00:00 6.54 C 6.42 g/m*3 6.54 C 0 km/h
Sensor: Nr:Datum:Temp:Abs-Feuchte:Windchill:Wind:
Aussen-T/F 2751 18-01-2011 18:00:00 6.16 C 6.31 g/m*3 6.16 C 0 km/h
2752 18-01-2011 19:00:00 5.86 C 6.26 g/m*3 5.86 C 0 km/h
2753 18-01-2011 20:00:00 5.74 C 6.04 g/m*3 5.74 C 0 km/h
2754 18-01-2011 21:00:00 5.1 C 5.62 g/m*3 5.1 C 0 km/h
2755 18-01-2011 22:00:00 4.64 C 5.48 g/m*3 4.64 C 0 km/h
2756 18-01-2011 23:00:00 4.68 C 5.47 g/m*3 4.68 C 0 km/h
2757 19-01-2011 00:00:00 4.36 C 5.2 g/m*3 4.36 C 0 km/h
2758 19-01-2011 01:00:00 3.88 C 4.77 g/m*3 3.88 C 0 km/h
2759 19-01-2011 02:00:00 3.42 C 4.67 g/m*3 3.42 C 0 km/h
2760 19-01-2011 03:00:00 2.92 C 4.8 g/m*3 2.92 C 0 km/h
2761 19-01-2011 04:00:00 2.8 C 4.89 g/m*3 2.8 C 0 km/h
2762 19-01-2011 05:00:00 2.56 C 4.99 g/m*3 2.56 C 0 km/h
2763 19-01-2011 06:00:00 2.64 C 4.99 g/m*3 2.64 C 0 km/h
2764 19-01-2011 07:00:00 2.8 C 4.85 g/m*3 2.8 C 0 km/h
2765 19-01-2011 08:00:00 2.4 C 4.86 g/m*3 2.4 C 0 km/h
2766 19-01-2011 09:00:00 2.7 C 4.81 g/m*3 2.7 C 0 km/h
2767 19-01-2011 10:00:00 2.4 C 4.68 g/m*3 2.4 C 0 km/h
2768 19-01-2011 11:00:00 3.64 C 4.84 g/m*3 3.64 C 0 km/h
2769 19-01-2011 12:00:00 4.44 C 4.64 g/m*3 4.44 C 0 km/h
2770 19-01-2011 13:00:00 4.94 C 4.35 g/m*3 4.94 C 0 km/h
2771 19-01-2011 14:00:00 5.36 C 4.24 g/m*3 5.36 C 0 km/h
2772 19-01-2011 15:00:00 4.94 C 4.13 g/m*3 4.94 C 0 km/h
2773 19-01-2011 16:00:00 4.18 C 4.38 g/m*3 4.18 C 0 km/h
2774 19-01-2011 17:00:00 3.34 C 4.54 g/m*3 3.34 C 0 km/h
2775 19-01-2011 18:00:00 2.94 C 4.7 g/m*3 2.94 C 0 km/h
Sensor: Nr:Datum:Temp:Abs-Feuchte:Windchill:Wind:
Aussen-T/F 2776 19-01-2011 19:00:00 3.2 C 4.46 g/m*3 3.2 C 0 km/h
2777 19-01-2011 20:00:00 2.36 C 4.69 g/m*3 2.36 C 0 km/h
2778 19-01-2011 21:00:00 2.5 C 4.78 g/m*3 2.5 C 0 km/h
2779 19-01-2011 22:00:00 2.4 C 4.73 g/m*3 2.4 C 0 km/h
2780 19-01-2011 23:00:00 2.28 C 4.69 g/m*3 2.28 C 0 km/h
2781 20-01-2011 00:00:00 1.72 C 4.73 g/m*3 1.72 C 0 km/h
2782 20-01-2011 01:00:00 1.82 C 4.87 g/m*3 1.82 C 0 km/h
2783 20-01-2011 02:00:00 1.22 C 4.71 g/m*3 1.22 C 0 km/h
2784 20-01-2011 03:00:00 1.34 C 4.82 g/m*3 1.34 C 0 km/h
2785 20-01-2011 04:00:00 1.16 C 4.78 g/m*3 1.16 C 0 km/h
2786 20-01-2011 05:00:00 1.36 C 4.87 g/m*3 1.36 C 0 km/h
2787 20-01-2011 06:00:00 1.28 C 4.85 g/m*3 1.28 C 0 km/h
2788 20-01-2011 07:00:00 1.02 C 4.73 g/m*3 1.02 C 0 km/h
2789 20-01-2011 08:00:00 1.2 C 4.75 g/m*3 1.2 C 0 km/h
2790 20-01-2011 09:00:00 1.44 C 4.7 g/m*3 1.44 C 0 km/h
2791 20-01-2011 10:00:00 2.02 C 4.61 g/m*3 2.02 C 0 km/h
2792 20-01-2011 11:00:00 2.72 C 4.53 g/m*3 2.72 C 0 km/h
2793 20-01-2011 12:00:00 3.26 C 4.44 g/m*3 3.26 C 0 km/h
2794 20-01-2011 13:00:00 3.88 C 4.35 g/m*3 3.88 C 0 km/h
2795 20-01-2011 14:00:00 4.1 C 4.29 g/m*3 4.1 C 0 km/h
2796 20-01-2011 15:00:00 3.26 C 4.1 g/m*3 3.26 C 0 km/h
2797 20-01-2011 16:00:00 2.48 C 3.98 g/m*3 2.48 C 0 km/h
2798 20-01-2011 17:00:00 1.98 C 3.95 g/m*3 1.98 C 0 km/h
2799 20-01-2011 18:00:00 1.7 C 3.97 g/m*3 1.7 C 0 km/h
2800 20-01-2011 19:00:00 1.3 C 3.89 g/m*3 1.3 C 0 km/h
Sensor: Nr:Datum:Temp:Abs-Feuchte:Windchill:Wind:
Aussen-T/F 2801 20-01-2011 20:00:00 0.9 C 3.72 g/m*3 0.9 C 0 km/h
2802 20-01-2011 21:00:00 -0.16 C 3.59 g/m*3 -0.16 C 0 km/h
2803 20-01-2011 22:00:00 -0.28 C 3.55 g/m*3 -0.28 C 0 km/h
2804 20-01-2011 23:00:00 0.08 C 3.64 g/m*3 0.08 C 0 km/h
2805 21-01-2011 00:00:00 0.34 C 3.13 g/m*3 0.34 C 0 km/h
2806 21-01-2011 01:00:00 0.18 C 3.08 g/m*3 0.18 C 0 km/h
2807 21-01-2011 02:00:00 0.04 C 3.11 g/m*3 0.04 C 0 km/h
2808 21-01-2011 03:00:00 -0.36 C 2.8 g/m*3 -0.36 C 0 km/h
2809 21-01-2011 04:00:00 -0.38 C 2.67 g/m*3 -0.38 C 0 km/h
2810 21-01-2011 05:00:00 -0.46 C 2.75 g/m*3 -0.46 C 0 km/h
2811 21-01-2011 06:00:00 -0.74 C 2.81 g/m*3 -0.74 C 0 km/h
2812 21-01-2011 07:00:00 -0.6 C 2.67 g/m*3 -0.6 C 0 km/h
2813 21-01-2011 08:00:00 -0.5 C 2.69 g/m*3 -0.5 C 0 km/h
2814 21-01-2011 09:00:00 -0.14 C 2.75 g/m*3 -0.14 C 0 km/h
2815 21-01-2011 10:00:00 0.14 C 2.74 g/m*3 0.14 C 0 km/h
2816 21-01-2011 11:00:00 0.02 C 2.82 g/m*3 0.02 C 0 km/h
2817 21-01-2011 12:00:00 0.32 C 2.9 g/m*3 0.32 C 0 km/h
2818 21-01-2011 13:00:00 1.06 C 2.95 g/m*3 1.06 C 0 km/h
2819 21-01-2011 14:00:00 1.28 C 3.01 g/m*3 1.28 C 0 km/h
2820 21-01-2011 15:00:00 1.02 C 3.01 g/m*3 1.02 C 0 km/h
2821 21-01-2011 16:00:00 0.18 C 3.13 g/m*3 0.18 C 0 km/h
2822 21-01-2011 17:00:00 -0.22 C 3.25 g/m*3 -0.22 C 0 km/h
2823 21-01-2011 18:00:00 -0.14 C 3.26 g/m*3 -0.14 C 0 km/h
2824 21-01-2011 19:00:00 -0.4 C 3.25 g/m*3 -0.4 C 0 km/h
2825 21-01-2011 20:00:00 -0.42 C 3.4 g/m*3 -0.42 C 0 km/h
Sensor: Nr:Datum:Temp:Abs-Feuchte:Windchill:Wind:
Aussen-T/F 2826 21-01-2011 21:00:00 -0.78 C 3.61 g/m*3 -0.78 C 0 km/h
2827 21-01-2011 22:00:00 -0.58 C 3.7 g/m*3 -0.58 C 0 km/h
2828 21-01-2011 23:00:00 -0.48 C 3.8 g/m*3 -0.48 C 0 km/h
2829 22-01-2011 00:00:00 -0.4 C 3.86 g/m*3 -0.4 C 0 km/h
2830 22-01-2011 01:00:00 -0.4 C 3.86 g/m*3 -0.4 C 0 km/h
2831 22-01-2011 02:00:00 -0.4 C 3.86 g/m*3 -0.4 C 0 km/h
2832 22-01-2011 03:00:00 -0.4 C 3.86 g/m*3 -0.4 C 0 km/h
2833 22-01-2011 04:00:00 -0.4 C 3.86 g/m*3 -0.4 C 0 km/h
2834 22-01-2011 05:00:00 -0.4 C 3.86 g/m*3 -0.4 C 0 km/h
2835 22-01-2011 06:00:00 -0.4 C 3.86 g/m*3 -0.4 C 0 km/h
2836 22-01-2011 07:00:00 -0.4 C 3.86 g/m*3 -0.4 C 0 km/h
2837 22-01-2011 08:00:00 -0.32 C 3.89 g/m*3 -0.32 C 0 km/h
2838 22-01-2011 09:00:00 0 C 3.97 g/m*3 0 C 0 km/h
2839 22-01-2011 10:00:00 0.92 C 3.86 g/m*3 0.92 C 0 km/h
2840 22-01-2011 11:00:00 1.4 C 3.72 g/m*3 1.4 C 0 km/h
2841 22-01-2011 12:00:00 1.72 C 3.69 g/m*3 1.72 C 0 km/h
2842 22-01-2011 13:00:00 1.72 C 3.73 g/m*3 1.72 C 0 km/h
2843 22-01-2011 14:00:00 1.84 C 3.98 g/m*3 1.84 C 0 km/h
2844 22-01-2011 15:00:00 1.56 C 3.92 g/m*3 1.56 C 0 km/h
2845 22-01-2011 16:00:00 1.28 C 3.86 g/m*3 1.28 C 0 km/h
2846 22-01-2011 17:00:00 0.72 C 3.9 g/m*3 0.72 C 0 km/h
2847 22-01-2011 18:00:00 0.56 C 3.93 g/m*3 0.56 C 0 km/h
2848 22-01-2011 19:00:00 0.34 C 4.05 g/m*3 0.34 C 0 km/h
2849 22-01-2011 20:00:00 0.38 C 4.01 g/m*3 0.38 C 0 km/h
2850 22-01-2011 21:00:00 0.32 C 4.03 g/m*3 0.32 C 0 km/h
Sensor: Nr:Datum:Temp:Abs-Feuchte:Windchill:Wind:
Aussen-T/F 2851 22-01-2011 22:00:00 0.25 C 4.04 g/m*3 0.25 C 0 km/h
2852 22-01-2011 23:00:00 0 C 3.97 g/m*3 0 C 0 km/h
2853 23-01-2011 00:00:00 0.22 C 4.03 g/m*3 0.22 C 0 km/h
2854 23-01-2011 01:00:00 0.22 C 4.03 g/m*3 0.22 C 0 km/h
2855 23-01-2011 02:00:00 0.28 C 4.05 g/m*3 0.28 C 0 km/h
2856 23-01-2011 03:00:00 0.44 C 4.05 g/m*3 0.44 C 0 km/h
2857 23-01-2011 04:00:00 0.4 C 4.05 g/m*3 0.4 C 0 km/h
2858 23-01-2011 05:00:00 0.22 C 4.21 g/m*3 0.22 C 0 km/h
2859 23-01-2011 06:00:00 0.42 C 4.4 g/m*3 0.42 C 0 km/h
2860 23-01-2011 07:00:00 0.66 C 4.51 g/m*3 0.66 C 0 km/h
2861 23-01-2011 08:00:00 0.94 C 4.61 g/m*3 0.94 C 0 km/h
2862 23-01-2011 09:00:00 1.46 C 4.71 g/m*3 1.46 C 0 km/h
2863 23-01-2011 10:00:00 1.92 C 4.55 g/m*3 1.92 C 0 km/h
2864 23-01-2011 11:00:00 2.02 C 4.54 g/m*3 2.02 C 0 km/h
2865 23-01-2011 12:00:00 2.16 C 4.62 g/m*3 2.16 C 0 km/h
2866 23-01-2011 13:00:00 2.22 C 4.76 g/m*3 2.22 C 0 km/h
2867 23-01-2011 14:00:00 2.4 C 4.88 g/m*3 2.4 C 0 km/h
2868 23-01-2011 15:00:00 2.3 C 4.9 g/m*3 2.3 C 0 km/h
2869 23-01-2011 16:00:00 2.2 C 4.97 g/m*3 2.2 C 0 km/h
2870 23-01-2011 17:00:00 2.16 C 5.03 g/m*3 2.16 C 0 km/h
2871 23-01-2011 18:00:00 2.12 C 5.06 g/m*3 2.12 C 0 km/h
2872 23-01-2011 19:00:00 2.18 C 5.12 g/m*3 2.18 C 0 km/h
2873 23-01-2011 20:00:00 2.22 C 5.14 g/m*3 2.22 C 0 km/h
2874 23-01-2011 21:00:00 2.24 C 5.2 g/m*3 2.24 C 0 km/h
2875 23-01-2011 22:00:00 2.28 C 5.21 g/m*3 2.28 C 0 km/h
Sensor: Nr:Datum:Temp:Abs-Feuchte:Windchill:Wind:
Aussen-T/F 2876 23-01-2011 23:00:00 2.36 C 5.24 g/m*3 2.36 C 0 km/h
2877 24-01-2011 00:00:00 2.42 C 5.26 g/m*3 2.42 C 0 km/h
2878 24-01-2011 01:00:00 2.58 C 5.35 g/m*3 2.58 C 0 km/h
2879 24-01-2011 02:00:00 2.56 C 5.37 g/m*3 2.56 C 0 km/h
2880 24-01-2011 03:00:00 2.02 C 5.13 g/m*3 2.02 C 0 km/h
2881 24-01-2011 04:00:00 2.12 C 5.2 g/m*3 2.12 C 0 km/h
2882 24-01-2011 05:00:00 2.48 C 5.34 g/m*3 2.48 C 0 km/h
2883 24-01-2011 06:00:00 2.5 C 5.35 g/m*3 2.5 C 0 km/h
2884 24-01-2011 07:00:00 2.78 C 5.33 g/m*3 2.78 C 0 km/h
2885 24-01-2011 08:00:00 2.76 C 5.07 g/m*3 2.76 C 0 km/h
2886 24-01-2011 09:00:00 2.92 C 4.75 g/m*3 2.92 C 0 km/h
2887 24-01-2011 10:00:00 3.12 C 4.6 g/m*3 3.12 C 0 km/h
2888 24-01-2011 11:00:00 3.46 C 4.57 g/m*3 3.46 C 0 km/h
2889 24-01-2011 12:00:00 4.04 C 4.6 g/m*3 4.04 C 0 km/h
2890 24-01-2011 13:00:00 4.36 C 4.7 g/m*3 4.36 C 0 km/h
2891 24-01-2011 14:00:00 4.2 C 4.7 g/m*3 4.2 C 0 km/h
2892 24-01-2011 15:00:00 3.98 C 4.79 g/m*3 3.98 C 0 km/h
2893 24-01-2011 16:00:00 3.78 C 4.96 g/m*3 3.78 C 0 km/h
2894 24-01-2011 17:00:00 3.6 C 4.96 g/m*3 3.6 C 0 km/h
2895 24-01-2011 18:00:00 3.44 C 5.03 g/m*3 3.44 C 0 km/h
2896 24-01-2011 19:00:00 3.18 C 5.1 g/m*3 3.18 C 0 km/h
2897 24-01-2011 20:00:00 3.16 C 5.24 g/m*3 3.16 C 0 km/h
2898 24-01-2011 21:00:00 3.08 C 5.24 g/m*3 3.08 C 0 km/h
2899 24-01-2011 22:00:00 3.08 C 5.33 g/m*3 3.08 C 0 km/h
2900 24-01-2011 23:00:00 2.82 C 5.29 g/m*3 2.82 C 0 km/h
Sensor: Nr:Datum:Temp:Abs-Feuchte:Windchill:Wind:
Aussen-T/F 2901 25-01-2011 00:00:00 2.74 C 5.19 g/m*3 2.74 C 0 km/h
2902 25-01-2011 01:00:00 2.66 C 4.76 g/m*3 2.66 C 0 km/h
2903 25-01-2011 02:00:00 1.88 C 4.72 g/m*3 1.88 C 0 km/h
2904 25-01-2011 03:00:00 1.98 C 4.66 g/m*3 1.98 C 0 km/h
2905 25-01-2011 04:00:00 2.64 C 4.43 g/m*3 2.64 C 0 km/h
2906 25-01-2011 05:00:00 3.12 C 4.29 g/m*3 3.12 C 0 km/h
2907 25-01-2011 06:00:00 3.34 C 4.19 g/m*3 3.34 C 0 km/h
2908 25-01-2011 07:00:00 2.98 C 4.18 g/m*3 2.98 C 0 km/h
2909 25-01-2011 08:00:00 2.52 C 4.28 g/m*3 2.52 C 0 km/h
2910 25-01-2011 09:00:00 2.92 C 4.27 g/m*3 2.92 C 0 km/h
2911 25-01-2011 10:00:00 2.92 C 4.38 g/m*3 2.92 C 0 km/h
2912 25-01-2011 11:00:00 2.96 C 4.58 g/m*3 2.96 C 0 km/h
2913 25-01-2011 12:00:00 3.38 C 4.75 g/m*3 3.38 C 0 km/h
2914 25-01-2011 13:00:00 3.94 C 4.67 g/m*3 3.94 C 0 km/h
2915 25-01-2011 14:00:00 3.98 C 4.72 g/m*3 3.98 C 0 km/h
2916 25-01-2011 15:00:00 2.3 C 4.72 g/m*3 2.3 C 0 km/h
2917 25-01-2011 16:00:00 2.52 C 4.88 g/m*3 2.52 C 0 km/h
2918 25-01-2011 17:00:00 2.42 C 4.77 g/m*3 2.42 C 0 km/h
2919 25-01-2011 18:00:00 2.36 C 4.74 g/m*3 2.36 C 0 km/h
2920 25-01-2011 19:00:00 1.5 C 4.62 g/m*3 1.5 C 0 km/h
2921 25-01-2011 20:00:00 0.84 C 4.46 g/m*3 0.84 C 0 km/h
2922 25-01-2011 21:00:00 1.08 C 4.47 g/m*3 1.08 C 0 km/h
2923 25-01-2011 22:00:00 1.84 C 4.35 g/m*3 1.84 C 0 km/h
2924 25-01-2011 23:00:00 1.14 C 4.32 g/m*3 1.14 C 0 km/h
2925 26-01-2011 00:00:00 0.64 C 4.31 g/m*3 0.64 C 0 km/h
Sensor: Nr:Datum:Temp:Abs-Feuchte:Windchill:Wind:
Aussen-T/F 2926 26-01-2011 01:00:00 -0.58 C 4.07 g/m*3 -0.58 C 0 km/h
2927 26-01-2011 02:00:00 -0.62 C 4.13 g/m*3 -0.62 C 0 km/h
2928 26-01-2011 03:00:00 -0.52 C 4.21 g/m*3 -0.52 C 0 km/h
2929 26-01-2011 04:00:00 -0.46 C 4.24 g/m*3 -0.46 C 0 km/h
2930 26-01-2011 05:00:00 -0.2 C 4.35 g/m*3 -0.2 C 0 km/h
2931 26-01-2011 06:00:00 -0.16 C 4.36 g/m*3 -0.16 C 0 km/h
2932 26-01-2011 07:00:00 -0.22 C 4.34 g/m*3 -0.22 C 0 km/h
2933 26-01-2011 08:00:00 0.04 C 4.43 g/m*3 0.04 C 0 km/h
2934 26-01-2011 09:00:00 0.66 C 4.65 g/m*3 0.66 C 0 km/h
2935 26-01-2011 10:00:00 1.6 C 4.81 g/m*3 1.6 C 0 km/h
2936 26-01-2011 11:00:00 2.48 C 4.55 g/m*3 2.48 C 0 km/h
2937 26-01-2011 12:00:00 3.56 C 4.1 g/m*3 3.56 C 0 km/h
2938 26-01-2011 13:00:00 3.24 C 4 g/m*3 3.24 C 0 km/h
2939 26-01-2011 14:00:00 3.34 C 3.91 g/m*3 3.34 C 0 km/h
2940 26-01-2011 15:00:00 3.32 C 3.84 g/m*3 3.32 C 0 km/h
2941 26-01-2011 16:00:00 2.24 C 4.04 g/m*3 2.24 C 0 km/h
2942 26-01-2011 17:00:00 0.76 C 4.28 g/m*3 0.76 C 0 km/h
2943 26-01-2011 18:00:00 0.64 C 4.29 g/m*3 0.64 C 0 km/h
2944 26-01-2011 19:00:00 0.44 C 4.24 g/m*3 0.44 C 0 km/h
2945 26-01-2011 20:00:00 0.5 C 4.31 g/m*3 0.5 C 0 km/h
2946 26-01-2011 21:00:00 0.52 C 4.26 g/m*3 0.52 C 0 km/h
2947 26-01-2011 22:00:00 -0.16 C 4.01 g/m*3 -0.16 C 0 km/h
2948 26-01-2011 23:00:00 -0.88 C 3.86 g/m*3 -0.88 C 0 km/h
2949 27-01-2011 00:00:00 -1.24 C 3.81 g/m*3 -1.24 C 0 km/h
2950 27-01-2011 01:00:00 -1.76 C 3.69 g/m*3 -1.76 C 0 km/h
Sensor: Nr:Datum:Temp:Abs-Feuchte:Windchill:Wind:
Aussen-T/F 2951 27-01-2011 02:00:00 -2.52 C 3.5 g/m*3 -2.52 C 0 km/h
2952 27-01-2011 03:00:00 -3.36 C 3.32 g/m*3 -3.36 C 0 km/h
2953 27-01-2011 04:00:00 -2.2 C 3.68 g/m*3 -2.2 C 0 km/h
2954 27-01-2011 05:00:00 -1.56 C 3.9 g/m*3 -1.56 C 0 km/h
2955 27-01-2011 06:00:00 -1.38 C 3.96 g/m*3 -1.38 C 0 km/h
2956 27-01-2011 07:00:00 -1.32 C 3.98 g/m*3 -1.32 C 0 km/h
2957 27-01-2011 08:00:00 -1.18 C 4.04 g/m*3 -1.18 C 0 km/h
2958 27-01-2011 09:00:00 -0.24 C 4.33 g/m*3 -0.24 C 0 km/h
2959 27-01-2011 10:00:00 0.86 C 4.29 g/m*3 0.86 C 0 km/h
2960 27-01-2011 11:00:00 1.86 C 3.63 g/m*3 1.86 C 0 km/h
2961 27-01-2011 12:00:00 2.44 C 3.33 g/m*3 2.44 C 0 km/h
2962 27-01-2011 13:00:00 2.64 C 3.1 g/m*3 2.64 C 0 km/h
2963 27-01-2011 14:00:00 2.4 C 2.95 g/m*3 2.4 C 0 km/h
2964 27-01-2011 15:00:00 1.88 C 2.81 g/m*3 1.88 C 0 km/h
2965 27-01-2011 16:00:00 1.18 C 2.74 g/m*3 1.18 C 0 km/h
2966 27-01-2011 17:00:00 0.26 C 2.75 g/m*3 0.26 C 0 km/h
2967 27-01-2011 18:00:00 0 C 2.77 g/m*3 0 C 0 km/h
2968 27-01-2011 19:00:00 -0.16 C 2.82 g/m*3 -0.16 C 0 km/h
2969 27-01-2011 20:00:00 -0.34 C 2.86 g/m*3 -0.34 C 0 km/h
2970 27-01-2011 21:00:00 -0.92 C 2.84 g/m*3 -0.92 C 0 km/h
2971 27-01-2011 22:00:00 -1.2 C 2.84 g/m*3 -1.2 C 0 km/h
2972 27-01-2011 23:00:00 -1 C 2.78 g/m*3 -1 C 0 km/h
2973 28-01-2011 00:00:00 -1.34 C 2.76 g/m*3 -1.34 C 0 km/h
2974 28-01-2011 01:00:00 -1.24 C 2.67 g/m*3 -1.24 C 0 km/h
2975 28-01-2011 02:00:00 -1.42 C 2.69 g/m*3 -1.42 C 0 km/h
Sensor: Nr:Datum:Temp:Abs-Feuchte:Windchill:Wind:
Aussen-T/F 2976 28-01-2011 03:00:00 -1.18 C 2.79 g/m*3 -1.18 C 0 km/h
2977 28-01-2011 04:00:00 -1.04 C 2.82 g/m*3 -1.04 C 0 km/h
2978 28-01-2011 05:00:00 -0.98 C 2.83 g/m*3 -0.98 C 0 km/h
2979 28-01-2011 06:00:00 -0.98 C 2.77 g/m*3 -0.98 C 0 km/h
2980 28-01-2011 07:00:00 -1.06 C 2.79 g/m*3 -1.06 C 0 km/h
2981 28-01-2011 08:00:00 -2.1 C 2.72 g/m*3 -2.1 C 0 km/h
2982 28-01-2011 09:00:00 -1.4 C 2.8 g/m*3 -1.4 C 0 km/h
2983 28-01-2011 10:00:00 -0.6 C 2.69 g/m*3 -0.6 C 0 km/h
2984 28-01-2011 11:00:00 0.14 C 2.7 g/m*3 0.14 C 0 km/h
2985 28-01-2011 12:00:00 0.72 C 2.7 g/m*3 0.72 C 0 km/h
2986 28-01-2011 13:00:00 0.96 C 2.72 g/m*3 0.96 C 0 km/h
2987 28-01-2011 14:00:00 1.22 C 2.75 g/m*3 1.22 C 0 km/h
2988 28-01-2011 15:00:00 1.26 C 2.8 g/m*3 1.26 C 0 km/h
2989 28-01-2011 16:00:00 0.44 C 2.86 g/m*3 0.44 C 0 km/h
2990 28-01-2011 17:00:00 -1.38 C 2.96 g/m*3 -1.38 C 0 km/h
2991 28-01-2011 18:00:00 -2.44 C 3.09 g/m*3 -2.44 C 0 km/h
2992 28-01-2011 19:00:00 -2.68 C 3.08 g/m*3 -2.68 C 0 km/h
2993 28-01-2011 20:00:00 -3.52 C 3.01 g/m*3 -3.52 C 0 km/h
2994 28-01-2011 21:00:00 -3.84 C 3.02 g/m*3 -3.84 C 0 km/h
2995 28-01-2011 22:00:00 -4.18 C 3 g/m*3 -4.18 C 0 km/h
2996 28-01-2011 23:00:00 -3.86 C 3.07 g/m*3 -3.86 C 0 km/h
2997 29-01-2011 00:00:00 -4.68 C 2.87 g/m*3 -4.68 C 0 km/h
2998 29-01-2011 01:00:00 -5.04 C 2.8 g/m*3 -5.04 C 0 km/h
2999 29-01-2011 02:00:00 -5.52 C 2.71 g/m*3 -5.52 C 0 km/h
3000 29-01-2011 03:00:00 -5.52 C 2.74 g/m*3 -5.52 C 0 km/h
Sensor: Nr:Datum:Temp:Abs-Feuchte:Windchill:Wind:
Aussen-T/F 3001 29-01-2011 04:00:00 -5.48 C 2.74 g/m*3 -5.48 C 0 km/h
3002 29-01-2011 05:00:00 -5.88 C 2.65 g/m*3 -5.88 C 0 km/h
3003 29-01-2011 06:00:00 -6.52 C 2.5 g/m*3 -6.52 C 0 km/h
3004 29-01-2011 07:00:00 -6.5 C 2.5 g/m*3 -6.5 C 0 km/h
3005 29-01-2011 08:00:00 -6.28 C 2.55 g/m*3 -6.28 C 0 km/h
3006 29-01-2011 09:00:00 -6.44 C 2.5 g/m*3 -6.44 C 0 km/h
3007 29-01-2011 10:00:00 -5.78 C 2.62 g/m*3 -5.78 C 0 km/h
3008 29-01-2011 11:00:00 -4.86 C 2.82 g/m*3 -4.86 C 0 km/h
3009 29-01-2011 12:00:00 -4 C 2.99 g/m*3 -4 C 0 km/h
3010 29-01-2011 13:00:00 -3.26 C 3.03 g/m*3 -3.26 C 0 km/h
3011 29-01-2011 14:00:00 -2.42 C 3.09 g/m*3 -2.42 C 0 km/h
3012 29-01-2011 15:00:00 -1.6 C 3.16 g/m*3 -1.6 C 0 km/h
3013 29-01-2011 16:00:00 -2.3 C 2.9 g/m*3 -2.3 C 0 km/h
3014 29-01-2011 17:00:00 -3.32 C 2.6 g/m*3 -3.32 C 0 km/h
3015 29-01-2011 18:00:00 -4.22 C 2.51 g/m*3 -4.22 C 0 km/h
3016 29-01-2011 19:00:00 -4.52 C 2.57 g/m*3 -4.52 C 0 km/h
3017 29-01-2011 20:00:00 -5.08 C 2.55 g/m*3 -5.08 C 0 km/h
3018 29-01-2011 21:00:00 -5.96 C 2.45 g/m*3 -5.96 C 0 km/h
3019 29-01-2011 22:00:00 -6.2 C 2.43 g/m*3 -6.2 C 0 km/h
3020 29-01-2011 23:00:00 -6.22 C 2.46 g/m*3 -6.22 C 0 km/h
3021 30-01-2011 00:00:00 -6.72 C 2.39 g/m*3 -6.72 C 0 km/h
3022 30-01-2011 01:00:00 -7.12 C 2.32 g/m*3 -7.12 C 0 km/h
3023 30-01-2011 02:00:00 -7.7 C 2.18 g/m*3 -7.7 C 0 km/h
3024 30-01-2011 03:00:00 -7.74 C 2.21 g/m*3 -7.74 C 0 km/h
3025 30-01-2011 04:00:00 -7.78 C 2.21 g/m*3 -7.78 C 0 km/h
Sensor: Nr:Datum:Temp:Abs-Feuchte:Windchill:Wind:
Aussen-T/F 3026 30-01-2011 05:00:00 -8.24 C 2.14 g/m*3 -8.24 C 0 km/h
3027 30-01-2011 06:00:00 -8.72 C 2.06 g/m*3 -8.72 C 0 km/h
3028 30-01-2011 07:00:00 -7.8 C 2.23 g/m*3 -7.8 C 0 km/h
3029 30-01-2011 08:00:00 -8.86 C 2.01 g/m*3 -8.86 C 0 km/h
3030 30-01-2011 09:00:00 -8.06 C 2.13 g/m*3 -8.06 C 0 km/h
3031 30-01-2011 10:00:00 -6.54 C 2.43 g/m*3 -6.54 C 0 km/h
3032 30-01-2011 11:00:00 -5.94 C 2.53 g/m*3 -5.94 C 0 km/h
3033 30-01-2011 12:00:00 -5.36 C 2.68 g/m*3 -5.36 C 0 km/h
3034 30-01-2011 13:00:00 -4.42 C 2.85 g/m*3 -4.42 C 0 km/h
3035 30-01-2011 14:00:00 -3.38 C 3.01 g/m*3 -3.38 C 0 km/h
3036 30-01-2011 15:00:00 -2.32 C 3.06 g/m*3 -2.32 C 0 km/h
3037 30-01-2011 16:00:00 -2.98 C 2.95 g/m*3 -2.98 C 0 km/h
3038 30-01-2011 17:00:00 -3.96 C 2.9 g/m*3 -3.96 C 0 km/h
3039 30-01-2011 18:00:00 -4.44 C 2.83 g/m*3 -4.44 C 0 km/h
3040 30-01-2011 19:00:00 -5.12 C 2.74 g/m*3 -5.12 C 0 km/h
3041 30-01-2011 20:00:00 -5.16 C 2.76 g/m*3 -5.16 C 0 km/h
3042 30-01-2011 21:00:00 -5.86 C 2.63 g/m*3 -5.86 C 0 km/h
3043 30-01-2011 22:00:00 -7.14 C 2.38 g/m*3 -7.14 C 0 km/h
3044 30-01-2011 23:00:00 -7.66 C 2.26 g/m*3 -7.66 C 0 km/h
3045 31-01-2011 00:00:00 -7.5 C 2.29 g/m*3 -7.5 C 0 km/h
3046 31-01-2011 01:00:00 -8.24 C 2.14 g/m*3 -8.24 C 0 km/h
3047 31-01-2011 02:00:00 -8.58 C 2.05 g/m*3 -8.58 C 0 km/h
3048 31-01-2011 03:00:00 -8.18 C 2.14 g/m*3 -8.18 C 0 km/h
3049 31-01-2011 04:00:00 -9.08 C 1.97 g/m*3 -9.08 C 0 km/h
3050 31-01-2011 05:00:00 -8.26 C 2.12 g/m*3 -8.26 C 0 km/h
Sensor: Nr:Datum:Temp:Abs-Feuchte:Windchill:Wind:
Aussen-T/F 3051 31-01-2011 06:00:00 -7.14 C 2.37 g/m*3 -7.14 C 0 km/h
3052 31-01-2011 07:00:00 -7.1 C 2.4 g/m*3 -7.1 C 0 km/h
3053 31-01-2011 08:00:00 -6.98 C 2.44 g/m*3 -6.98 C 0 km/h
3054 31-01-2011 09:00:00 -6.72 C 2.49 g/m*3 -6.72 C 0 km/h
3055 31-01-2011 10:00:00 -5.96 C 2.62 g/m*3 -5.96 C 0 km/h
3056 31-01-2011 11:00:00 -5.32 C 2.73 g/m*3 -5.32 C 0 km/h
3057 31-01-2011 12:00:00 -4.68 C 2.84 g/m*3 -4.68 C 0 km/h
3058 31-01-2011 13:00:00 -4.06 C 2.9 g/m*3 -4.06 C 0 km/h
3059 31-01-2011 14:00:00 -3.72 C 2.87 g/m*3 -3.72 C 0 km/h
3060 31-01-2011 15:00:00 -3.6 C 2.89 g/m*3 -3.6 C 0 km/h
3061 31-01-2011 16:00:00 -3.98 C 2.86 g/m*3 -3.98 C 0 km/h
3062 31-01-2011 17:00:00 -4.12 C 2.92 g/m*3 -4.12 C 0 km/h
3063 31-01-2011 18:00:00 -3.9 C 3.01 g/m*3 -3.9 C 0 km/h
3064 31-01-2011 19:00:00 -3.7 C 3.05 g/m*3 -3.7 C 0 km/h
3065 31-01-2011 20:00:00 -3.96 C 2.94 g/m*3 -3.96 C 0 km/h
3066 31-01-2011 21:00:00 -4.14 C 2.9 g/m*3 -4.14 C 0 km/h
3067 31-01-2011 22:00:00 -4.32 C 2.86 g/m*3 -4.32 C 0 km/h
3068 31-01-2011 23:00:00 -4.48 C 2.83 g/m*3 -4.48 C 0 km/h
3069 01-02-2011 00:00:00 -4.44 C 2.84 g/m*3 -4.44 C 0 km/h
3070 01-02-2011 01:00:00 -4.52 C 2.81 g/m*3 -4.52 C 0 km/h
3071 01-02-2011 02:00:00 -4.74 C 2.71 g/m*3 -4.74 C 0 km/h
3072 01-02-2011 03:00:00 -4.78 C 2.64 g/m*3 -4.78 C 0 km/h
3073 01-02-2011 04:00:00 -4.9 C 2.61 g/m*3 -4.9 C 0 km/h
3074 01-02-2011 05:00:00 -5.1 C 2.53 g/m*3 -5.1 C 0 km/h
3075 01-02-2011 06:00:00 -5.2 C 2.51 g/m*3 -5.2 C 0 km/h
Sensor: Nr:Datum:Temp:Abs-Feuchte:Windchill:Wind:
Aussen-T/F 3076 01-02-2011 07:00:00 -5.3 C 2.49 g/m*3 -5.3 C 0 km/h
3077 01-02-2011 08:00:00 -5.2 C 2.52 g/m*3 -5.2 C 0 km/h
3078 01-02-2011 09:00:00 -4.84 C 2.56 g/m*3 -4.84 C 0 km/h
3079 01-02-2011 10:00:00 -4.5 C 2.56 g/m*3 -4.5 C 0 km/h
3080 01-02-2011 11:00:00 -3.98 C 2.56 g/m*3 -3.98 C 0 km/h
3081 01-02-2011 12:00:00 -3 C 2.62 g/m*3 -3 C 0 km/h
3082 01-02-2011 13:00:00 -2.5 C 2.69 g/m*3 -2.5 C 0 km/h
3083 01-02-2011 14:00:00 -2.4 C 2.74 g/m*3 -2.4 C 0 km/h
3084 01-02-2011 15:00:00 -2.66 C 2.7 g/m*3 -2.66 C 0 km/h
3085 01-02-2011 16:00:00 -3.62 C 2.62 g/m*3 -3.62 C 0 km/h
3086 01-02-2011 17:00:00 -4.1 C 2.68 g/m*3 -4.1 C 0 km/h
3087 01-02-2011 18:00:00 -3.6 C 2.77 g/m*3 -3.6 C 0 km/h
3088 01-02-2011 19:00:00 -3.38 C 2.75 g/m*3 -3.38 C 0 km/h
3089 01-02-2011 20:00:00 -3.3 C 2.76 g/m*3 -3.3 C 0 km/h
3090 01-02-2011 21:00:00 -3.56 C 2.63 g/m*3 -3.56 C 0 km/h
3091 01-02-2011 22:00:00 -3.6 C 2.61 g/m*3 -3.6 C 0 km/h
3092 01-02-2011 23:00:00 -3.72 C 2.89 g/m*3 -3.72 C 0 km/h
3093 02-02-2011 00:00:00 -3.84 C 3.02 g/m*3 -3.84 C 0 km/h
3094 02-02-2011 01:00:00 -3.66 C 3.05 g/m*3 -3.66 C 0 km/h
3095 02-02-2011 02:00:00 -3.38 C 3.02 g/m*3 -3.38 C 0 km/h
3096 02-02-2011 03:00:00 -3.28 C 3.04 g/m*3 -3.28 C 0 km/h
3097 02-02-2011 04:00:00 -3.12 C 3.09 g/m*3 -3.12 C 0 km/h
3098 02-02-2011 05:00:00 -2.98 C 3.15 g/m*3 -2.98 C 0 km/h
3099 02-02-2011 06:00:00 -2.84 C 3.18 g/m*3 -2.84 C 0 km/h
3100 02-02-2011 07:00:00 -2.68 C 3.21 g/m*3 -2.68 C 0 km/h
Sensor: Nr:Datum:Temp:Abs-Feuchte:Windchill:Wind:
Aussen-T/F 3101 02-02-2011 08:00:00 -2.28 C 3.3 g/m*3 -2.28 C 0 km/h
3102 02-02-2011 09:00:00 -1.54 C 3.33 g/m*3 -1.54 C 0 km/h
3103 02-02-2011 10:00:00 -0.94 C 3.33 g/m*3 -0.94 C 0 km/h
3104 02-02-2011 11:00:00 -0.46 C 3.38 g/m*3 -0.46 C 0 km/h
3105 02-02-2011 12:00:00 1.26 C 3.51 g/m*3 1.26 C 0 km/h
3106 02-02-2011 13:00:00 1.94 C 3.65 g/m*3 1.94 C 0 km/h
3107 02-02-2011 14:00:00 1.92 C 3.79 g/m*3 1.92 C 0 km/h
3108 02-02-2011 15:00:00 1.42 C 3.79 g/m*3 1.42 C 0 km/h
3109 02-02-2011 16:00:00 1.16 C 3.8 g/m*3 1.16 C 0 km/h
3110 02-02-2011 17:00:00 0.64 C 3.84 g/m*3 0.64 C 0 km/h
3111 02-02-2011 18:00:00 0.52 C 3.81 g/m*3 0.52 C 0 km/h
3112 02-02-2011 19:00:00 0.32 C 3.81 g/m*3 0.32 C 0 km/h
3113 02-02-2011 20:00:00 0.28 C 3.81 g/m*3 0.28 C 0 km/h
3114 02-02-2011 21:00:00 0.26 C 3.8 g/m*3 0.26 C 0 km/h
3115 02-02-2011 22:00:00 0.2 C 3.78 g/m*3 0.2 C 0 km/h
3116 02-02-2011 23:00:00 0.32 C 3.81 g/m*3 0.32 C 0 km/h
3117 03-02-2011 00:00:00 0.34 C 3.78 g/m*3 0.34 C 0 km/h
3118 03-02-2011 01:00:00 0.48 C 3.82 g/m*3 0.48 C 0 km/h
3119 03-02-2011 02:00:00 0.64 C 3.99 g/m*3 0.64 C 0 km/h
3120 03-02-2011 03:00:00 0.44 C 4.2 g/m*3 0.44 C 0 km/h
3121 03-02-2011 04:00:00 0.6 C 4.42 g/m*3 0.6 C 0 km/h
3122 03-02-2011 05:00:00 0.9 C 4.56 g/m*3 0.9 C 0 km/h
3123 03-02-2011 06:00:00 1.16 C 4.6 g/m*3 1.16 C 0 km/h
3124 03-02-2011 07:00:00 1.4 C 4.66 g/m*3 1.4 C 0 km/h
3125 03-02-2011 08:00:00 1.52 C 4.68 g/m*3 1.52 C 0 km/h
Sensor: Nr:Datum:Temp:Abs-Feuchte:Windchill:Wind:
Aussen-T/F 3126 03-02-2011 09:00:00 1.88 C 4.67 g/m*3 1.88 C 0 km/h
3127 03-02-2011 10:00:00 2.3 C 4.64 g/m*3 2.3 C 0 km/h
3128 03-02-2011 11:00:00 2.82 C 4.64 g/m*3 2.82 C 0 km/h
3129 03-02-2011 12:00:00 3.38 C 4.66 g/m*3 3.38 C 0 km/h
3130 03-02-2011 13:00:00 3.52 C 4.68 g/m*3 3.52 C 0 km/h
3131 03-02-2011 14:00:00 3.64 C 4.78 g/m*3 3.64 C 0 km/h
3132 03-02-2011 15:00:00 3.42 C 4.76 g/m*3 3.42 C 0 km/h
3133 03-02-2011 16:00:00 3.22 C 4.71 g/m*3 3.22 C 0 km/h
3134 03-02-2011 17:00:00 2.76 C 4.68 g/m*3 2.76 C 0 km/h
3135 03-02-2011 18:00:00 2.64 C 4.57 g/m*3 2.64 C 0 km/h
3136 03-02-2011 19:00:00 1.8 C 4.46 g/m*3 1.8 C 0 km/h
3137 03-02-2011 20:00:00 1.62 C 4.41 g/m*3 1.62 C 0 km/h
3138 03-02-2011 21:00:00 1.68 C 4.35 g/m*3 1.68 C 0 km/h
3139 03-02-2011 22:00:00 2.15 C 4.34 g/m*3 2.15 C 0 km/h
3140 03-02-2011 23:00:00 2.4 C 4.43 g/m*3 2.4 C 0 km/h
3141 04-02-2011 00:00:00 3.02 C 4.36 g/m*3 3.02 C 0 km/h
3142 04-02-2011 01:00:00 3.12 C 4.32 g/m*3 3.12 C 0 km/h
3143 04-02-2011 02:00:00 2.64 C 4.42 g/m*3 2.64 C 0 km/h
3144 04-02-2011 03:00:00 2.68 C 4.39 g/m*3 2.68 C 0 km/h
3145 04-02-2011 04:00:00 2.86 C 4.5 g/m*3 2.86 C 0 km/h
3146 04-02-2011 05:00:00 3.34 C 4.77 g/m*3 3.34 C 0 km/h
3147 04-02-2011 06:00:00 4.08 C 4.92 g/m*3 4.08 C 0 km/h
3148 04-02-2011 07:00:00 4.66 C 5 g/m*3 4.66 C 0 km/h
3149 04-02-2011 08:00:00 5.46 C 5.11 g/m*3 5.46 C 0 km/h
3150 04-02-2011 09:00:00 6.12 C 5.05 g/m*3 6.12 C 0 km/h
Sensor: Nr:Datum:Temp:Abs-Feuchte:Windchill:Wind:
Aussen-T/F 3151 04-02-2011 10:00:00 6.6 C 5.07 g/m*3 6.6 C 0 km/h
3152 04-02-2011 11:00:00 7.26 C 5.09 g/m*3 7.26 C 0 km/h
3153 04-02-2011 12:00:00 7.5 C 5.22 g/m*3 7.5 C 0 km/h
3154 04-02-2011 13:00:00 7.46 C 5.3 g/m*3 7.46 C 0 km/h
3155 04-02-2011 14:00:00 7.52 C 5.4 g/m*3 7.52 C 0 km/h
3156 04-02-2011 15:00:00 7.82 C 5.48 g/m*3 7.82 C 0 km/h
3157 04-02-2011 16:00:00 7.82 C 5.56 g/m*3 7.82 C 0 km/h
3158 04-02-2011 17:00:00 7.8 C 5.6 g/m*3 7.8 C 0 km/h
3159 04-02-2011 18:00:00 8.08 C 5.58 g/m*3 8.08 C 0 km/h
3160 04-02-2011 19:00:00 8.32 C 5.65 g/m*3 8.32 C 0 km/h
3161 04-02-2011 20:00:00 8.42 C 5.74 g/m*3 8.42 C 0 km/h
3162 04-02-2011 21:00:00 8.44 C 5.73 g/m*3 8.44 C 0 km/h
3163 04-02-2011 22:00:00 8.6 C 5.72 g/m*3 8.6 C 0 km/h
3164 04-02-2011 23:00:00 8.84 C 5.72 g/m*3 8.84 C 0 km/h
3165 05-02-2011 00:00:00 8.76 C 5.64 g/m*3 8.76 C 0 km/h
3166 05-02-2011 01:00:00 8.56 C 5.69 g/m*3 8.56 C 0 km/h
3167 05-02-2011 02:00:00 8.8 C 5.61 g/m*3 8.8 C 0 km/h
3168 05-02-2011 03:00:00 9.1 C 5.45 g/m*3 9.1 C 0 km/h
3169 05-02-2011 04:00:00 8.92 C 5.47 g/m*3 8.92 C 0 km/h
3170 05-02-2011 05:00:00 8.72 C 5.49 g/m*3 8.72 C 0 km/h
3171 05-02-2011 06:00:00 8.7 C 5.5 g/m*3 8.7 C 0 km/h
3172 05-02-2011 07:00:00 8.96 C 5.5 g/m*3 8.96 C 0 km/h
3173 05-02-2011 08:00:00 8.84 C 5.55 g/m*3 8.84 C 0 km/h
3174 05-02-2011 09:00:00 9.2 C 5.46 g/m*3 9.2 C 0 km/h
3175 05-02-2011 10:00:00 9.66 C 5.43 g/m*3 9.66 C 0 km/h
Sensor: Nr:Datum:Temp:Abs-Feuchte:Windchill:Wind:
Aussen-T/F 3176 05-02-2011 11:00:00 10.04 C 5.37 g/m*3 10.04 C 0 km/h
3177 05-02-2011 12:00:00 10.16 C 5.39 g/m*3 10.16 C 0 km/h
3178 05-02-2011 13:00:00 10.22 C 5.41 g/m*3 10.22 C 0 km/h
3179 05-02-2011 14:00:00 10.02 C 5.36 g/m*3 10.02 C 0 km/h
3180 05-02-2011 15:00:00 9.74 C 5.36 g/m*3 9.74 C 0 km/h
3181 05-02-2011 16:00:00 9.44 C 5.44 g/m*3 9.44 C 0 km/h
3182 05-02-2011 17:00:00 9.16 C 5.54 g/m*3 9.16 C 0 km/h
3183 05-02-2011 18:00:00 9.18 C 5.62 g/m*3 9.18 C 0 km/h
3184 05-02-2011 19:00:00 9.1 C 5.61 g/m*3 9.1 C 0 km/h
3185 05-02-2011 20:00:00 9.22 C 5.74 g/m*3 9.22 C 0 km/h
3186 05-02-2011 21:00:00 9.18 C 5.8 g/m*3 9.18 C 0 km/h
3187 05-02-2011 22:00:00 9.18 C 5.9 g/m*3 9.18 C 0 km/h
3188 05-02-2011 23:00:00 9.34 C 5.91 g/m*3 9.34 C 0 km/h
3189 06-02-2011 00:00:00 9.54 C 5.95 g/m*3 9.54 C 0 km/h
3190 06-02-2011 01:00:00 9.52 C 6 g/m*3 9.52 C 0 km/h
3191 06-02-2011 02:00:00 9.4 C 5.97 g/m*3 9.4 C 0 km/h
3192 06-02-2011 03:00:00 9.44 C 5.88 g/m*3 9.44 C 0 km/h
3193 06-02-2011 04:00:00 9.58 C 5.82 g/m*3 9.58 C 0 km/h
3194 06-02-2011 05:00:00 9.5 C 5.63 g/m*3 9.5 C 0 km/h
3195 06-02-2011 06:00:00 9.42 C 5.54 g/m*3 9.42 C 0 km/h
3196 06-02-2011 07:00:00 9.3 C 5.43 g/m*3 9.3 C 0 km/h
3197 06-02-2011 08:00:00 9.14 C 5.36 g/m*3 9.14 C 0 km/h
3198 06-02-2011 09:00:00 9.22 C 5.33 g/m*3 9.22 C 0 km/h
3199 06-02-2011 10:00:00 9.5 C 5.19 g/m*3 9.5 C 0 km/h
3200 06-02-2011 11:00:00 9.72 C 5.11 g/m*3 9.72 C 0 km/h
Sensor: Nr:Datum:Temp:Abs-Feuchte:Windchill:Wind:
Aussen-T/F 3201 06-02-2011 12:00:00 9.82 C 5.02 g/m*3 9.82 C 0 km/h
3202 06-02-2011 13:00:00 9.86 C 4.86 g/m*3 9.86 C 0 km/h
3203 06-02-2011 14:00:00 10.42 C 4.84 g/m*3 10.42 C 0 km/h
3204 06-02-2011 15:00:00 9.7 C 4.72 g/m*3 9.7 C 0 km/h
3205 06-02-2011 16:00:00 8.44 C 4.66 g/m*3 8.44 C 0 km/h
3206 06-02-2011 17:00:00 7.5 C 4.72 g/m*3 7.5 C 0 km/h
3207 06-02-2011 18:00:00 6.86 C 4.64 g/m*3 6.86 C 0 km/h
3208 06-02-2011 19:00:00 6.88 C 4.61 g/m*3 6.88 C 0 km/h
3209 06-02-2011 20:00:00 6.52 C 4.6 g/m*3 6.52 C 0 km/h
3210 06-02-2011 21:00:00 6.14 C 4.63 g/m*3 6.14 C 0 km/h
3211 06-02-2011 22:00:00 5.8 C 4.74 g/m*3 5.8 C 0 km/h
3212 06-02-2011 23:00:00 5.66 C 4.74 g/m*3 5.66 C 0 km/h
3213 07-02-2011 00:00:00 5.28 C 4.79 g/m*3 5.28 C 0 km/h
3214 07-02-2011 01:00:00 5.48 C 4.7 g/m*3 5.48 C 0 km/h
3215 07-02-2011 02:00:00 5.7 C 4.5 g/m*3 5.7 C 0 km/h
3216 07-02-2011 03:00:0